Ship Status Report: callsign 000000

sailwx.info

Track history (hours):
 
Tides and Currents Weather Stations Pressure Air Temp Water Temp Dewpoint Dewpoint Depression Visibility Wind Speed Wind Dir Waves Ship Positions

Callsign 000000 (name unknown)

Last reported at 2014-Nov-23 16:33 UTC. Time now 2014-Nov-23 17:24 UTC.
Position N 24°24' E 118°06'.

Type: Fishing. MMSI: 200007452.

Date/timePositionNaut miles runAvg speedWind from/ knotsBaromVisibWave heightAir tempDewpointWater temp
2014-Nov-23 16:33N 24°24' E 118°06'4381575373.4
2014-Nov-23 16:33N 31°10' E 121°09'3710161.1
2014-Nov-23 16:33N 30°51' E 121°46'64330870.8
2014-Nov-23 16:32N 23°04' E 113°29'642144342.2
2014-Nov-23 16:31N 31°03' E 121°28'64916563.8
2014-Nov-23 16:29N 22°51' E 113°33'66722434.7
2014-Nov-23 16:27N 31°45' E 121°03'4207910.7
2014-Nov-23 16:24N 38°44' E 121°38'473555.0
2014-Nov-23 15:33N 30°51' E 121°46'650390029.5
2014-Nov-23 15:33N 22°52' E 113°33'26178212.0
2014-Nov-23 15:33N 24°25' E 117°59'43922927.4
2014-Nov-23 15:32N 31°03' E 121°28'642288699.3
2014-Nov-23 15:31N 23°04' E 113°29'658296293.1
2014-Nov-23 15:31N 31°24' E 121°31'231535.0
2014-Nov-23 15:30N 31°10' E 121°09'5176040.5
2014-Nov-23 15:25N 22°37' E 120°06'502576.7
2014-Nov-23 14:33N 30°51' E 121°46'19823.2
2014-Nov-23 14:32N 31°03' E 121°28'642104982.3
2014-Nov-23 14:31N 23°04' E 113°29'65824664.3
2014-Nov-23 14:30N 31°46' E 120°59'55141322.3
2014-Nov-23 14:29N 22°37' E 120°14'37014016.6
2014-Nov-23 14:27N 22°52' E 113°33'64311874.5
2014-Nov-23 14:24N 31°10' E 121°09'23261.6
2014-Nov-23 14:19N 31°24' E 121°31'6647945.8
2014-Nov-23 14:14N 23°02' E 113°22'6644302.3
2014-Nov-23 14:04N 31°30' E 121°23'4483.6
2014-Nov-23 13:33N 30°51' E 121°46'646258577.9
2014-Nov-23 13:33N 23°03' E 113°25'8664.9
2014-Nov-23 13:32N 22°56' E 113°30'64789586.8
2014-Nov-23 13:32N 31°03' E 121°28'28833.1
2014-Nov-23 13:30N 31°30' E 121°23'23376.2
2014-Nov-23 13:26N 31°10' E 121°09'239229.0
2014-Nov-23 13:26N 31°24' E 121°31'6582110.9
2014-Nov-23 13:07N 23°04' E 113°29'1 1.0
2014-Nov-23 12:33N 23°04' E 113°29'12046.8
2014-Nov-23 12:33N 23°03' E 113°30'659215595.4
2014-Nov-23 12:33N 31°24' E 121°31'366481.7
2014-Nov-23 12:33N 30°51' E 121°46'374129.0
2014-Nov-23 12:32N 31°10' E 121°09'181529.8
2014-Nov-23 12:32N 31°03' E 121°28'285833.1
2014-Nov-23 12:31N 31°30' E 121°23'6592577.1
2014-Nov-23 12:16N 23°04' E 113°29'659921.8
2014-Nov-23 11:33N 31°30' E 121°23'447213.2
2014-Nov-23 11:33N 30°50' E 121°45'648291712.1
2014-Nov-23 11:33N 23°02' E 113°22'664199242.6
2014-Nov-23 11:33N 31°27' E 121°27'241899.0
2014-Nov-23 11:32N 31°03' E 121°28'18190.1
2014-Nov-23 11:26N 31°10' E 121°09'69493.2
2014-Nov-23 11:18N 31°57' E 120°09'32321.7
2014-Nov-23 11:12N 32°00' E 120°47'6628633.1
2014-Nov-23 11:07N 23°04' E 113°29'6431139.9
2014-Nov-23 10:33N 31°57' E 120°15'10215263.2
2014-Nov-23 10:33N 30°50' E 121°45'442034.5
2014-Nov-23 10:32N 31°30' E 121°23'467179.4
2014-Nov-23 10:31N 32°00' E 120°42'6915582.0
2014-Nov-23 10:31N 31°03' E 121°28'21287.3
2014-Nov-23 10:26N 31°09' E 121°52'67478216.8
2014-Nov-23 10:26N 22°30' E 113°51'67438489.2
2014-Nov-23 10:25N 31°32' E 121°21'65831596.6
2014-Nov-23 10:24N 23°04' E 113°29'102730314.5
2014-Nov-23 10:22N 38°44' E 121°33'434540.7
2014-Nov-23 09:33N 31°30' E 121°23'2279870.8
2014-Nov-23 09:33N 31°18' E 121°45'7114256.9
2014-Nov-23 09:33N 31°60' E 120°37'9017142.9
2014-Nov-23 09:33N 30°50' E 121°45'9935661.4
2014-Nov-23 09:33N 31°60' E 120°22'672605041.9
2014-Nov-23 09:33N 22°27' E 113°46'66156638.5
2014-Nov-23 09:32N 31°03' E 121°28'4424984.3
2014-Nov-23 09:27N 24°25' E 117°52'4686037.4
2014-Nov-23 09:22N 31°37' E 121°15'6595419.1
2014-Nov-23 09:15N 23°04' E 113°29'63814726.7
2014-Nov-23 09:12N 31°58' E 120°03'95147.5
2014-Nov-23 08:33N 31°23' E 121°47'7343936.7
2014-Nov-23 08:33N 32°01' E 120°33'936233.2
2014-Nov-23 08:32N 30°50' E 121°45'192561.6
2014-Nov-23 08:32N 31°03' E 121°28'761058.8
2014-Nov-23 08:28N 32°02' E 120°32'679610733.4
2014-Nov-23 08:28N 22°27' E 113°47'66472448.8
2014-Nov-23 08:27N 31°57' E 120°10'652702.7
2014-Nov-23 08:26N 31°17' E 121°09'67824656.3
2014-Nov-23 08:24N 22°30' E 113°10'397300.9
2014-Nov-23 08:24N 23°04' E 113°29'2544940.6
2014-Nov-23 08:21N 24°25' E 117°52'477605.9
2014-Nov-23 07:33N 32°01' E 120°31'124160.9
2014-Nov-23 07:33N 31°58' E 120°18'684492127.8
2014-Nov-23 07:33N 22°30' E 113°10'680143988.8
2014-Nov-23 07:33N 30°50' E 121°45'3691327444.9
2014-Nov-23 07:33N 36°56' E 122°38'35828646.0
2014-Nov-23 07:32N 31°03' E 121°28'64214346.0
2014-Nov-23 07:29N 23°04' E 113°29'65710016.7
2014-Nov-23 07:25N 31°22' E 121°30'6779087.9
2014-Nov-23 07:21N 22°27' E 113°47'25439802.3
2014-Nov-23 07:21N 24°25' E 117°52'2511171.5
2014-Nov-23 07:08N 22°55' E 113°36'98322824.4
2014-Nov-23 07:05N 37°38' E 121°55'345655.2
2014-Nov-23 06:34N 32°01' E 120°25'58151.5
2014-Nov-23 06:33N 32°01' E 120°31'30726349.0
2014-Nov-23 06:33N 36°53' E 122°29'3641311753.4
2014-Nov-23 06:33N 30°50' E 121°45'434372.9
2014-Nov-23 06:32N 31°17' E 121°06'2310513.8
2014-Nov-23 06:32N 31°03' E 121°28'647122638.3
2014-Nov-23 06:32N 23°02' E 113°22'151495.9
2014-Nov-23 06:31N 22°55' E 113°36'318818.5
2014-Nov-23 06:08N 24°37' E 119°05'3197665.5
2014-Nov-23 06:05N 22°27' E 113°47'6781269.3
2014-Nov-23 05:33N 32°01' E 120°31'448806846.6
2014-Nov-23 05:33N 24°39' E 119°06'695411.1
2014-Nov-23 05:33N 24°25' E 117°52'437224819.1
2014-Nov-23 05:32N 30°50' E 121°45'193824.6
2014-Nov-23 05:32N 31°03' E 121°28'661158580.1
2014-Nov-23 05:32N 22°27' E 113°47'67950930.8
2014-Nov-23 05:31N 32°01' E 120°34'3068231.3
2014-Nov-23 05:29N 36°53' E 122°26'3443078.1
2014-Nov-23 05:22N 31°17' E 121°02'1041106.9
2014-Nov-23 05:16N 29°55' E 122°17'891750.6
2014-Nov-23 05:13N 31°14' E 121°30'653102284.2
2014-Nov-23 05:13N 22°55' E 113°36'657985.1
2014-Nov-23 04:33N 32°02' E 120°26'47653574.2
2014-Nov-23 04:33N 24°25' E 117°52'44275718.8
2014-Nov-23 04:32N 31°03' E 121°28'3546334.2
2014-Nov-23 04:29N 36°53' E 122°26'31536625.9
2014-Nov-23 04:28N 31°45' E 121°05'657268.2
2014-Nov-23 04:28N 30°50' E 121°45'671297.0
2014-Nov-23 04:25N 29°50' E 122°19'62814964.9
2014-Nov-23 04:22N 22°55' E 113°33'665299310.7
2014-Nov-23 04:22N 32°00' E 120°42'64251.4
2014-Nov-23 04:07N 31°09' E 121°28'6471162.7
2014-Nov-23 03:33N 23°00' E 113°32'64980593.3
2014-Nov-23 03:33N 31°59' E 120°21'47289437.3
2014-Nov-23 03:32N 24°25' E 117°52'446229208.8
2014-Nov-23 03:32N 31°08' E 121°28'51883.5
2014-Nov-23 03:32N 31°03' E 121°28'29961.2
2014-Nov-23 03:30N 31°27' E 121°47'68656154.7
2014-Nov-23 03:30N 22°54' E 113°15'96620704.6
2014-Nov-23 03:27N 36°54' E 122°26'36510431.4
2014-Nov-23 03:25N 30°50' E 121°45'3673690.4
2014-Nov-23 03:19N 36°56' E 122°28'31995816.3
2014-Nov-23 03:19N 31°44' E 121°06'1241344.6
2014-Nov-23 03:13N 29°56' E 122°17'88133.1
2014-Nov-23 02:33N 31°20' E 121°48'33438824.3
2014-Nov-23 02:33N 36°52' E 122°33'318127157.6
2014-Nov-23 02:33N 31°56' E 120°14'16052365.8
2014-Nov-23 02:33N 29°56' E 122°17'7916806.5
2014-Nov-23 02:32N 31°03' E 121°28'484027.4
2014-Nov-23 02:32N 31°46' E 121°03'665304.0
2014-Nov-23 02:31N 30°50' E 121°45'65484110.6
2014-Nov-23 02:30N 22°54' E 113°22'10344.5
2014-Nov-23 02:29N 23°03' E 113°18'45873.2
2014-Nov-23 02:25N 22°28' E 113°48'67311109.4
2014-Nov-23 02:22N 31°17' E 121°34'6957747.2
2014-Nov-23 02:16N 22°19' E 113°20'50336.6
2014-Nov-23 02:08N 23°06' E 113°37'6551149.5
2014-Nov-23 01:33N 31°16' E 121°46'183040.2
2014-Nov-23 01:33N 31°07' E 121°28'141238.8
2014-Nov-23 01:32N 31°20' E 121°33'1821117.3
2014-Nov-23 01:32N 31°03' E 121°28'64919640.9
2014-Nov-23 01:30N 22°54' E 113°30'65053183.7
2014-Nov-23 01:30N 30°50' E 121°45'6432371.5
2014-Nov-23 01:13N 23°02' E 113°31'49408.5
2014-Nov-23 01:06N 22°13' E 113°35'6971282.3
2014-Nov-23 00:33N 31°10' E 121°52'668218763.5
2014-Nov-23 00:33N 22°53' E 113°30'650123199.1
2014-Nov-23 00:33N 30°50' E 121°46'201811.7
2014-Nov-23 00:32N 31°03' E 121°28'67752952.7
2014-Nov-23 00:32N 22°14' E 113°36'67935969.9
2014-Nov-23 00:30N 31°07' E 121°28'6453383.2
2014-Nov-23 00:19N 23°02' E 113°31'911.4
2014-Nov-22 23:33N 22°53' E 113°30'647258779.8
2014-Nov-22 23:33N 32°01' E 119°58'9322428.3
2014-Nov-22 23:33N 31°07' E 121°28'4481.0
2014-Nov-22 23:32N 31°03' E 121°28'263746.8
2014-Nov-22 23:32N 31°06' E 121°59'212138.7
2014-Nov-22 23:31N 30°46' E 121°53'6449830.7
2014-Nov-22 23:27N 23°02' E 113°31'44884.3
2014-Nov-22 23:24N 22°17' E 113°35'678798.8
2014-Nov-22 22:33N 30°44' E 121°60'12675407.5
2014-Nov-22 22:33N 31°58' E 120°02'9023059.7
2014-Nov-22 22:33N 31°07' E 121°28'372.4
2014-Nov-22 22:31N 31°04' E 121°28'6435523.6
2014-Nov-22 22:24N 23°02' E 113°31'6594804.0
2014-Nov-22 22:16N 31°60' E 120°41'103146.1
2014-Nov-22 21:33N 30°46' E 122°05'1068478.7
2014-Nov-22 21:33N 31°60' E 120°36'657181867.5
2014-Nov-22 21:32N 23°02' E 113°31'644193087.3
2014-Nov-22 21:32N 31°06' E 121°28'1113.3
2014-Nov-22 21:31N 31°07' E 121°28'853144.1
2014-Nov-22 21:30N 31°57' E 120°07'3711063.9
2014-Nov-22 21:09N 38°00' E 121°38'413697.6
2014-Nov-22 20:33N 31°07' E 121°28'7215286.5
2014-Nov-22 20:33N 32°01' E 120°31'729316.1
2014-Nov-22 20:33N 31°07' E 121°28'8022219.1
2014-Nov-22 20:32N 31°56' E 120°13'6 6.0
2014-Nov-22 19:33N 31°59' E 120°20'7538717.2
2014-Nov-22 19:33N 31°11' E 121°28'4583.4
2014-Nov-22 19:33N 31°07' E 121°28'7332918.7
2014-Nov-22 19:33N 32°01' E 120°30'4 3.8
2014-Nov-22 18:33N 32°02' E 120°26'76136510.3
2014-Nov-22 18:33N 31°07' E 121°28'72398.8
2014-Nov-22 18:33N 31°14' E 121°29'692946.1
2014-Nov-22 18:32N 32°01' E 120°30'4053585.3
2014-Nov-22 18:25N 38°44' E 121°27'4642007.1
2014-Nov-22 18:11N 31°01' E 122°07'3454.3
2014-Nov-22 17:34N 31°07' E 121°28'457822547.2
2014-Nov-22 17:33N 38°44' E 121°30'4061461288.1
2014-Nov-22 17:33N 32°01' E 120°33'2172.2
2014-Nov-22 17:33N 32°01' E 120°30'693672.2
2014-Nov-22 17:32N 31°18' E 121°34'291031.6
2014-Nov-22 17:30N 31°03' E 122°03'6801757.1
2014-Nov-22 17:07N 22°48' E 113°20'6791222.7
2014-Nov-22 16:33N 31°06' E 121°57'9323925.7
2014-Nov-22 16:33N 32°02' E 120°30'7413946.1
2014-Nov-22 16:33N 31°07' E 121°28'14188.6
2014-Nov-22 16:28N 31°21' E 121°31'4435955.2
2014-Nov-22 16:24N 38°44' E 121°35'10489599.1
2014-Nov-22 16:17N 22°45' E 113°24'662894.8
2014-Nov-22 15:33N 31°07' E 121°28'7614435.2
2014-Nov-22 15:33N 32°00' E 120°24'703439.3
2014-Nov-22 15:32N 31°21' E 121°31'67210744.3
2014-Nov-22 15:28N 22°44' E 113°30'6713232.1
2014-Nov-22 15:15N 30°50' E 122°08'116163.4
2014-Nov-22 14:33N 31°57' E 120°17'786710.2
2014-Nov-22 14:32N 31°07' E 121°28'142519.3
2014-Nov-22 14:32N 31°21' E 121°31'1414.4
2014-Nov-22 13:33N 31°07' E 121°28'14520.2
2014-Nov-22 13:32N 31°21' E 121°31'462.8
2014-Nov-22 13:28N 31°24' E 121°31'66516744.1
2014-Nov-22 13:26N 23°03' E 113°19'18715.2
2014-Nov-22 13:24N 22°57' E 113°37'48242.8
2014-Nov-22 13:13N 22°10' E 113°27'6881040.1
2014-Nov-22 12:33N 31°07' E 121°28'64640103.0
2014-Nov-22 12:32N 23°04' E 113°26'658169210.0
2014-Nov-22 12:32N 31°21' E 121°31'462.2
2014-Nov-22 12:28N 31°24' E 121°31'658717.9
2014-Nov-22 11:33N 23°04' E 113°30'644579560.8
2014-Nov-22 11:33N 31°07' E 121°28'142084.8
2014-Nov-22 11:33N 31°21' E 121°30'44541.8
2014-Nov-22 11:33N 31°25' E 121°30'79826.3
2014-Nov-22 11:27N 31°58' E 120°05'66076592.1
2014-Nov-22 11:26N 22°27' E 113°53'6813001.6
2014-Nov-22 11:13N 31°58' E 120°51'6621003.5
2014-Nov-22 10:33N 23°04' E 113°30'65778850.3
2014-Nov-22 10:33N 31°23' E 121°30'5315796.1
2014-Nov-22 10:33N 32°00' E 120°47'21017.5
2014-Nov-22 10:32N 32°00' E 120°49'423971.7
2014-Nov-22 10:32N 31°30' E 121°23'232183.7
2014-Nov-22 10:31N 31°07' E 121°28'832227.3
2014-Nov-22 10:29N 31°57' E 120°10'4136114.6
2014-Nov-22 10:25N 38°44' E 121°32'106915038.1
2014-Nov-22 10:21N 22°17' E 113°36'45358.3
2014-Nov-22 10:13N 23°02' E 113°31'6601000.2
2014-Nov-22 09:33N 31°24' E 121°32'72260935.1
2014-Nov-22 09:33N 31°57' E 120°16'64345410.4
2014-Nov-22 09:33N 23°04' E 113°30'644178330.0
2014-Nov-22 09:32N 31°07' E 121°28'2952518.9
2014-Nov-22 09:32N 31°35' E 121°18'42938636.4
2014-Nov-22 09:32N 38°44' E 121°29'102890266.3
2014-Nov-22 09:31N 23°02' E 113°31'6649054.3
2014-Nov-22 09:27N 31°58' E 120°51'1237.3
2014-Nov-22 09:06N 31°60' E 120°37'3 5.1
2014-Nov-22 08:33N 32°01' E 120°33'3823086.5
2014-Nov-22 08:33N 31°40' E 121°12'46166568.1
2014-Nov-22 08:33N 31°60' E 120°22'63113482.1
2014-Nov-22 08:33N 31°28' E 121°27'65922155.5
2014-Nov-22 08:32N 23°04' E 113°30'337.1
2014-Nov-22 08:27N 23°02' E 113°31'6456656.1
2014-Nov-22 08:22N 31°07' E 121°28'68633821.6
2014-Nov-22 08:20N 22°10' E 113°31'6848855.3
2014-Nov-22 08:16N 31°58' E 120°02'638900.7
2014-Nov-22 07:33N 23°04' E 113°30'65949416.6
2014-Nov-22 07:32N 31°43' E 121°06'201500.9
2014-Nov-22 07:32N 31°30' E 121°24'66417982.5
2014-Nov-22 07:29N 23°03' E 113°21'650585146.2
2014-Nov-22 07:29N 31°07' E 121°28'645692.2
2014-Nov-22 06:33N 23°02' E 113°31'3186.2
2014-Nov-22 06:33N 23°04' E 113°29'65946485.5
2014-Nov-22 06:32N 31°30' E 121°24'6736440.9
2014-Nov-22 06:25N 22°38' E 113°41'67336169.5
2014-Nov-22 06:24N 31°09' E 121°53'67912041.8
2014-Nov-22 06:21N 22°27' E 113°47'1360.5
2014-Nov-22 06:08N 22°14' E 113°42'65211177.6
2014-Nov-22 06:04N 29°49' E 122°22'6261222.2
2014-Nov-22 05:33N 23°02' E 113°31'662476319.7
2014-Nov-22 05:33N 31°14' E 121°47'66199076.4
2014-Nov-22 05:33N 23°04' E 113°29'289216.0
2014-Nov-22 05:33N 22°38' E 113°41'6732421192.0
2014-Nov-22 05:33N 31°30' E 121°23'48756549.8
2014-Nov-22 05:32N 39°04' E 117°48'1029148232.9
2014-Nov-22 05:32N 22°16' E 113°48'10659213.7
2014-Nov-22 05:25N 38°43' E 121°30'10352953.5
2014-Nov-22 05:04N 22°53' E 113°31'6721318.8
2014-Nov-22 04:33N 31°19' E 121°48'214621.8
2014-Nov-22 04:33N 31°07' E 121°28'235616.6
2014-Nov-22 04:33N 31°30' E 121°23'66732029.5
2014-Nov-22 04:31N 22°55' E 113°27'661158536.0
2014-Nov-22 04:31N 32°01' E 120°25'651123415.2
2014-Nov-22 04:31N 23°04' E 113°29'3141.5
2014-Nov-22 04:30N 23°02' E 113°31'65656188.7
2014-Nov-22 04:29N 31°22' E 121°27'4969308.0
2014-Nov-22 04:26N 39°04' E 117°47'102311612.6
2014-Nov-22 04:21N 22°30' E 113°10'68636857.4
2014-Nov-22 04:19N 31°57' E 120°24'671127132.3
2014-Nov-22 04:19N 22°27' E 113°47'669873.4
2014-Nov-22 03:33N 31°57' E 120°18'445800582.7
2014-Nov-22 03:33N 39°05' E 117°46'985197071.1
2014-Nov-22 03:33N 23°04' E 113°29'658263351.8
2014-Nov-22 03:33N 31°30' E 121°23'2238943.7
2014-Nov-22 03:33N 31°25' E 121°48'783991.7
2014-Nov-22 03:32N 31°57' E 120°24'64921045.9
2014-Nov-22 03:30N 23°02' E 113°31'65621070.3
2014-Nov-22 03:28N 31°21' E 121°27'69222451.5
2014-Nov-22 03:26N 22°30' E 113°10'692791.1
2014-Nov-22 02:33N 31°21' E 121°27'654147258.7
2014-Nov-22 02:33N 23°04' E 113°29'65884648.8
2014-Nov-22 02:33N 31°30' E 121°23'22666.4
2014-Nov-22 02:31N 31°45' E 121°03'697228099.7
2014-Nov-22 02:31N 22°30' E 113°10'686102909.1
2014-Nov-22 02:30N 31°57' E 120°24'67711835.0
2014-Nov-22 02:27N 22°19' E 113°48'464985.7
2014-Nov-22 02:26N 23°02' E 113°31'3 3.0
2014-Nov-22 01:33N 23°04' E 113°29'65494245.6
2014-Nov-22 01:32N 31°21' E 121°27'93358.5
2014-Nov-22 01:32N 31°30' E 121°23'6793314.7
2014-Nov-22 01:20N 22°27' E 113°47'12331.2
2014-Nov-22 01:18N 22°16' E 113°43'33574.1
2014-Nov-22 01:14N 22°30' E 113°10'701100936.1
2014-Nov-22 01:14N 32°01' E 120°47'353.2
2014-Nov-22 01:11N 31°59' E 120°50'6199.0
2014-Nov-22 00:33N 31°07' E 121°28'141781.6
2014-Nov-22 00:33N 31°21' E 121°27'916802.7
2014-Nov-22 00:33N 31°30' E 121°23'67826812.5
2014-Nov-22 00:31N 22°28' E 113°47'391576.3
2014-Nov-22 00:30N 23°04' E 113°29'645386900.8
2014-Nov-22 00:30N 31°58' E 120°17'684615634.6
2014-Nov-22 00:30N 22°12' E 113°40'32797.1
2014-Nov-22 00:27N 22°30' E 113°10'696776.8
2014-Nov-21 23:33N 31°32' E 121°21'658148148.0
2014-Nov-21 23:33N 23°04' E 113°29'66329453.6
2014-Nov-21 23:32N 32°01' E 120°47'7018671.5
2014-Nov-21 23:27N 22°30' E 113°10'6928307.0
2014-Nov-21 23:22N 31°21' E 121°27'1417.6
2014-Nov-21 22:33N 31°07' E 121°28'64474812.0
2014-Nov-21 22:32N 23°04' E 113°29'65965920.5
2014-Nov-21 22:32N 31°35' E 121°18'16259.4
2014-Nov-21 22:28N 31°22' E 121°28'66992.6
2014-Nov-21 22:24N 32°02' E 120°26'653774.1
2014-Nov-21 21:33N 23°04' E 113°29'659197844.2
2014-Nov-21 21:33N 31°39' E 121°14'373509.6
2014-Nov-21 21:33N 31°60' E 120°38'682707.0
2014-Nov-21 21:31N 31°07' E 121°28'644667.6
2014-Nov-21 20:33N 23°04' E 113°29'644289894.4
2014-Nov-21 20:33N 31°07' E 121°28'387635.4
2014-Nov-21 20:33N 31°42' E 121°09'373712.9
2014-Nov-21 20:32N 32°01' E 120°32'66943018.2
2014-Nov-21 20:31N 22°45' E 113°33'28106.0
2014-Nov-21 20:15N 22°24' E 113°54'680977.1
2014-Nov-21 19:33N 31°44' E 121°05'6591187009.8
2014-Nov-21 19:33N 23°04' E 113°29'65423558.3
2014-Nov-21 19:32N 32°01' E 120°31'735709.9
2014-Nov-21 19:31N 31°07' E 121°28'4573303.4
2014-Nov-21 19:23N 38°44' E 121°30'10271241.5
2014-Nov-21 18:33N 23°04' E 113°29'659790840.7
2014-Nov-21 18:33N 31°45' E 121°03'321501.1
2014-Nov-21 18:32N 32°01' E 120°31'1603916.8
2014-Nov-21 18:29N 29°50' E 122°18'63078172.6
2014-Nov-21 18:29N 22°47' E 113°38'1494.6
2014-Nov-21 18:20N 22°35' E 113°46'6745931.3
2014-Nov-21 18:13N 31°40' E 121°12'3 4.9
2014-Nov-21 17:33N 31°42' E 121°09'659197739.0
2014-Nov-21 17:33N 23°04' E 113°29'659124868.7
2014-Nov-21 17:33N 31°45' E 121°03'66537383.2
2014-Nov-21 17:32N 22°54' E 113°35'660132085.3
2014-Nov-21 17:32N 32°01' E 120°31'40669645.6
2014-Nov-21 17:31N 38°44' E 121°35'10281064.6
2014-Nov-21 16:33N 23°04' E 113°29'659169473.1
2014-Nov-21 16:33N 31°45' E 121°03'419188699.5
2014-Nov-21 16:33N 38°44' E 121°34'42028018.7
2014-Nov-21 16:32N 31°44' E 121°05'344895.5
2014-Nov-21 16:32N 32°01' E 120°31'1603916.6
2014-Nov-21 16:29N 29°50' E 122°18'624670.1
2014-Nov-21 15:33N 23°04' E 113°29'659215686.6
2014-Nov-21 15:33N 31°45' E 121°03'67517992.3
2014-Nov-21 15:31N 22°44' E 113°30'67117621.8
2014-Nov-21 15:29N 32°01' E 120°31'654710.2
2014-Nov-21 14:33N 23°04' E 113°29'659395425.4
2014-Nov-21 14:33N 31°45' E 121°04'419100652.5
2014-Nov-21 14:33N 38°44' E 121°31'40617813.8
2014-Nov-21 14:32N 32°01' E 120°31'73661.5
2014-Nov-21 14:25N 31°07' E 121°28'6443118.5
2014-Nov-21 14:13N 23°03' E 113°30'1 1.6
2014-Nov-21 13:33N 23°04' E 113°29'65938273.1
2014-Nov-21 13:32N 31°46' E 121°03'322801.2
2014-Nov-21 13:32N 32°01' E 120°31'674606379.9
2014-Nov-21 13:31N 22°47' E 113°19'38844.8
2014-Nov-21 13:29N 22°26' E 113°53'66010293.3
2014-Nov-21 13:25N 31°07' E 121°28'4571283.7
2014-Nov-21 13:04N 38°44' E 121°28'10302042.2
2014-Nov-21 12:33N 23°02' E 113°24'1030195121.9
2014-Nov-21 12:33N 38°44' E 121°29'418188191.3
2014-Nov-21 12:33N 31°47' E 120°57'473162.2
2014-Nov-21 12:32N 31°07' E 121°28'652138145.7
2014-Nov-21 12:32N 22°54' E 113°28'100035636.6
2014-Nov-21 12:30N 37°55' E 121°50'36015075.1
2014-Nov-21 12:29N 32°01' E 120°31'6514462.6
2014-Nov-21 12:20N 23°04' E 113°36'651842.4
2014-Nov-21 11:33N 32°01' E 120°30'2240124.8
2014-Nov-21 11:33N 31°51' E 120°54'66022013.0
2014-Nov-21 11:32N 22°58' E 113°34'64662849.8
2014-Nov-21 11:31N 31°07' E 121°28'7014867.2
2014-Nov-21 11:31N 31°52' E 120°25'1562653.6
2014-Nov-21 11:27N 29°50' E 122°18'6549976.8
2014-Nov-21 11:23N 22°14' E 113°36'107250761.1
2014-Nov-21 11:22N 38°44' E 121°33'408504.3
2014-Nov-21 10:34N 32°00' E 120°24'5480.1
2014-Nov-21 10:33N 32°02' E 120°29'203128.2
2014-Nov-21 10:33N 31°56' E 120°52'698125572.8
2014-Nov-21 10:32N 22°16' E 113°36'12737.5
2014-Nov-21 10:31N 22°16' E 113°49'1067174602.7
2014-Nov-21 10:31N 38°45' E 121°36'10306968.0
2014-Nov-21 10:22N 23°03' E 113°30'99131026.5
2014-Nov-21 10:20N 37°58' E 121°45'3692320.9
2014-Nov-21 10:11N 31°58' E 120°01'6761090.4
2014-Nov-21 09:33N 22°13' E 113°42'687824140.8
2014-Nov-21 09:33N 31°59' E 120°22'42814.1
2014-Nov-21 09:33N 31°57' E 120°18'263499.2
2014-Nov-21 09:33N 31°60' E 120°49'18308.8
2014-Nov-21 09:29N 32°04' E 120°28'65517734.8
2014-Nov-21 09:27N 23°04' E 113°30'102617925.3
2014-Nov-21 09:24N 38°43' E 121°30'4055656.4
2014-Nov-21 09:19N 32°00' E 120°33'307216.6
2014-Nov-21 09:19N 32°01' E 119°58'67528949.1
2014-Nov-21 09:18N 22°18' E 113°35'681925.2
2014-Nov-21 08:33N 31°57' E 120°17'12980.3
2014-Nov-21 08:33N 32°04' E 120°28'635658.0
2014-Nov-21 08:32N 31°06' E 120°56'581043.9
2014-Nov-21 08:29N 32°00' E 120°33'65522452.8
2014-Nov-21 08:27N 23°04' E 113°30'12303.3
2014-Nov-21 08:25N 23°03' E 113°16'556581.2
2014-Nov-21 08:24N 22°11' E 113°33'10755180.5
2014-Nov-21 08:12N 38°43' E 121°33'45614275.7
2014-Nov-21 08:10N 31°07' E 121°28'80133.4
2014-Nov-21 07:34N 31°56' E 120°13'8012562.3
2014-Nov-21 07:33N 31°07' E 121°28'6512343117.4
2014-Nov-21 07:33N 23°03' E 113°19'263105109.4
2014-Nov-21 07:33N 24°25' E 117°52'47714803.9
2014-Nov-21 07:31N 32°00' E 120°33'69320294.6
2014-Nov-21 07:29N 22°30' E 113°10'391149.2
2014-Nov-21 07:27N 23°04' E 113°30'62623240.5
2014-Nov-21 07:25N 31°04' E 121°01'83353.8
2014-Nov-21 07:11N 32°06' E 119°56'27471.1
2014-Nov-21 07:08N 32°04' E 120°28'0 0.7
2014-Nov-21 06:33N 32°04' E 120°28'287746.0
2014-Nov-21 06:33N 32°03' E 119°55'33916.7
2014-Nov-21 06:31N 32°00' E 120°33'3644020.3
2014-Nov-21 06:26N 38°01' E 121°37'9905739.9
2014-Nov-21 06:15N 23°04' E 113°30'6444673.8
2014-Nov-21 06:07N 31°07' E 121°28'64716071.3
2014-Nov-21 06:04N 22°55' E 113°36'6471195.7
2014-Nov-21 05:32N 31°07' E 121°28'784507.3
2014-Nov-21 05:31N 32°02' E 120°24'690155326.6
2014-Nov-21 05:31N 22°30' E 113°10'69317579.1
2014-Nov-21 05:28N 32°00' E 120°33'65529106.9
2014-Nov-21 05:27N 23°04' E 113°30'66210643.8
2014-Nov-21 05:23N 31°60' E 120°49'661319.3
2014-Nov-21 05:20N 30°58' E 121°15'953672.0
2014-Nov-21 05:19N 32°03' E 119°55'6603085.2
2014-Nov-21 05:06N 22°27' E 113°53'6441193.3
2014-Nov-21 04:33N 30°57' E 121°13'6291.9
2014-Nov-21 04:32N 30°59' E 121°20'11594.5
2014-Nov-21 04:31N 31°07' E 121°28'719794.7
2014-Nov-21 04:31N 32°00' E 120°33'13554.7
2014-Nov-21 04:29N 31°60' E 120°49'70121021.0
2014-Nov-21 04:27N 22°30' E 113°10'102922316.3
2014-Nov-21 04:25N 37°58' E 121°44'36215879.7
2014-Nov-21 04:23N 32°02' E 120°24'47712707.9
2014-Nov-21 04:21N 24°25' E 117°52'2531727.6
2014-Nov-21 04:12N 23°04' E 113°30'631978.1
2014-Nov-21 03:33N 30°58' E 121°18'71241.1
2014-Nov-21 03:33N 31°00' E 121°26'685947.2
2014-Nov-21 03:32N 31°60' E 120°49'638049.5
2014-Nov-21 03:32N 31°07' E 121°28'713441.2
2014-Nov-21 03:31N 32°00' E 120°33'6555850.3
2014-Nov-21 03:24N 23°04' E 113°30'3915450.3
2014-Nov-21 03:24N 22°30' E 113°10'3415284.1
2014-Nov-21 03:24N 23°02' E 113°21'668343775.3
2014-Nov-21 03:24N 32°01' E 120°47'6678635.3
2014-Nov-21 03:19N 22°55' E 113°36'64334566.9
2014-Nov-21 03:18N 32°03' E 119°55'25114.3
2014-Nov-21 03:05N 32°02' E 120°24'66341143.3
2014-Nov-21 03:04N 22°48' E 113°35'631151320.6
2014-Nov-21 03:04N 29°51' E 122°17'535962156.0
2014-Nov-21 03:04N 38°44' E 121°33'406810.2
2014-Nov-21 02:34N 32°00' E 120°33'7489090.1
2014-Nov-21 02:33N 30°59' E 121°23'8057559.0
2014-Nov-21 02:33N 32°01' E 120°23'204896.0
2014-Nov-21 02:33N 32°01' E 120°47'63226751.2
2014-Nov-21 02:33N 31°25' E 121°48'66989244.3
2014-Nov-21 02:33N 23°05' E 113°27'64552754.3
2014-Nov-21 02:32N 31°07' E 121°28'650390223.5
2014-Nov-21 02:32N 23°03' E 113°20'3216.2
2014-Nov-21 02:31N 23°02' E 113°24'431881.4
2014-Nov-21 02:30N 22°29' E 113°53'68076506.8
2014-Nov-21 02:29N 31°60' E 120°48'4065575.4
2014-Nov-21 02:25N 38°44' E 121°32'1066255729.2
2014-Nov-21 02:24N 22°30' E 113°10'261069.6
2014-Nov-21 02:23N 22°17' E 113°35'103210987.1
2014-Nov-21 02:17N 37°56' E 121°50'361493.6
2014-Nov-21 01:33N 32°00' E 120°33'7466795.2
2014-Nov-21 01:33N 30°59' E 121°23'916323.5
2014-Nov-21 01:33N 31°07' E 121°28'207057.9
2014-Nov-21 01:33N 31°19' E 121°47'664477780.9
2014-Nov-21 01:33N 23°04' E 113°29'64555251.4
2014-Nov-21 01:32N 31°57' E 120°18'256093.8
2014-Nov-21 01:32N 32°01' E 120°47'1824.9
2014-Nov-21 01:32N 31°60' E 120°48'67024346.0
2014-Nov-21 01:30N 23°04' E 113°16'20957.9
2014-Nov-21 01:29N 22°54' E 113°35'103446524.1
2014-Nov-21 01:28N 38°44' E 121°29'106521536.3
2014-Nov-21 01:25N 22°30' E 113°10'3869257.0
2014-Nov-21 01:25N 23°04' E 113°29'47412.5
2014-Nov-21 01:18N 22°17' E 113°35'47936.0
2014-Nov-21 01:15N 23°04' E 113°30'11203.2
2014-Nov-21 01:12N 22°55' E 113°36'2515052.8
2014-Nov-21 01:09N 24°25' E 117°52'477808.5
2014-Nov-21 00:33N 32°00' E 120°33'7426718.1
2014-Nov-21 00:33N 30°59' E 121°23'2623717.7
2014-Nov-21 00:33N 31°13' E 121°49'45971777.4
2014-Nov-21 00:33N 24°25' E 117°52'25130142.7
2014-Nov-21 00:32N 22°55' E 113°36'666199911.2
2014-Nov-21 00:32N 31°60' E 120°48'684273441.5
2014-Nov-21 00:32N 22°24' E 113°54'68474637.4
2014-Nov-21 00:31N 32°01' E 120°47'64851.6
2014-Nov-21 00:27N 31°07' E 121°28'822899.2
2014-Nov-21 00:25N 31°56' E 120°10'19275.3
2014-Nov-21 00:21N 32°00' E 120°32'69295877.7
2014-Nov-21 00:21N 22°30' E 113°10'26404.2
2014-Nov-21 00:17N 22°17' E 113°35'47721.1
2014-Nov-21 00:13N 23°04' E 113°29'157.9
2014-Nov-21 00:12N 23°03' E 113°30'6368450.9
2014-Nov-21 00:07N 30°60' E 121°24'6361145360.4
2014-Nov-21 00:07N 23°04' E 113°29'6351133.9
2014-Nov-20 23:33N 30°59' E 121°23'6935434.5
2014-Nov-20 23:33N 32°00' E 120°46'105311.7
2014-Nov-20 23:33N 32°00' E 120°33'124706.9
2014-Nov-20 23:33N 32°01' E 120°47'66746169.0
2014-Nov-20 23:32N 22°55' E 113°36'665478573.7
2014-Nov-20 23:32N 31°07' E 121°57'257458.6
2014-Nov-20 23:32N 31°07' E 121°28'64445470.9
2014-Nov-20 23:31N 23°04' E 113°29'65419296.3
2014-Nov-20 23:29N 32°02' E 120°29'65430977.0
2014-Nov-20 23:28N 23°04' E 113°29'41264.7
2014-Nov-20 23:18N 22°26' E 113°47'403390.1
2014-Nov-20 23:18N 23°03' E 113°30'635862.2
2014-Nov-20 22:33N 30°59' E 121°23'7121176.4
2014-Nov-20 22:33N 31°60' E 120°40'73733.5
2014-Nov-20 22:33N 32°01' E 120°31'98118068.8
2014-Nov-20 22:33N 31°03' E 122°05'66620147.7
2014-Nov-20 22:31N 22°55' E 113°36'667400131.1
2014-Nov-20 22:31N 32°01' E 120°47'643722.0
2014-Nov-20 22:30N 31°07' E 121°28'678221788.6
2014-Nov-20 22:30N 22°17' E 113°35'471643.9
2014-Nov-20 22:28N 23°04' E 113°29'9819629.9
2014-Nov-20 22:28N 23°04' E 115°16'60015880.7
2014-Nov-20 22:26N 31°59' E 120°22'791460.5
2014-Nov-20 22:22N 31°05' E 121°28'6137.6
2014-Nov-20 22:20N 30°59' E 121°24'65629882.2
2014-Nov-20 22:18N 22°26' E 113°47'655877.1
2014-Nov-20 21:34N 30°59' E 121°23'69247557.3
2014-Nov-20 21:34N 32°01' E 120°47'138028.9
2014-Nov-20 21:33N 32°01' E 120°31'3920.0
2014-Nov-20 21:33N 32°01' E 120°35'65720032.2
2014-Nov-20 21:31N 23°04' E 113°29'471820.5
2014-Nov-20 21:30N 22°17' E 113°35'67610354.5
2014-Nov-20 21:26N 31°05' E 121°28'64658110.7
2014-Nov-20 21:25N 22°55' E 113°36'1170.4
2014-Nov-20 21:16N 23°04' E 113°29'635899.8
2014-Nov-20 20:33N 30°59' E 121°23'692720.2
2014-Nov-20 20:32N 32°01' E 120°47'645244.2
2014-Nov-20 20:31N 31°07' E 121°28'644772957.9
2014-Nov-20 20:31N 23°04' E 113°29'64216882.1
2014-Nov-20 20:29N 31°05' E 121°28'676162220.3
2014-Nov-20 20:29N 22°17' E 113°35'4821761.3
2014-Nov-20 20:28N 23°03' E 113°18'66133051.2
2014-Nov-20 20:27N 32°01' E 120°31'341.4
2014-Nov-20 20:23N 32°04' E 120°31'676152019.2
2014-Nov-20 20:22N 22°48' E 113°19'65715670.8
2014-Nov-20 20:20N 32°03' E 119°55'6392375.0
2014-Nov-20 20:04N 23°04' E 113°29'6351259.4
2014-Nov-20 19:33N 30°59' E 121°23'8460203.0
2014-Nov-20 19:33N 29°51' E 122°18'152109386.3
2014-Nov-20 19:33N 32°01' E 120°47'6411541.8
2014-Nov-20 19:33N 31°07' E 121°28'64419487.3
2014-Nov-20 19:31N 23°04' E 113°29'65435695.4
2014-Nov-20 19:30N 32°01' E 120°31'65421222.4
2014-Nov-20 19:28N 23°04' E 113°29'65624605.6
2014-Nov-20 19:26N 32°04' E 120°30'783633.9
2014-Nov-20 19:25N 31°05' E 121°28'6422775.6
2014-Nov-20 19:11N 23°04' E 113°30'463695.0
2014-Nov-20 19:11N 22°17' E 113°35'291203.7
2014-Nov-20 19:09N 22°45' E 113°24'6811147.6
2014-Nov-20 18:33N 32°01' E 120°47'6935390.7
2014-Nov-20 18:33N 30°59' E 121°23'7627187.8
2014-Nov-20 18:33N 32°01' E 120°31'4930.9
2014-Nov-20 18:33N 32°04' E 120°30'65621475.6
2014-Nov-20 18:31N 23°04' E 113°29'471793.6
2014-Nov-20 18:30N 22°17' E 113°35'27240.7
2014-Nov-20 18:23N 22°44' E 113°28'1393.0
2014-Nov-20 18:14N 22°55' E 113°36'646154952.3
2014-Nov-20 18:14N 31°05' E 121°28'443113880.3
2014-Nov-20 18:14N 24°25' E 117°52'2532198.5
2014-Nov-20 18:07N 23°03' E 113°30'131.5
2014-Nov-20 18:04N 23°04' E 113°29'6351244.3
2014-Nov-20 17:33N 30°59' E 121°23'767552.2
2014-Nov-20 17:33N 32°01' E 120°31'4567.5
2014-Nov-20 17:32N 32°04' E 120°30'152184.7
2014-Nov-20 17:32N 32°01' E 120°47'48291240.9
2014-Nov-20 17:32N 24°24' E 117°56'2714976.6
2014-Nov-20 17:28N 22°17' E 113°35'476244.2
2014-Nov-20 17:28N 23°04' E 113°29'194647.6
2014-Nov-20 17:28N 22°45' E 113°33'65745489.9
2014-Nov-20 17:27N 31°07' E 121°28'6497537.8
2014-Nov-20 17:22N 22°54' E 113°35'1046.4
2014-Nov-20 17:08N 23°03' E 113°30'6361096.9
2014-Nov-20 16:33N 30°59' E 121°23'8015068.3
2014-Nov-20 16:33N 32°04' E 120°29'42882.9
2014-Nov-20 16:33N 32°01' E 120°31'131605.8
2014-Nov-20 16:33N 32°01' E 120°47'47935173.0
2014-Nov-20 16:32N 24°25' E 118°02'26221945.7
2014-Nov-20 16:31N 23°04' E 113°29'471738.3
2014-Nov-20 16:29N 22°17' E 113°35'46864.1
2014-Nov-20 16:26N 23°03' E 113°30'1 5.6
2014-Nov-20 16:11N 23°04' E 113°29'1 0.9
2014-Nov-20 15:33N 23°04' E 113°30'6352286248.5
2014-Nov-20 15:33N 30°59' E 121°23'8012013.5
2014-Nov-20 15:33N 32°02' E 120°25'64227.9
2014-Nov-20 15:33N 32°01' E 120°31'47590066.6
2014-Nov-20 15:33N 24°23' E 118°08'443132787.3
2014-Nov-20 15:32N 31°09' E 121°27'647232816.8
2014-Nov-20 15:32N 23°00' E 113°31'31109.1
2014-Nov-20 15:32N 23°03' E 113°30'236.0
2014-Nov-20 15:29N 23°03' E 113°32'63614953.4
2014-Nov-20 15:27N 30°59' E 121°24'6709030.9
2014-Nov-20 15:22N 22°17' E 113°35'69915631.7
2014-Nov-20 15:20N 32°01' E 120°47'2329.3
2014-Nov-20 14:33N 31°59' E 120°21'8057353.0
2014-Nov-20 14:33N 30°59' E 121°23'1554212.1
2014-Nov-20 14:33N 31°13' E 121°30'698326.2
2014-Nov-20 14:33N 32°01' E 120°31'480144120.5
2014-Nov-20 14:33N 24°17' E 118°10'446133821.1
2014-Nov-20 14:32N 31°07' E 121°28'64924073.6
2014-Nov-20 14:31N 22°55' E 113°33'3179.8
2014-Nov-20 14:30N 22°53' E 113°31'6718358.7
2014-Nov-20 14:25N 32°01' E 120°47'66291729.8
2014-Nov-20 14:25N 23°04' E 113°30'471257.1
2014-Nov-20 14:22N 22°17' E 113°35'46335.7
2014-Nov-20 14:14N 23°03' E 113°30'663979.9
2014-Nov-20 13:33N 32°01' E 120°47'6911790.3
2014-Nov-20 13:33N 30°59' E 121°23'7513585.9
2014-Nov-20 13:33N 32°01' E 120°31'141967.9
2014-Nov-20 13:32N 31°56' E 120°16'794371.0
2014-Nov-20 13:31N 31°07' E 121°28'65212829.4
2014-Nov-20 13:28N 23°03' E 113°17'12192.0
2014-Nov-20 13:24N 23°04' E 113°30'262235827.8
2014-Nov-20 13:24N 24°13' E 118°06'2622657.1
2014-Nov-20 13:18N 23°03' E 113°30'461260.7
2014-Nov-20 13:16N 22°17' E 113°35'38221.2
2014-Nov-20 13:06N 22°54' E 113°22'6471199.5
2014-Nov-20 12:34N 30°59' E 121°23'8425193.1
2014-Nov-20 12:33N 31°56' E 120°10'64372333.0
2014-Nov-20 12:33N 23°03' E 113°25'658592087.5
2014-Nov-20 12:33N 32°01' E 120°31'722403.1
2014-Nov-20 12:31N 31°07' E 121°28'644110476.1
2014-Nov-20 12:31N 23°03' E 113°30'4319478.6
2014-Nov-20 12:30N 22°26' E 113°53'19524.0
2014-Nov-20 12:28N 22°17' E 113°35'6997649.4
2014-Nov-20 12:23N 32°01' E 120°47'68417704.3
2014-Nov-20 12:20N 22°25' E 113°53'6748986.7
2014-Nov-20 12:16N 31°21' E 121°32'4722779.2
2014-Nov-20 12:06N 24°08' E 118°00'449833.0
2014-Nov-20 11:33N 30°59' E 121°23'8928976.4
2014-Nov-20 11:33N 31°57' E 120°04'63885048.1
2014-Nov-20 11:33N 23°04' E 113°29'644231898.3
2014-Nov-20 11:33N 31°07' E 121°28'72129773.2
2014-Nov-20 11:33N 32°01' E 120°31'639421.1
2014-Nov-20 11:32N 31°22' E 121°30'6779442.7
2014-Nov-20 11:28N 22°26' E 113°47'40707.7
2014-Nov-20 11:24N 23°03' E 113°30'40236.6
2014-Nov-20 11:14N 22°29' E 113°52'3169184.8
2014-Nov-20 11:12N 24°44' E 119°04'3359509.2
2014-Nov-20 11:10N 22°17' E 113°35'6691092.8
2014-Nov-20 10:34N 30°59' E 121°23'9315968.2
2014-Nov-20 10:33N 31°59' E 119°59'637104295.3
2014-Nov-20 10:33N 23°04' E 113°29'65473616.9
2014-Nov-20 10:32N 32°01' E 120°31'7219965.1
2014-Nov-20 10:32N 31°07' E 121°28'660237456.0
2014-Nov-20 10:32N 22°27' E 113°53'20417.0
2014-Nov-20 10:29N 22°17' E 113°35'9507.5
2014-Nov-20 10:28N 22°17' E 113°44'6888546.9
2014-Nov-20 10:23N 31°27' E 121°28'6586303.3
2014-Nov-20 10:17N 23°04' E 113°30'1 5.6
2014-Nov-20 10:06N 23°03' E 113°30'6361160.3
2014-Nov-20 09:34N 30°59' E 121°23'63595265.8
2014-Nov-20 09:33N 23°04' E 113°30'39139644.8
2014-Nov-20 09:33N 22°29' E 113°47'67552862.7
2014-Nov-20 09:32N 32°01' E 120°31'696357800.3
2014-Nov-20 09:32N 22°11' E 113°38'68119312.1
2014-Nov-20 09:30N 32°03' E 119°56'5015477.4
2014-Nov-20 09:25N 23°55' E 117°48'2432002.6
2014-Nov-20 09:17N 23°03' E 113°30'46374.2
2014-Nov-20 09:10N 22°17' E 113°35'133711406.6
2014-Nov-20 09:03N 00°01' E 114°12'19043881.4
2014-Nov-20 08:34N 30°59' E 121°23'677348119.7
2014-Nov-20 08:33N 22°10' E 113°31'5410830.1
2014-Nov-20 08:33N 23°04' E 113°30'65439919.3
2014-Nov-20 08:32N 32°01' E 120°31'727421.4
2014-Nov-20 08:32N 31°07' E 121°28'9911084.8
2014-Nov-20 08:31N 32°06' E 119°55'6417231.4
2014-Nov-20 08:26N 23°03' E 113°30'46733.5
2014-Nov-20 08:22N 22°17' E 113°35'69917355.8
2014-Nov-20 08:20N 32°01' E 120°47'6623097.3
2014-Nov-20 08:07N 23°04' E 113°30'6351146.0
2014-Nov-20 07:33N 30°59' E 121°23'728690.9
2014-Nov-20 07:33N 31°52' E 120°25'7015802.3
2014-Nov-20 07:33N 31°07' E 121°28'644144888.5
2014-Nov-20 07:32N 23°04' E 113°30'654117762.7
2014-Nov-20 07:32N 32°01' E 120°31'516168988.9
2014-Nov-20 07:32N 23°47' E 117°39'23341913.4
2014-Nov-20 07:32N 23°03' E 113°30'13466.6
2014-Nov-20 07:30N 23°04' E 113°16'13746.9
2014-Nov-20 07:29N 23°04' E 113°30'39543.4
2014-Nov-20 07:25N 22°30' E 113°10'26551.9
2014-Nov-20 07:22N 22°17' E 113°35'69946605.9
2014-Nov-20 07:21N 32°01' E 120°47'86566.7
2014-Nov-20 07:12N 31°03' E 122°03'3554.1
2014-Nov-20 06:33N 30°59' E 121°23'91166.6
2014-Nov-20 06:33N 31°07' E 121°28'644231816.9
2014-Nov-20 06:33N 23°04' E 113°30'65444438.4
2014-Nov-20 06:32N 32°01' E 120°31'522187952.6
2014-Nov-20 06:32N 23°42' E 117°36'2294764.7
2014-Nov-20 06:29N 23°04' E 113°30'4712030.9
2014-Nov-20 06:29N 22°17' E 113°35'46891.7
2014-Nov-20 06:26N 23°03' E 113°30'38176.2
2014-Nov-20 06:13N 22°30' E 113°10'69826435.5
2014-Nov-20 06:11N 31°09' E 121°52'531152.3
2014-Nov-20 06:08N 31°44' E 121°06'4781.4
2014-Nov-20 05:33N 30°60' E 121°25'637114571.2
2014-Nov-20 05:33N 23°04' E 113°30'95159030.1
2014-Nov-20 05:32N 36°54' E 122°26'30858329.0
2014-Nov-20 05:32N 32°01' E 120°31'801242.5
2014-Nov-20 05:28N 31°14' E 121°47'66116070.4
2014-Nov-20 05:25N 23°03' E 113°30'111.6
2014-Nov-20 05:19N 23°04' E 113°29'64417702.1
2014-Nov-20 05:17N 31°07' E 121°28'6825301.4
2014-Nov-20 05:09N 22°30' E 113°10'70112369.3
2014-Nov-20 05:06N 32°01' E 120°47'69127.7
2014-Nov-20 04:33N 31°02' E 121°29'2340542.6
2014-Nov-20 04:33N 31°18' E 121°47'772812.2
2014-Nov-20 04:32N 32°01' E 120°31'65457462.7
2014-Nov-20 04:31N 23°04' E 113°29'129.7
2014-Nov-20 04:30N 23°04' E 113°30'38684.8
2014-Nov-20 04:27N 22°31' E 113°10'37921.7
2014-Nov-20 04:24N 23°03' E 113°30'6442691.5
2014-Nov-20 04:10N 31°07' E 121°28'651167437.7
2014-Nov-20 04:10N 22°51' E 113°34'41441.7
2014-Nov-20 04:04N 22°10' E 113°31'7091384.2
2014-Nov-20 03:33N 31°24' E 121°47'233210.5
2014-Nov-20 03:33N 31°08' E 121°27'648333233.0
2014-Nov-20 03:33N 22°55' E 113°36'64739498.2
2014-Nov-20 03:32N 31°07' E 121°28'644331167.0
2014-Nov-20 03:32N 23°04' E 113°30'654785079.1
2014-Nov-20 03:32N 32°01' E 120°31'30858304.2
2014-Nov-20 03:31N 36°54' E 122°26'9606778.2
2014-Nov-20 03:23N 22°54' E 113°28'9118.6
2014-Nov-20 03:18N 23°03' E 113°30'6633469.8
2014-Nov-20 03:07N 32°01' E 120°47'66314547.6
2014-Nov-20 03:04N 23°04' E 113°29'6471268.4
2014-Nov-20 02:34N 31°11' E 121°28'24868.4
2014-Nov-20 02:32N 31°28' E 121°47'7218506.8
2014-Nov-20 02:32N 32°01' E 120°31'654181179.2
2014-Nov-20 02:31N 23°04' E 113°30'644144892.5
2014-Nov-20 02:31N 31°07' E 121°28'644210829.6
2014-Nov-20 02:31N 23°04' E 113°29'951263369.0
2014-Nov-20 02:31N 36°54' E 122°26'952131756.0
2014-Nov-20 02:30N 23°03' E 113°30'38343.4
2014-Nov-20 02:24N 22°30' E 113°10'27438.4
2014-Nov-20 02:20N 22°09' E 113°28'1078129372.8
2014-Nov-20 02:20N 38°44' E 121°30'40414850.0
2014-Nov-20 02:18N 32°01' E 120°47'66818366.9
2014-Nov-20 02:16N 23°02' E 113°21'660935.9
2014-Nov-20 01:33N 32°01' E 120°31'6817455.7
2014-Nov-20 01:33N 31°15' E 121°30'68975124.9
2014-Nov-20 01:33N 22°30' E 113°10'385730.9
2014-Nov-20 01:32N 23°05' E 113°27'102690069.8
2014-Nov-20 01:32N 38°44' E 121°29'405486570.5
2014-Nov-20 01:31N 32°01' E 120°31'691177760.8
2014-Nov-20 01:31N 22°17' E 113°35'4114769.2
2014-Nov-20 01:31N 22°58' E 113°30'63039.9
2014-Nov-20 01:31N 23°04' E 113°29'951244559.7
2014-Nov-20 01:31N 36°54' E 122°26'35074095.7
2014-Nov-20 01:30N 31°07' E 121°28'641877.5
2014-Nov-20 01:28N 32°01' E 120°47'706158841.0
2014-Nov-20 01:28N 22°11' E 113°32'706774.9
2014-Nov-20 00:33N 32°01' E 120°47'672604394.7
2014-Nov-20 00:33N 22°55' E 113°27'667141230.2
2014-Nov-20 00:33N 31°46' E 121°00'295762.4
2014-Nov-20 00:33N 32°01' E 120°31'724825.9
2014-Nov-20 00:32N 31°07' E 121°28'727639.7
2014-Nov-20 00:31N 32°01' E 120°31'30828405.3
2014-Nov-20 00:31N 36°54' E 122°26'30626225.1
2014-Nov-20 00:30N 32°04' E 120°27'65526784.3
2014-Nov-20 00:29N 23°04' E 113°29'3877.2
2014-Nov-20 00:28N 23°01' E 113°31'3607.3
2014-Nov-20 00:28N 23°04' E 113°29'501001.3
2014-Nov-20 00:25N 22°14' E 113°36'973.3
2014-Nov-20 00:18N 22°09' E 113°29'271016.2
2014-Nov-20 00:16N 22°30' E 113°10'27451.3
2014-Nov-20 00:13N 22°11' E 113°32'7061083.8
2014-Nov-19 23:34N 32°01' E 120°47'30564492.6
2014-Nov-19 23:33N 36°54' E 122°27'961123575.0
2014-Nov-19 23:33N 22°54' E 113°28'665342200.8
2014-Nov-19 23:33N 31°59' E 120°38'141273.8
2014-Nov-19 23:32N 31°60' E 120°22'7014881.2
2014-Nov-19 23:32N 31°21' E 121°31'141084.6
2014-Nov-19 23:31N 31°07' E 121°28'724340.5
2014-Nov-19 23:30N 32°01' E 120°31'65528051.3
2014-Nov-19 23:29N 23°04' E 113°29'024.5
2014-Nov-19 23:28N 23°04' E 113°29'657157755.1
2014-Nov-19 23:28N 31°50' E 120°54'69516152.7
2014-Nov-19 23:25N 22°30' E 113°10'282046.2
2014-Nov-19 23:24N 22°10' E 113°32'157.4
2014-Nov-19 23:24N 22°11' E 113°32'699838.0
2014-Nov-19 22:33N 31°24' E 121°31'5321041.9
2014-Nov-19 22:33N 32°01' E 120°47'7764.5
2014-Nov-19 22:33N 31°55' E 120°52'1762484.0
2014-Nov-19 22:33N 32°01' E 120°33'65522038.4
2014-Nov-19 22:31N 23°04' E 113°29'546058.7
2014-Nov-19 22:30N 22°10' E 113°32'69937552.7
2014-Nov-19 22:29N 32°01' E 120°31'7228966.1
2014-Nov-19 22:29N 31°07' E 121°28'64461024.1
2014-Nov-19 22:29N 23°04' E 113°29'1881256.7
2014-Nov-19 22:20N 23°18' E 116°53'550494927.0
2014-Nov-19 22:20N 31°57' E 120°17'68217178.0
2014-Nov-19 22:17N 22°30' E 113°10'67911375.2
2014-Nov-19 22:14N 31°56' E 120°13'553825.4
2014-Nov-19 21:33N 23°13' E 116°50'562144557.7
2014-Nov-19 21:33N 32°02' E 120°26'62112435.1
2014-Nov-19 21:33N 31°27' E 121°28'4843435.8
2014-Nov-19 21:33N 32°01' E 120°47'64230718.0
2014-Nov-19 21:33N 31°07' E 121°28'64418853.4
2014-Nov-19 21:31N 23°04' E 113°29'0 8.1
2014-Nov-19 21:29N 23°04' E 113°29'62425249.1
2014-Nov-19 21:27N 29°50' E 122°19'66149538.2
2014-Nov-19 21:26N 22°30' E 113°10'110248365.0
2014-Nov-19 21:25N 39°57' E 119°50'4815412.6
2014-Nov-19 21:20N 31°56' E 120°07'68432389.0
2014-Nov-19 21:18N 22°10' E 113°32'51218.9
2014-Nov-19 21:04N 23°01' E 113°31'6591284.6
2014-Nov-19 20:34N 31°31' E 121°22'249664.0
2014-Nov-19 20:33N 31°07' E 121°28'6413571.6
2014-Nov-19 20:33N 32°01' E 120°47'47416897.9
2014-Nov-19 20:31N 39°53' E 119°48'1059146662.9
2014-Nov-19 20:31N 23°04' E 113°29'64858360.8
2014-Nov-19 20:30N 31°59' E 120°22'64822232.9
2014-Nov-19 20:29N 23°04' E 113°29'6385438.9
2014-Nov-19 20:22N 31°58' E 120°03'67613297.2
2014-Nov-19 20:18N 22°30' E 113°10'289116.5
2014-Nov-19 20:18N 22°10' E 113°32'51335.7
2014-Nov-19 20:09N 23°01' E 113°31'6641117.8
2014-Nov-19 19:34N 32°01' E 120°47'70126284.5
2014-Nov-19 19:32N 22°30' E 113°10'382825.5
2014-Nov-19 19:31N 23°04' E 113°29'645122203.9
2014-Nov-19 19:31N 31°57' E 120°18'782295.1
2014-Nov-19 19:29N 31°07' E 121°28'644193237.7
2014-Nov-19 19:29N 23°04' E 113°29'6595468.0
2014-Nov-19 19:21N 31°36' E 121°17'5 5.8
2014-Nov-19 18:33N 31°39' E 121°13'3113744.6
2014-Nov-19 18:33N 32°01' E 120°47'2184.5
2014-Nov-19 18:33N 32°02' E 120°49'66423675.5
2014-Nov-19 18:31N 23°04' E 113°29'64216279.5
2014-Nov-19 18:29N 31°56' E 120°15'7947531.8
2014-Nov-19 18:28N 31°07' E 121°28'682490902.5
2014-Nov-19 18:28N 22°30' E 113°10'388043.3
2014-Nov-19 18:28N 22°16' E 113°49'511184.6
2014-Nov-19 18:26N 23°04' E 113°29'542508.4
2014-Nov-19 18:24N 22°10' E 113°32'68422189.1
2014-Nov-19 18:22N 32°03' E 119°55'677826.4
2014-Nov-19 17:33N 22°30' E 113°10'381003.1
2014-Nov-19 17:31N 23°04' E 113°29'531931.2
2014-Nov-19 17:29N 22°13' E 113°42'69915070.6
2014-Nov-19 17:27N 32°01' E 120°47'6423091.7
2014-Nov-19 17:26N 31°07' E 121°28'64446376.7
2014-Nov-19 17:26N 23°04' E 113°29'542508.9
2014-Nov-19 17:24N 22°10' E 113°32'6857851.9
2014-Nov-19 17:19N 31°56' E 120°11'661866.8
2014-Nov-19 16:33N 22°26' E 113°53'63929501.2
2014-Nov-19 16:32N 29°46' E 122°29'62946201.7
2014-Nov-19 16:31N 23°04' E 113°29'543728.8
2014-Nov-19 16:30N 22°10' E 113°32'541875.1
2014-Nov-19 16:29N 23°04' E 113°29'66310746.9
2014-Nov-19 16:25N 32°01' E 120°47'70111845.9
2014-Nov-19 16:21N 22°30' E 113°10'3845.8
2014-Nov-19 15:31N 23°04' E 113°29'383737.4
2014-Nov-19 15:30N 22°30' E 113°10'38476.5
2014-Nov-19 15:26N 23°04' E 113°29'94710895.7
2014-Nov-19 15:20N 36°50' E 122°25'346437.9
2014-Nov-19 14:33N 31°07' E 121°28'18935.8
2014-Nov-19 14:32N 31°25' E 121°31'65912228.9
2014-Nov-19 14:29N 23°04' E 113°29'6639899.7
2014-Nov-19 14:25N 32°01' E 120°47'70131151.1
2014-Nov-19 14:23N 22°30' E 113°10'38591.0
2014-Nov-19 14:19N 23°04' E 113°29'6536889.2
2014-Nov-19 14:14N 32°02' E 120°26'6977274.4
2014-Nov-19 14:08N 22°10' E 113°32'7111243.8
2014-Nov-19 13:34N 31°28' E 121°47'7831362.5
2014-Nov-19 13:33N 31°59' E 120°22'21773.6
2014-Nov-19 13:32N 32°01' E 120°47'66317672.5
2014-Nov-19 13:29N 23°04' E 113°29'0 1.6
2014-Nov-19 13:19N 23°04' E 113°29'64412335.1
2014-Nov-19 13:16N 31°07' E 121°28'6855043.3
2014-Nov-19 13:08N 22°10' E 113°32'7071209.9
2014-Nov-19 12:33N 31°21' E 121°48'70794291.1
2014-Nov-19 12:32N 22°09' E 113°32'68579599.4
2014-Nov-19 12:32N 31°07' E 121°28'64412466.8
2014-Nov-19 12:29N 23°04' E 113°29'10881.8
2014-Nov-19 12:28N 22°57' E 113°37'6654776.6
2014-Nov-19 12:20N 32°01' E 120°47'6634385.5
2014-Nov-19 12:11N 23°04' E 113°29'6621062.7
2014-Nov-19 11:33N 31°17' E 121°46'70142065.4
2014-Nov-19 11:32N 22°11' E 113°32'535930.0
2014-Nov-19 11:32N 23°04' E 113°29'66319085.8
2014-Nov-19 11:30N 32°01' E 120°47'643250.7
2014-Nov-19 11:28N 31°07' E 121°28'64457955.1
2014-Nov-19 11:28N 23°04' E 113°30'654720.1
2014-Nov-19 10:33N 32°01' E 120°31'85153105.9
2014-Nov-19 10:33N 31°10' E 121°52'66124274.5
2014-Nov-19 10:32N 23°04' E 113°29'644231902.1
2014-Nov-19 10:31N 31°07' E 121°28'6534629.1
2014-Nov-19 10:23N 22°47' E 113°36'36146.3
2014-Nov-19 10:08N 22°11' E 113°32'7011199.1
2014-Nov-19 09:33N 31°07' E 121°58'66224319.5
2014-Nov-19 09:32N 23°04' E 113°29'64438651.9
2014-Nov-19 09:31N 31°07' E 121°28'7210391.9
2014-Nov-19 09:30N 32°01' E 120°31'65414814.0
2014-Nov-19 09:28N 23°04' E 113°30'54227.1
2014-Nov-19 09:13N 22°11' E 113°34'7051058.4
2014-Nov-19 08:33N 32°01' E 120°47'5613348.8
2014-Nov-19 08:33N 31°21' E 121°32'14914.4
2014-Nov-19 08:32N 31°07' E 121°28'7237168.9
2014-Nov-19 08:32N 32°01' E 120°31'65471380.8
2014-Nov-19 08:32N 23°04' E 113°29'5416259.8
2014-Nov-19 08:31N 22°10' E 113°31'371114.8
2014-Nov-19 08:29N 22°18' E 114°09'35672.4
2014-Nov-19 08:26N 22°11' E 113°32'53293.8
2014-Nov-19 08:16N 23°04' E 113°30'652929.7
2014-Nov-19 07:34N 31°15' E 121°31'6701206009.9
2014-Nov-19 07:33N 22°28' E 113°47'221042.8
2014-Nov-19 07:32N 22°11' E 113°32'535124.9
2014-Nov-19 07:32N 23°04' E 113°29'64334036.7
2014-Nov-19 07:30N 30°51' E 121°46'65131239.6
2014-Nov-19 07:29N 23°04' E 113°17'65254568.6
2014-Nov-19 07:29N 31°07' E 121°28'66592113.9
2014-Nov-19 07:28N 22°26' E 113°45'404695.3
2014-Nov-19 07:28N 23°04' E 113°30'638208945.1
2014-Nov-19 07:27N 32°03' E 119°55'6403601.1
2014-Nov-19 07:17N 23°01' E 113°31'645893.7
2014-Nov-19 06:33N 30°50' E 121°49'284313.7
2014-Nov-19 06:33N 31°11' E 121°28'64727711.0
2014-Nov-19 06:32N 23°04' E 113°29'64455214.0
2014-Nov-19 06:31N 31°07' E 121°28'724565.0
2014-Nov-19 06:30N 31°55' E 120°25'4115685.7
2014-Nov-19 06:26N 38°43' E 121°30'106218930.0
2014-Nov-19 06:22N 22°20' E 113°41'9317.6
2014-Nov-19 06:21N 22°28' E 113°47'6628963.8
2014-Nov-19 06:16N 32°03' E 119°55'63871824.3
2014-Nov-19 06:16N 23°04' E 113°30'315.6
2014-Nov-19 06:05N 23°01' E 113°31'4688.5
2014-Nov-19 05:33N 22°16' E 113°39'675221060.8
2014-Nov-19 05:33N 30°48' E 121°51'125149880.5
2014-Nov-19 05:33N 32°03' E 119°55'407209130.2
2014-Nov-19 05:33N 38°42' E 121°31'409735471.1
2014-Nov-19 05:33N 31°58' E 120°23'6487064.6
2014-Nov-19 05:28N 23°04' E 113°30'6399199.6
2014-Nov-19 05:23N 31°57' E 120°06'663149178.1
2014-Nov-19 05:23N 22°27' E 113°47'414751.4
2014-Nov-19 05:23N 23°04' E 113°29'331.0
2014-Nov-19 05:17N 23°01' E 113°31'10278697.0
2014-Nov-19 05:09N 38°42' E 121°29'478791.6
2014-Nov-19 04:33N 30°45' E 121°54'11313529.2
2014-Nov-19 04:33N 31°57' E 120°12'433103829.5
2014-Nov-19 04:33N 38°55' E 117°55'43316576.2
2014-Nov-19 04:31N 32°01' E 120°31'696131918.0
2014-Nov-19 04:31N 22°10' E 113°37'1072428898.6
2014-Nov-19 04:30N 38°42' E 121°30'10541897187.4
2014-Nov-19 04:30N 22°27' E 113°47'68527414.2
2014-Nov-19 04:29N 32°01' E 120°47'6634252.4
2014-Nov-19 04:20N 23°04' E 113°29'43399.4
2014-Nov-19 04:13N 22°27' E 113°53'434685.8
2014-Nov-19 04:13N 23°04' E 113°30'331.0
2014-Nov-19 04:07N 23°01' E 113°31'6641185.9
2014-Nov-19 03:33N 32°01' E 120°47'708364164.7
2014-Nov-19 03:33N 22°09' E 113°30'5549597.3
2014-Nov-19 03:33N 23°05' E 113°28'636381307.6
2014-Nov-19 03:33N 30°59' E 121°22'37134043.0
2014-Nov-19 03:33N 30°57' E 122°06'153266.8
2014-Nov-19 03:33N 30°44' E 121°58'1072918.6
2014-Nov-19 03:31N 32°01' E 120°31'678174257.2
2014-Nov-19 03:30N 22°27' E 113°47'36448.6
2014-Nov-19 03:26N 23°00' E 113°32'15621.8
2014-Nov-19 03:24N 23°04' E 113°16'1255.0
2014-Nov-19 03:11N 23°04' E 113°29'6631068.9
2014-Nov-19 02:33N 32°01' E 120°47'10045030.9
2014-Nov-19 02:33N 30°45' E 122°03'7159.4
2014-Nov-19 02:31N 30°51' E 122°08'1091076.1
2014-Nov-19 02:25N 32°01' E 120°32'661139875.8
2014-Nov-19 02:24N 23°03' E 113°19'9337.2
2014-Nov-19 02:23N 23°04' E 113°29'6658340.1
2014-Nov-19 02:18N 32°02' E 120°50'61934.4
2014-Nov-19 02:14N 31°10' E 121°28'4059.3
2014-Nov-19 01:33N 30°49' E 122°08'109393063.6
2014-Nov-19 01:33N 32°01' E 120°32'65522023.0
2014-Nov-19 01:32N 23°04' E 113°29'66528160.2
2014-Nov-19 01:30N 32°02' E 120°50'68663360.3
2014-Nov-19 01:30N 22°24' E 113°54'6684781.4
2014-Nov-19 01:21N 31°13' E 121°30'4486044.9
2014-Nov-19 01:17N 38°42' E 121°29'107635856.9
2014-Nov-19 01:15N 22°09' E 113°28'68915023.4
2014-Nov-19 01:12N 31°08' E 121°27'4544788.4
2014-Nov-19 01:06N 38°42' E 121°30'40612933.2
2014-Nov-19 01:05N 32°03' E 119°55'4485.6
2014-Nov-19 00:33N 32°01' E 120°47'9738754.2
2014-Nov-19 00:33N 30°55' E 122°10'698167573.8
2014-Nov-19 00:33N 22°11' E 113°34'532235.8
2014-Nov-19 00:32N 23°04' E 113°29'66541993.0
2014-Nov-19 00:31N 32°02' E 120°50'3 2.7
2014-Nov-18 23:33N 32°01' E 120°47'93335330.7
2014-Nov-18 23:33N 30°59' E 122°09'9282781.0
2014-Nov-18 23:33N 32°02' E 120°50'70666895.9
2014-Nov-18 23:33N 22°12' E 113°34'43560.3
2014-Nov-18 23:28N 22°54' E 113°22'12127.5
2014-Nov-18 23:23N 23°04' E 113°29'6576495.4
2014-Nov-18 23:17N 31°21' E 121°33'2433.1
2014-Nov-18 22:33N 31°17' E 121°05'4733549.7
2014-Nov-18 22:33N 32°01' E 120°47'672241993.3
2014-Nov-18 22:33N 22°55' E 113°26'432679.3
2014-Nov-18 22:32N 22°12' E 113°34'700503835.1
2014-Nov-18 22:32N 31°02' E 122°05'66388389.7
2014-Nov-18 22:32N 23°04' E 113°29'65630280.7
2014-Nov-18 22:30N 31°22' E 121°30'102603.8
2014-Nov-18 22:20N 29°49' E 122°20'163208.7
2014-Nov-18 21:33N 31°58' E 120°23'690207014.4
2014-Nov-18 21:33N 22°12' E 113°34'4225265.8
2014-Nov-18 21:33N 22°54' E 113°30'304495.9
2014-Nov-18 21:33N 22°29' E 113°49'67597158.4
2014-Nov-18 21:32N 31°24' E 121°31'535747.8
2014-Nov-18 21:32N 32°01' E 120°47'239.5
2014-Nov-18 21:29N 31°60' E 120°49'821041.2
2014-Nov-18 21:24N 31°05' E 122°00'6766071.8
2014-Nov-18 21:18N 22°27' E 113°53'2330.8
2014-Nov-18 20:33N 22°12' E 113°34'686617847.2
2014-Nov-18 20:33N 31°57' E 120°17'653130500.5
2014-Nov-18 20:33N 22°52' E 113°33'66657096.0
2014-Nov-18 20:32N 31°27' E 121°28'659148240.0
2014-Nov-18 20:32N 23°04' E 113°29'6165328.7
2014-Nov-18 20:25N 29°41' E 122°15'1875253.0
2014-Nov-18 20:23N 32°03' E 119°55'4454.2
2014-Nov-18 19:33N 32°01' E 120°47'70497498.5
2014-Nov-18 19:33N 22°12' E 113°34'68216146.2
2014-Nov-18 19:30N 32°03' E 119°55'827785.5
2014-Nov-18 19:30N 31°30' E 121°23'6736732.1
2014-Nov-18 19:24N 22°33' E 113°48'6246929.9
2014-Nov-18 19:18N 29°42' E 122°12'6154767.9
2014-Nov-18 19:11N 23°04' E 113°29'12155.3
2014-Nov-18 19:06N 22°54' E 113°22'4461.6
2014-Nov-18 18:23N 22°12' E 113°34'534508.7
2014-Nov-18 18:23N 23°04' E 113°29'61813652.0
2014-Nov-18 18:20N 29°36' E 122°22'1400.7
2014-Nov-18 18:20N 29°36' E 122°22'54815300.0
2014-Nov-18 18:18N 38°43' E 121°35'4044187.9
2014-Nov-18 18:12N 32°01' E 120°47'67911204.8
2014-Nov-18 18:08N 22°54' E 113°15'463080.6
2014-Nov-18 18:07N 22°11' E 113°32'4 6.1
2014-Nov-18 17:32N 22°10' E 113°36'237.1
2014-Nov-18 17:29N 22°12' E 113°34'69818468.6
2014-Nov-18 17:27N 31°30' E 121°23'1162731.6
2014-Nov-18 17:24N 29°42' E 122°12'61522123.0
2014-Nov-18 17:23N 23°04' E 113°29'6632796.9
2014-Nov-18 17:08N 32°01' E 120°47'6981169.6
2014-Nov-18 16:33N 22°13' E 113°44'69218046.6
2014-Nov-18 16:30N 31°28' E 121°27'43526975.1
2014-Nov-18 16:29N 38°42' E 121°38'40886296.4
2014-Nov-18 16:29N 32°03' E 119°55'823047.3
2014-Nov-18 16:27N 31°30' E 121°23'69822031.4
2014-Nov-18 16:26N 22°12' E 113°34'427122.9
2014-Nov-18 16:25N 22°53' E 113°34'61845433.1
2014-Nov-18 16:24N 29°42' E 122°12'61522348.1
2014-Nov-18 16:23N 23°04' E 113°29'10273192.7
2014-Nov-18 16:03N 38°43' E 121°34'408810.9
2014-Nov-18 15:33N 32°03' E 119°55'63923221.6
2014-Nov-18 15:32N 23°04' E 113°29'525724.9
2014-Nov-18 15:31N 22°12' E 113°34'69835880.9
2014-Nov-18 15:30N 31°30' E 121°23'1161278.8
2014-Nov-18 15:24N 29°42' E 122°12'1571520.5
2014-Nov-18 15:18N 32°01' E 120°47'6722974.5
2014-Nov-18 15:05N 22°55' E 113°27'6671228.0
2014-Nov-18 14:32N 31°30' E 121°23'822080.9
2014-Nov-18 14:30N 32°03' E 119°55'6498949.0
2014-Nov-18 14:25N 22°55' E 113°25'6732057.8
2014-Nov-18 14:06N 32°01' E 120°47'6701159.3
2014-Nov-18 13:31N 22°54' E 113°31'773.0
2014-Nov-18 13:25N 22°57' E 113°38'6598790.7
2014-Nov-18 13:21N 31°30' E 121°23'43766.9
2014-Nov-18 13:17N 32°01' E 120°47'66834337.4
2014-Nov-18 13:16N 22°58' E 113°30'3 4.0
2014-Nov-18 12:32N 23°00' E 113°31'4842.1
2014-Nov-18 12:32N 23°04' E 113°29'65820976.4
2014-Nov-18 12:30N 31°30' E 121°23'6594634.6
2014-Nov-18 12:21N 23°02' E 113°31'8262.3
2014-Nov-18 12:19N 22°57' E 113°38'659834.9
2014-Nov-18 11:32N 31°30' E 121°23'6582370279.2
2014-Nov-18 11:32N 23°04' E 113°29'0 3.7
2014-Nov-18 11:27N 23°04' E 113°30'0 6.7
2014-Nov-18 11:23N 23°04' E 113°29'6632723.7
2014-Nov-18 11:08N 32°01' E 120°47'0 0.0
2014-Nov-18 10:33N 32°01' E 120°47'66349691.6
2014-Nov-18 10:33N 23°04' E 113°30'6582907.5
2014-Nov-18 10:19N 31°30' E 121°23'111143.2
2014-Nov-18 09:32N 29°51' E 122°22'62732221.0
2014-Nov-18 09:31N 23°04' E 113°30'66034937.5
2014-Nov-18 09:30N 31°08' E 121°54'77826.8
2014-Nov-18 09:24N 32°01' E 120°47'441095.2
2014-Nov-18 09:22N 31°30' E 121°23'69519535.8
2014-Nov-18 09:20N 22°14' E 113°36'5064.2
2014-Nov-18 08:33N 23°04' E 113°30'660198103.9
2014-Nov-18 08:33N 31°14' E 121°47'69430825.4
2014-Nov-18 08:32N 22°17' E 113°35'69336139.3
2014-Nov-18 08:31N 31°30' E 121°23'65811176.6
2014-Nov-18 08:27N 23°04' E 113°30'0 5.9
2014-Nov-18 08:23N 23°04' E 113°29'663298228.3
2014-Nov-18 08:22N 32°01' E 120°47'6695624.3
2014-Nov-18 08:15N 23°03' E 113°19'10285789.9
2014-Nov-18 08:05N 38°40' E 121°30'440835.2
2014-Nov-18 07:33N 31°21' E 121°48'665217789.1
2014-Nov-18 07:33N 23°04' E 113°30'0 0.5
2014-Nov-18 07:27N 23°04' E 113°30'39318.3
2014-Nov-18 07:20N 22°29' E 113°47'3911685.0
2014-Nov-18 07:20N 23°04' E 113°29'66358187.3
2014-Nov-18 07:19N 32°01' E 120°47'441044.9
2014-Nov-18 07:16N 31°30' E 121°23'658894.5
2014-Nov-18 06:32N 23°04' E 113°30'040.5
2014-Nov-18 06:32N 23°04' E 113°29'49740.8
2014-Nov-18 06:28N 22°18' E 113°46'49825.2
2014-Nov-18 06:24N 23°04' E 113°30'6634228.7
2014-Nov-18 06:15N 32°01' E 120°47'44790.9
2014-Nov-18 06:11N 31°30' E 121°23'6581025.3
2014-Nov-18 05:33N 23°04' E 113°30'6586527.8
2014-Nov-18 05:27N 31°30' E 121°23'69085674.7
2014-Nov-18 05:26N 22°15' E 113°43'51161.9
2014-Nov-18 05:08N 23°04' E 113°29'1 0.9
2014-Nov-18 04:33N 23°04' E 113°30'5261998.0
2014-Nov-18 04:33N 22°13' E 113°40'522010.9
2014-Nov-18 04:32N 23°04' E 113°29'66328742.4
2014-Nov-18 04:30N 32°01' E 120°47'1575777.5
2014-Nov-18 04:29N 29°42' E 122°12'1195154.9
2014-Nov-18 04:27N 31°32' E 121°20'658296126.7
2014-Nov-18 04:27N 23°04' E 113°30'659736.9
2014-Nov-18 03:33N 31°35' E 121°18'659169426.9
2014-Nov-18 03:33N 23°04' E 113°29'0 0.5
2014-Nov-18 03:27N 23°04' E 113°29'541019.3
2014-Nov-18 03:23N 22°11' E 113°38'70411109.7
2014-Nov-18 03:20N 32°01' E 120°47'6783182.2
2014-Nov-18 03:07N 22°45' E 113°31'2035.4
2014-Nov-18 02:34N 23°04' E 113°29'65960872.3
2014-Nov-18 02:33N 31°38' E 121°15'6596347.4
2014-Nov-18 02:27N 23°04' E 113°29'12618.8
2014-Nov-18 02:25N 23°04' E 113°16'123194.1
2014-Nov-18 02:25N 23°04' E 113°29'66379528.4
2014-Nov-18 02:25N 32°01' E 120°47'70612158.7
2014-Nov-18 02:21N 22°11' E 113°33'6843338.5
2014-Nov-18 02:09N 32°04' E 119°56'6401064.4
2014-Nov-18 01:33N 23°04' E 113°29'66350758.8
2014-Nov-18 01:32N 32°01' E 120°47'66477099.8
2014-Nov-18 01:32N 23°05' E 113°26'380.3
2014-Nov-18 01:30N 23°04' E 113°29'7317.2
2014-Nov-18 01:28N 22°57' E 113°30'66582529.8
2014-Nov-18 01:28N 31°40' E 121°12'4203067.5
2014-Nov-18 01:20N 38°40' E 121°31'106511271.6
2014-Nov-18 01:14N 22°17' E 113°35'106415634.2
2014-Nov-18 01:10N 38°39' E 121°31'10221665.2
2014-Nov-18 00:33N 23°04' E 113°29'640460447.5
2014-Nov-18 00:33N 32°04' E 119°56'64220288.9
2014-Nov-18 00:31N 22°59' E 113°33'66516632.1
2014-Nov-18 00:29N 32°01' E 120°47'700104974.0
2014-Nov-18 00:28N 22°16' E 113°36'695125117.4
2014-Nov-18 00:28N 31°42' E 121°08'41019698.5
2014-Nov-18 00:27N 25°06' E 119°07'33815028.1
2014-Nov-18 00:25N 22°55' E 113°26'10170.5
2014-Nov-18 00:22N 23°04' E 113°29'501197.7
2014-Nov-18 00:19N 22°14' E 113°36'6796775.4
2014-Nov-18 00:13N 32°03' E 119°56'4037283.4
2014-Nov-18 00:10N 38°39' E 121°29'404666.1
2014-Nov-17 23:33N 32°02' E 119°58'638164143.7
2014-Nov-17 23:33N 23°04' E 113°29'659263760.2
2014-Nov-17 23:33N 31°44' E 121°06'41152899.6
2014-Nov-17 23:33N 25°06' E 119°09'33212077.9
2014-Nov-17 23:31N 22°59' E 113°33'64212109.6
2014-Nov-17 23:28N 32°04' E 119°56'64012513.1
2014-Nov-17 23:25N 23°04' E 113°29'9736244.4
2014-Nov-17 23:15N 37°33' E 121°57'3382625.3
2014-Nov-17 23:08N 32°00' E 120°45'6611152.5
2014-Nov-17 22:33N 23°04' E 113°29'63811537.3
2014-Nov-17 22:30N 31°59' E 120°01'6739.0
2014-Nov-17 22:29N 32°04' E 119°56'644193295.0
2014-Nov-17 22:29N 23°02' E 113°23'66356805.0
2014-Nov-17 22:28N 31°60' E 120°40'6808742.3
2014-Nov-17 22:24N 22°28' E 113°46'100110625.9
2014-Nov-17 22:18N 37°34' E 121°57'3511694.0
2014-Nov-17 22:06N 31°47' E 120°58'6571215.2
2014-Nov-17 21:33N 23°04' E 113°29'65532305.2
2014-Nov-17 21:32N 32°01' E 120°33'67518411.9
2014-Nov-17 21:30N 22°18' E 114°09'100322417.2
2014-Nov-17 21:27N 37°34' E 121°60'34915336.3
2014-Nov-17 21:26N 31°57' E 120°09'4413.3
2014-Nov-17 21:25N 31°58' E 120°05'926.8
2014-Nov-17 21:04N 32°04' E 119°56'6391244.4
2014-Nov-17 20:33N 23°04' E 113°29'65469292.0
2014-Nov-17 20:33N 32°01' E 120°31'147387.7
2014-Nov-17 20:33N 31°57' E 120°15'5720.1
2014-Nov-17 20:32N 31°57' E 120°09'121233.6
2014-Nov-17 20:32N 32°04' E 119°56'34515125.0
2014-Nov-17 20:30N 37°34' E 121°58'72496.0
2014-Nov-17 20:22N 38°42' E 121°29'4086563.3
2014-Nov-17 20:18N 31°54' E 120°53'408552.0
2014-Nov-17 19:33N 38°42' E 121°30'406730991.9
2014-Nov-17 19:33N 31°60' E 120°20'648466364.0
2014-Nov-17 19:33N 23°04' E 113°29'654168280.6
2014-Nov-17 19:33N 32°01' E 120°31'294985.2
2014-Nov-17 19:33N 32°04' E 119°56'16365.2
2014-Nov-17 19:30N 31°57' E 120°13'6596246.7
2014-Nov-17 19:24N 22°33' E 113°47'6792126.1
2014-Nov-17 19:05N 31°60' E 120°49'2752.4
2014-Nov-17 18:34N 31°58' E 120°17'195209.1
2014-Nov-17 18:33N 32°04' E 119°56'639121167.9
2014-Nov-17 18:33N 23°04' E 113°29'65434646.0
2014-Nov-17 18:32N 32°01' E 120°31'68714731.4
2014-Nov-17 18:29N 22°15' E 113°47'69347105.6
2014-Nov-17 18:28N 32°00' E 120°45'3395472.8
2014-Nov-17 18:24N 37°35' E 121°55'343403.6
2014-Nov-17 17:33N 32°00' E 120°22'649333719.9
2014-Nov-17 17:33N 23°04' E 113°29'65727193.6
2014-Nov-17 17:32N 31°60' E 120°39'5938.3
2014-Nov-17 17:32N 32°01' E 120°33'694138715.6
2014-Nov-17 17:31N 22°13' E 113°41'67990502.6
2014-Nov-17 17:31N 32°04' E 119°56'34615976.7
2014-Nov-17 17:29N 37°35' E 121°59'3 3.3
2014-Nov-17 16:34N 37°35' E 122°03'3421232595.5
2014-Nov-17 16:34N 32°01' E 120°33'655235828.5
2014-Nov-17 16:33N 23°04' E 113°29'654784433.5
2014-Nov-17 16:33N 32°03' E 120°26'65898741.1
2014-Nov-17 16:33N 22°57' E 113°33'659790708.0
2014-Nov-17 16:33N 32°01' E 120°31'291801.9
2014-Nov-17 16:32N 32°04' E 119°56'68327953.4
2014-Nov-17 16:30N 22°10' E 113°36'44505.7
2014-Nov-17 16:25N 22°54' E 113°35'421887.3
2014-Nov-17 16:24N 22°12' E 113°34'5362.7
2014-Nov-17 15:33N 23°04' E 113°29'654785309.2
2014-Nov-17 15:33N 32°01' E 120°31'341204736.4
2014-Nov-17 15:33N 37°35' E 121°59'339407133.7
2014-Nov-17 15:33N 32°01' E 120°49'663341122.0
2014-Nov-17 15:33N 23°03' E 113°31'654214000.7
2014-Nov-17 15:33N 32°02' E 120°28'27476.0
2014-Nov-17 15:29N 32°04' E 119°56'68313431.4
2014-Nov-17 15:26N 22°12' E 113°34'69919663.2
2014-Nov-17 15:24N 32°04' E 120°32'4011727.7
2014-Nov-17 15:10N 38°42' E 121°30'107321569.8
2014-Nov-17 15:07N 22°11' E 113°32'5190.3
2014-Nov-17 14:33N 23°03' E 113°31'655168385.2
2014-Nov-17 14:33N 32°01' E 120°31'654112185.3
2014-Nov-17 14:33N 23°04' E 113°29'650180029.8
2014-Nov-17 14:33N 31°59' E 120°27'9540.0
2014-Nov-17 14:32N 32°01' E 120°36'700157474.4
2014-Nov-17 14:31N 22°11' E 113°32'227.5
2014-Nov-17 14:26N 22°12' E 113°34'68325604.3
2014-Nov-17 14:25N 32°04' E 119°56'65110708.5
2014-Nov-17 14:21N 22°54' E 113°22'1214.9
2014-Nov-17 13:33N 23°04' E 113°29'3262.4
2014-Nov-17 13:33N 23°03' E 113°31'517074.4
2014-Nov-17 13:32N 22°12' E 113°34'683204824.8
2014-Nov-17 13:32N 32°04' E 119°56'229977.2
2014-Nov-17 13:32N 31°58' E 120°22'82289.1
2014-Nov-17 13:32N 32°01' E 120°31'66323627.9
2014-Nov-17 13:30N 22°54' E 113°30'66837581.3
2014-Nov-17 13:29N 32°00' E 120°43'2324.5
2014-Nov-17 12:33N 31°57' E 120°16'645464341.5
2014-Nov-17 12:33N 23°01' E 113°32'4434.3
2014-Nov-17 12:33N 23°04' E 113°29'654112188.0
2014-Nov-17 12:32N 32°01' E 120°31'66379585.4
2014-Nov-17 12:32N 22°51' E 113°34'12751.0
2014-Nov-17 12:31N 23°03' E 113°31'511414.7
2014-Nov-17 12:29N 22°12' E 113°34'2 8.9
2014-Nov-17 12:13N 22°11' E 113°32'5176.4
2014-Nov-17 11:33N 23°03' E 113°31'655589371.4
2014-Nov-17 11:33N 32°01' E 120°31'65622292.6
2014-Nov-17 11:31N 23°04' E 113°25'97718129.7
2014-Nov-17 11:28N 37°34' E 122°00'979587470.3
2014-Nov-17 11:28N 22°57' E 113°37'6415075.4
2014-Nov-17 11:20N 31°56' E 120°09'1378.7
2014-Nov-17 11:11N 32°04' E 119°56'68315173.1
2014-Nov-17 11:08N 22°12' E 113°35'5392.1
2014-Nov-17 10:33N 23°04' E 113°29'24470.9
2014-Nov-17 10:33N 23°03' E 113°31'112729.7
2014-Nov-17 10:33N 23°03' E 113°19'5599131.9
2014-Nov-17 10:33N 22°10' E 113°37'69669638.6
2014-Nov-17 10:32N 32°01' E 120°31'34131477.3
2014-Nov-17 10:32N 37°35' E 121°58'3492542.5
2014-Nov-17 10:24N 31°57' E 120°14'10143.5
2014-Nov-17 10:19N 31°58' E 120°02'637830.2
2014-Nov-17 09:33N 23°04' E 113°29'1129.8
2014-Nov-17 09:33N 23°04' E 113°29'653167907.9
2014-Nov-17 09:33N 32°02' E 120°27'7674.8
2014-Nov-17 09:32N 31°59' E 120°19'69147816.4
2014-Nov-17 09:31N 22°10' E 113°32'2669.1
2014-Nov-17 09:09N 22°28' E 113°53'292067.2
2014-Nov-17 09:08N 22°51' E 113°33'6581150.3
2014-Nov-17 08:33N 31°59' E 120°22'30926512.8
2014-Nov-17 08:33N 36°50' E 122°29'949683292.3
2014-Nov-17 08:33N 23°06' E 113°26'651585506.7
2014-Nov-17 08:33N 32°00' E 120°24'65066895.9
2014-Nov-17 08:32N 23°04' E 113°29'973389339.9
2014-Nov-17 08:32N 37°36' E 121°51'10217955.9
2014-Nov-17 08:24N 22°11' E 113°32'698825.2
2014-Nov-17 07:33N 32°02' E 120°30'655785723.3
2014-Nov-17 07:33N 23°06' E 113°26'31976.7
2014-Nov-17 07:33N 23°04' E 113°29'97551615.3
2014-Nov-17 07:32N 37°36' E 121°55'349251483.9
2014-Nov-17 07:32N 31°56' E 120°16'6873840.3
2014-Nov-17 07:21N 22°11' E 113°32'477.6
2014-Nov-17 07:18N 22°13' E 113°35'69418363.3
2014-Nov-17 07:16N 31°23' E 121°30'6643400.4
2014-Nov-17 07:04N 23°03' E 113°18'815.6
2014-Nov-17 06:33N 23°06' E 113°26'3161.8
2014-Nov-17 06:32N 23°04' E 113°29'63913538.1
2014-Nov-17 06:30N 31°56' E 120°09'68313578.8
2014-Nov-17 06:26N 22°11' E 113°35'70039975.8
2014-Nov-17 06:25N 32°01' E 120°36'6773866.6
2014-Nov-17 06:15N 22°19' E 114°09'655935.7
2014-Nov-17 05:33N 30°50' E 121°47'643165437.8
2014-Nov-17 05:33N 23°04' E 113°29'3589.7
2014-Nov-17 05:32N 23°06' E 113°26'554373.8
2014-Nov-17 05:32N 22°12' E 113°35'67457762.4
2014-Nov-17 05:31N 30°59' E 121°23'22761.1
2014-Nov-17 05:29N 31°21' E 121°27'4426094.3
2014-Nov-17 05:25N 38°43' E 121°30'1052378677.1
2014-Nov-17 05:25N 22°28' E 113°53'65812874.6
2014-Nov-17 05:22N 31°57' E 120°03'3473913.8
2014-Nov-17 05:16N 37°31' E 121°57'33611096.5
2014-Nov-17 05:14N 32°01' E 120°44'661965.6
2014-Nov-17 04:33N 23°06' E 113°26'63765550.8
2014-Nov-17 04:33N 31°59' E 119°60'637254873.6
2014-Nov-17 04:33N 23°04' E 113°29'64522750.3
2014-Nov-17 04:31N 30°48' E 121°51'39865.1
2014-Nov-17 04:28N 31°21' E 121°27'69528741.0
2014-Nov-17 04:27N 22°21' E 113°18'18897.3
2014-Nov-17 04:26N 22°11' E 113°35'7043254.7
2014-Nov-17 04:13N 31°59' E 120°51'6631012.4
2014-Nov-17 03:33N 23°04' E 113°29'64492788.6
2014-Nov-17 03:33N 30°45' E 121°54'64577401.2
2014-Nov-17 03:32N 23°06' E 113°26'552321.3
2014-Nov-17 03:31N 22°11' E 113°35'332136.4
2014-Nov-17 03:30N 22°19' E 114°09'66925621.2
2014-Nov-17 03:29N 31°21' E 121°27'43199.2
2014-Nov-17 03:16N 31°54' E 120°54'70543747.2
2014-Nov-17 03:15N 22°14' E 113°23'50679.1
2014-Nov-17 03:10N 23°04' E 113°16'1016.1
2014-Nov-17 02:33N 23°06' E 113°26'977125630.9
2014-Nov-17 02:33N 37°32' E 122°11'987710527.5
2014-Nov-17 02:33N 22°53' E 113°30'653587827.7
2014-Nov-17 02:33N 30°44' E 121°58'646332135.6
2014-Nov-17 02:33N 23°04' E 113°29'8283.4
2014-Nov-17 02:31N 23°03' E 113°21'533172.1
2014-Nov-17 02:30N 22°11' E 113°35'69313940.2
2014-Nov-17 02:27N 31°21' E 121°27'852578.7
2014-Nov-17 02:25N 32°00' E 119°59'638741.3
2014-Nov-17 01:33N 23°06' E 113°26'64636.2
2014-Nov-17 01:33N 23°03' E 113°20'829994.5
2014-Nov-17 01:33N 23°04' E 113°29'65481235.0
2014-Nov-17 01:33N 31°21' E 121°27'66334575.0
2014-Nov-17 01:32N 22°51' E 113°33'98621385.1
2014-Nov-17 01:29N 37°30' E 122°10'102123873.2
2014-Nov-17 01:26N 22°11' E 113°35'68127556.5
2014-Nov-17 01:25N 31°58' E 120°04'532061.5
2014-Nov-17 01:23N 31°46' E 121°04'660793.8
2014-Nov-17 00:33N 23°06' E 113°26'660182796.7
2014-Nov-17 00:33N 31°42' E 121°10'66048470.7
2014-Nov-17 00:32N 23°04' E 113°29'1412723.9
2014-Nov-17 00:32N 22°51' E 113°33'98617401.7
2014-Nov-17 00:29N 37°30' E 122°10'3474843.6
2014-Nov-17 00:25N 31°57' E 120°10'3201603.5
2014-Nov-17 00:13N 36°56' E 122°28'4206073.4
2014-Nov-17 00:09N 29°56' E 122°17'6271073.1
2014-Nov-16 23:33N 23°06' E 113°26'31456.8
2014-Nov-16 23:33N 23°04' E 113°29'1450863.1
2014-Nov-16 23:33N 22°51' E 113°33'982294550.2
2014-Nov-16 23:33N 37°31' E 121°57'446102.5
2014-Nov-16 23:33N 36°54' E 122°28'31830083.9
2014-Nov-16 23:32N 31°57' E 120°15'3462295.8
2014-Nov-16 23:23N 37°30' E 122°10'9751180.9
2014-Nov-16 22:33N 23°06' E 113°26'52641.6
2014-Nov-16 22:33N 23°02' E 113°22'65286952.8
2014-Nov-16 22:33N 31°59' E 120°19'65645446.0
2014-Nov-16 22:32N 22°51' E 113°33'66821085.2
2014-Nov-16 22:30N 31°33' E 121°21'3599796.5
2014-Nov-16 22:28N 37°30' E 122°10'1273.9
2014-Nov-16 22:18N 37°35' E 121°57'3742496.3
2014-Nov-16 22:09N 31°21' E 121°27'67111.6
2014-Nov-16 21:33N 32°01' E 120°24'651111599.6
2014-Nov-16 21:33N 23°06' E 113°26'656112395.0
2014-Nov-16 21:33N 31°22' E 121°28'66353079.6
2014-Nov-16 21:32N 22°51' E 113°33'98614489.6
2014-Nov-16 21:28N 37°30' E 122°10'34312116.2
2014-Nov-16 21:26N 32°05' E 119°55'6493419.1
2014-Nov-16 21:15N 22°53' E 113°30'6674031.1
2014-Nov-16 21:05N 31°27' E 121°29'6681268.7
2014-Nov-16 20:33N 22°51' E 113°33'664217310.9
2014-Nov-16 20:33N 32°02' E 120°29'6551178646.8
2014-Nov-16 20:33N 23°06' E 113°26'97511361.7
2014-Nov-16 20:28N 37°30' E 122°10'9751074.0
2014-Nov-16 19:33N 23°06' E 113°26'656262508.3
2014-Nov-16 19:33N 32°01' E 120°34'66539924.0
2014-Nov-16 19:32N 22°51' E 113°33'98613447.0
2014-Nov-16 19:28N 37°30' E 122°10'9861084.0
2014-Nov-16 18:33N 22°51' E 113°33'648777094.5
2014-Nov-16 18:33N 32°00' E 119°59'638229657.5
2014-Nov-16 18:33N 23°06' E 113°26'65840839.7
2014-Nov-16 18:32N 32°00' E 120°39'274.7
2014-Nov-16 18:30N 32°00' E 120°37'3385771.3
2014-Nov-16 18:27N 37°30' E 122°10'11124.1
2014-Nov-16 18:21N 37°34' E 121°57'2 3.0
2014-Nov-16 17:33N 37°34' E 122°00'3491257858.5
2014-Nov-16 17:33N 31°58' E 120°03'648111031.8
2014-Nov-16 17:33N 22°51' E 113°33'165843.0
2014-Nov-16 17:33N 23°06' E 113°26'66127685.7
2014-Nov-16 17:31N 32°01' E 120°44'66718769.0
2014-Nov-16 17:29N 22°53' E 113°34'98325278.4
2014-Nov-16 17:27N 37°30' E 122°10'3801966.2
2014-Nov-16 17:15N 31°12' E 121°29'6563152.5
2014-Nov-16 17:03N 22°53' E 113°30'6521318.2
2014-Nov-16 16:33N 31°08' E 121°28'6452322732.7
2014-Nov-16 16:33N 23°06' E 113°26'975319168.0
2014-Nov-16 16:33N 37°30' E 122°10'352140677.7
2014-Nov-16 16:33N 31°42' E 121°09'541801.1
2014-Nov-16 16:31N 31°57' E 120°09'35118885.2
2014-Nov-16 16:30N 37°35' E 122°04'34118312.4
2014-Nov-16 16:29N 31°60' E 120°50'67236111.1
2014-Nov-16 16:28N 22°51' E 113°33'316.2
2014-Nov-16 16:15N 22°53' E 113°30'0 0.0
2014-Nov-16 15:33N 22°53' E 113°30'31242.4
2014-Nov-16 15:33N 22°51' E 113°33'65180867.6
2014-Nov-16 15:33N 31°56' E 120°14'3473184.9
2014-Nov-16 15:26N 37°30' E 122°10'3417217.3
2014-Nov-16 15:23N 31°55' E 120°53'3452884.6
2014-Nov-16 15:16N 37°35' E 122°05'99316243.5
2014-Nov-16 15:12N 22°53' E 113°17'1523.0
2014-Nov-16 14:33N 23°06' E 113°26'647465736.1
2014-Nov-16 14:33N 31°59' E 120°20'819062.3
2014-Nov-16 14:33N 30°59' E 121°24'64452710.0
2014-Nov-16 14:32N 22°51' E 113°33'66716907.7
2014-Nov-16 14:30N 31°50' E 120°55'34948355.7
2014-Nov-16 14:29N 37°35' E 122°01'3741390.5
2014-Nov-16 14:13N 31°21' E 121°27'6647092.9
2014-Nov-16 14:07N 22°55' E 113°25'5244.9
2014-Nov-16 14:06N 22°53' E 113°30'1 1.3
2014-Nov-16 13:33N 22°54' E 113°30'660297173.2
2014-Nov-16 13:33N 32°02' E 120°24'65280934.9
2014-Nov-16 13:33N 23°06' E 113°26'161244.0
2014-Nov-16 13:32N 22°51' E 113°33'6638903.1
2014-Nov-16 13:27N 31°21' E 121°27'32210.7
2014-Nov-16 13:18N 31°46' E 121°03'20498.6
2014-Nov-16 13:16N 31°33' E 121°21'659932.8
2014-Nov-16 12:33N 23°06' E 113°26'656236252.9
2014-Nov-16 12:33N 32°04' E 120°29'5834606.0
2014-Nov-16 12:33N 31°31' E 121°24'668267224.5
2014-Nov-16 12:33N 22°51' E 113°33'41515.1
2014-Nov-16 12:28N 22°09' E 113°32'69630197.2
2014-Nov-16 12:27N 31°22' E 121°27'3283128.2
2014-Nov-16 12:20N 36°46' E 122°28'3112753.4
2014-Nov-16 12:14N 31°42' E 121°10'6618980.9
2014-Nov-16 12:09N 22°57' E 113°37'6611112.5
2014-Nov-16 11:34N 31°39' E 121°15'660139787.0
2014-Nov-16 11:33N 23°06' E 113°27'1611397.5
2014-Nov-16 11:33N 22°51' E 113°33'666342769.0
2014-Nov-16 11:33N 32°03' E 120°34'3056692.2
2014-Nov-16 11:30N 36°53' E 122°27'33510583.2
2014-Nov-16 11:28N 31°21' E 121°27'3731273.1
2014-Nov-16 11:11N 37°34' E 121°58'17469.2
2014-Nov-16 11:09N 37°31' E 122°19'361615.7
2014-Nov-16 10:33N 31°33' E 121°20'659338945.2
2014-Nov-16 10:33N 23°06' E 113°27'66282232.4
2014-Nov-16 10:33N 31°60' E 120°49'3401223188.9
2014-Nov-16 10:33N 37°35' E 121°59'37451791.7
2014-Nov-16 10:32N 31°21' E 121°27'335172220.0
2014-Nov-16 10:32N 36°53' E 122°26'9604979.1
2014-Nov-16 10:21N 22°51' E 113°33'18409.7
2014-Nov-16 10:18N 23°03' E 113°19'66813212.3
2014-Nov-16 10:15N 31°31' E 121°28'6656002.0
2014-Nov-16 10:08N 22°55' E 113°35'66341167.5
2014-Nov-16 10:07N 31°40' E 121°11'6591155.8
2014-Nov-16 09:33N 23°06' E 113°27'660792012.5
2014-Nov-16 09:33N 31°32' E 121°24'66547915.2
2014-Nov-16 09:32N 22°54' E 113°35'6601187527.3
2014-Nov-16 09:32N 31°22' E 121°27'660107982.1
2014-Nov-16 09:32N 23°02' E 113°22'66566451.3
2014-Nov-16 09:31N 31°40' E 121°11'67656594.5
2014-Nov-16 09:31N 22°19' E 114°09'1007906581.7
2014-Nov-16 09:31N 37°31' E 122°21'171324.4
2014-Nov-16 09:30N 37°37' E 122°01'36912781.2
2014-Nov-16 09:28N 31°29' E 121°27'6635103.1
2014-Nov-16 09:20N 22°55' E 113°35'18329.3
2014-Nov-16 09:17N 23°03' E 113°18'591045.6
2014-Nov-16 09:14N 22°06' E 113°33'5988.4
2014-Nov-16 08:33N 23°05' E 113°29'950342161.5
2014-Nov-16 08:33N 36°54' E 122°27'953857555.6
2014-Nov-16 08:33N 23°04' E 113°25'661216206.4
2014-Nov-16 08:33N 31°24' E 121°31'676347420.5
2014-Nov-16 08:33N 22°26' E 113°53'3339976.1
2014-Nov-16 08:33N 22°55' E 113°35'133901.4
2014-Nov-16 08:33N 23°02' E 113°24'98652175.4
2014-Nov-16 08:32N 37°32' E 122°19'3649106.0
2014-Nov-16 08:29N 31°31' E 121°19'121887.0
2014-Nov-16 08:29N 31°40' E 121°11'242079.9
2014-Nov-16 08:28N 31°22' E 121°27'72590.5
2014-Nov-16 08:21N 31°57' E 120°14'17301.5
2014-Nov-16 08:17N 32°00' E 120°34'6758351.6
2014-Nov-16 08:13N 22°19' E 114°09'5889.7
2014-Nov-16 07:33N 23°04' E 113°29'65494212.7
2014-Nov-16 07:33N 32°02' E 120°29'10476.8
2014-Nov-16 07:32N 31°58' E 120°18'645154781.1
2014-Nov-16 07:32N 23°05' E 113°29'2167.0
2014-Nov-16 07:31N 23°04' E 113°30'65578551.3
2014-Nov-16 07:30N 31°21' E 121°27'24389.6
2014-Nov-16 07:27N 31°40' E 121°11'121092.0
2014-Nov-16 07:26N 31°31' E 121°19'3668967.4
2014-Nov-16 07:24N 37°36' E 122°02'343440.8
2014-Nov-16 07:23N 37°39' E 121°19'3784901.1
2014-Nov-16 07:18N 31°21' E 121°27'6973406.2
2014-Nov-16 07:06N 22°06' E 113°33'107842646.0
2014-Nov-16 07:05N 38°44' E 121°28'67127.6
2014-Nov-16 06:33N 37°37' E 121°25'356213827.6
2014-Nov-16 06:33N 31°40' E 121°11'65984675.1
2014-Nov-16 06:33N 23°05' E 113°29'97443289.3
2014-Nov-16 06:31N 37°33' E 122°00'979207406.1
2014-Nov-16 06:31N 22°58' E 113°33'660132044.8
2014-Nov-16 06:31N 31°31' E 121°19'66562966.8
2014-Nov-16 06:30N 22°51' E 113°34'64561132.4
2014-Nov-16 06:29N 31°08' E 121°16'6841053.2
2014-Nov-16 06:29N 31°59' E 120°22'673189.0
2014-Nov-16 06:28N 31°21' E 121°27'1104098.9
2014-Nov-16 06:26N 29°38' E 122°12'61817643.1
2014-Nov-16 06:24N 22°19' E 114°09'66828991.8
2014-Nov-16 06:23N 31°21' E 121°27'4437735.0
2014-Nov-16 06:19N 38°44' E 121°30'410534.1
2014-Nov-16 05:33N 31°58' E 120°21'67240584.7
2014-Nov-16 05:33N 31°21' E 121°27'7014084.3
2014-Nov-16 05:33N 31°56' E 120°15'6011277.5
2014-Nov-16 05:33N 31°31' E 121°19'656472588.4
2014-Nov-16 05:33N 23°05' E 113°29'97363716.0
2014-Nov-16 05:32N 37°32' E 122°01'35498123.9
2014-Nov-16 05:32N 31°40' E 121°11'66829683.7
2014-Nov-16 05:30N 22°55' E 113°27'6702.7
2014-Nov-16 05:30N 22°51' E 113°34'64319130.1
2014-Nov-16 05:28N 31°08' E 121°12'4567780.0
2014-Nov-16 05:24N 38°44' E 121°30'1771249.0
2014-Nov-16 05:16N 39°05' E 117°44'1791311.8
2014-Nov-16 05:07N 38°44' E 121°33'456801.7
2014-Nov-16 04:33N 31°08' E 121°10'633759990.4
2014-Nov-16 04:33N 23°05' E 113°29'950310965.4
2014-Nov-16 04:33N 36°53' E 122°27'32765307.0
2014-Nov-16 04:33N 31°31' E 121°19'433778722.0
2014-Nov-16 04:33N 38°44' E 121°29'173124776.9
2014-Nov-16 04:33N 39°04' E 117°48'99762961.1
2014-Nov-16 04:32N 22°51' E 113°34'66216327.4
2014-Nov-16 04:29N 31°22' E 121°28'374149611.1
2014-Nov-16 04:29N 37°36' E 121°25'274473.0
2014-Nov-16 04:29N 37°33' E 121°60'373149378.5
2014-Nov-16 04:29N 31°21' E 121°27'2428398.2
2014-Nov-16 04:29N 31°40' E 121°11'4245733.0
2014-Nov-16 04:24N 38°44' E 121°34'5295291.1
2014-Nov-16 04:18N 29°56' E 122°17'108144.1
2014-Nov-16 03:33N 31°31' E 121°19'2814350.2
2014-Nov-16 03:33N 31°05' E 121°10'632151715.8
2014-Nov-16 03:33N 23°03' E 113°31'987355146.8
2014-Nov-16 03:33N 39°05' E 117°46'9841181175.7
2014-Nov-16 03:33N 23°05' E 113°29'1026527788.5
2014-Nov-16 03:32N 38°44' E 121°33'1037533531.6
2014-Nov-16 03:32N 22°51' E 113°34'66763196.4
2014-Nov-16 03:32N 31°40' E 121°11'3556527.8
2014-Nov-16 03:28N 37°36' E 121°25'37435434.2
2014-Nov-16 03:28N 31°22' E 121°28'66324098.8
2014-Nov-16 03:26N 23°04' E 113°16'9762637.1
2014-Nov-16 03:04N 38°53' E 117°44'9741918.8
2014-Nov-16 02:33N 23°04' E 113°25'9741752848.7
2014-Nov-16 02:33N 38°52' E 117°47'972291635.2
2014-Nov-16 02:33N 23°05' E 113°29'654107037.1
2014-Nov-16 02:33N 31°22' E 121°28'124004.1
2014-Nov-16 02:33N 31°31' E 121°19'121990.4
2014-Nov-16 02:32N 31°22' E 121°27'2442654.5
2014-Nov-16 02:32N 31°40' E 121°11'667141262.6
2014-Nov-16 02:32N 22°51' E 113°34'637208569.1
2014-Nov-16 02:32N 31°01' E 121°11'67347540.6
2014-Nov-16 02:31N 22°06' E 113°33'595619.6
2014-Nov-16 02:30N 23°03' E 113°16'96930600.0
2014-Nov-16 02:28N 37°36' E 121°25'99251760.2
2014-Nov-16 02:27N 22°19' E 114°08'99814966.6
2014-Nov-16 02:23N 37°30' E 121°57'776790.0
2014-Nov-16 02:23N 38°44' E 121°30'4679129.6
2014-Nov-16 02:20N 30°58' E 121°16'630817.2
2014-Nov-16 01:33N 23°03' E 113°30'633189983.5
2014-Nov-16 01:33N 30°59' E 121°19'247115.7
2014-Nov-16 01:33N 31°22' E 121°28'66245842.5
2014-Nov-16 01:32N 22°51' E 113°34'665113940.8
2014-Nov-16 01:32N 31°31' E 121°19'128761.2
2014-Nov-16 01:32N 31°22' E 121°27'24507.8
2014-Nov-16 01:29N 31°40' E 121°11'665140875.8
2014-Nov-16 01:28N 23°02' E 113°21'9681742828.2
2014-Nov-16 01:28N 37°36' E 121°25'69705.9
2014-Nov-16 01:23N 38°44' E 121°33'73860.1
2014-Nov-16 01:18N 37°33' E 121°56'97915389.4
2014-Nov-16 01:14N 22°55' E 113°35'1298.8
2014-Nov-16 01:07N 23°06' E 113°37'6481165.2
2014-Nov-16 00:33N 31°22' E 121°27'1036713.8
2014-Nov-16 00:33N 31°31' E 121°22'434390205.4
2014-Nov-16 00:33N 38°44' E 121°31'465418089.3
2014-Nov-16 00:33N 30°60' E 121°24'673134661.7
2014-Nov-16 00:33N 22°27' E 113°15'3817206.5
2014-Nov-16 00:33N 23°03' E 113°31'63745856.5
2014-Nov-16 00:32N 30°60' E 121°25'431320.6
2014-Nov-16 00:30N 31°40' E 121°11'2442787.7
2014-Nov-16 00:30N 31°22' E 121°28'662216708.5
2014-Nov-16 00:30N 22°51' E 113°34'97448679.8
2014-Nov-16 00:28N 37°36' E 121°25'97010944.4
2014-Nov-16 00:23N 22°55' E 113°35'481775.9
2014-Nov-16 00:22N 22°19' E 114°10'4860.6
2014-Nov-15 23:34N 22°22' E 113°17'4312843.4
2014-Nov-15 23:33N 23°03' E 113°31'10271848516.8
2014-Nov-15 23:33N 38°44' E 121°29'6930852.3
2014-Nov-15 23:33N 37°36' E 121°25'355116313.0
2014-Nov-15 23:33N 31°40' E 121°11'667126391.9
2014-Nov-15 23:33N 22°51' E 113°34'648388625.5
2014-Nov-15 23:33N 31°01' E 121°29'658591771.3
2014-Nov-15 23:33N 22°25' E 113°53'67797557.5
2014-Nov-15 23:32N 31°27' E 121°28'67712125.9
2014-Nov-15 23:29N 22°29' E 113°48'67234571.3
2014-Nov-15 23:28N 31°22' E 121°28'6583768.3
2014-Nov-15 23:17N 22°55' E 113°35'658906.4
2014-Nov-15 22:34N 31°22' E 121°28'655261939.9
2014-Nov-15 22:33N 23°03' E 113°31'964315535.6
2014-Nov-15 22:33N 37°36' E 121°25'390200707.2
2014-Nov-15 22:33N 31°05' E 121°28'68537937.7
2014-Nov-15 22:32N 22°16' E 113°21'701168179.6
2014-Nov-15 22:32N 31°24' E 121°31'66214709.9
2014-Nov-15 22:29N 22°55' E 113°35'66325135.3
2014-Nov-15 22:27N 31°40' E 121°11'7042328.1
2014-Nov-15 22:09N 22°06' E 113°33'915.0
2014-Nov-15 21:33N 22°11' E 113°25'5223417.4
2014-Nov-15 21:33N 23°03' E 113°31'977390782.5
2014-Nov-15 21:33N 37°36' E 121°58'37496060.0
2014-Nov-15 21:33N 31°23' E 121°30'1381.1
2014-Nov-15 21:33N 31°24' E 121°31'373191638.4
2014-Nov-15 21:33N 37°37' E 121°27'35710354.0
2014-Nov-15 21:31N 31°40' E 121°11'3441158.7
2014-Nov-15 21:31N 31°09' E 121°27'66213382.8
2014-Nov-15 21:28N 22°27' E 113°53'727.3
2014-Nov-15 21:11N 22°33' E 113°48'3454.6
2014-Nov-15 20:33N 23°03' E 113°31'649129725.3
2014-Nov-15 20:33N 31°12' E 121°30'69070966.0
2014-Nov-15 20:32N 22°10' E 113°31'70214870.6
2014-Nov-15 20:30N 31°40' E 121°11'66351909.9
2014-Nov-15 20:29N 22°55' E 113°35'442116.7
2014-Nov-15 20:28N 22°11' E 113°32'102510629.9
2014-Nov-15 20:22N 37°37' E 121°59'376270883.4
2014-Nov-15 20:22N 31°22' E 121°28'3359142.2
2014-Nov-15 20:20N 36°53' E 122°25'9961290.3
2014-Nov-15 19:33N 22°10' E 113°36'5314711.8
2014-Nov-15 19:33N 23°03' E 113°31'953131997.2
2014-Nov-15 19:33N 36°52' E 122°33'342615085.5
2014-Nov-15 19:33N 31°15' E 121°30'306805.5
2014-Nov-15 19:32N 31°40' E 121°11'35946131.6
2014-Nov-15 19:32N 37°37' E 121°58'9925249.3
2014-Nov-15 19:21N 22°44' E 113°40'38516.6
2014-Nov-15 19:16N 22°06' E 113°33'1115.2
2014-Nov-15 18:33N 22°12' E 113°44'5347330.7
2014-Nov-15 18:33N 23°03' E 113°31'659158083.7
2014-Nov-15 18:33N 31°24' E 121°31'8389.2
2014-Nov-15 18:32N 31°16' E 121°33'311204.1
2014-Nov-15 18:30N 31°40' E 121°11'1243363.7
2014-Nov-15 18:28N 29°52' E 122°22'6383338.6
2014-Nov-15 18:17N 22°27' E 113°52'67510126.9
2014-Nov-15 18:13N 31°24' E 121°31'6665067.2
2014-Nov-15 18:05N 22°51' E 113°34'6671279.6
2014-Nov-15 17:34N 31°40' E 121°11'659593496.8
2014-Nov-15 17:33N 23°03' E 113°31'61418904.5
2014-Nov-15 17:31N 29°42' E 122°12'1131459.1
2014-Nov-15 17:27N 31°28' E 121°26'11786.6
2014-Nov-15 17:26N 31°19' E 121°33'660395715.7
2014-Nov-15 17:26N 22°55' E 113°35'98390713.0
2014-Nov-15 17:25N 37°36' E 121°59'102434127.1
2014-Nov-15 17:23N 22°11' E 113°32'68527392.0
2014-Nov-15 17:22N 32°05' E 119°56'4485398.0
2014-Nov-15 17:17N 24°39' E 119°06'31988218.3
2014-Nov-15 17:17N 22°56' E 113°37'6616067.4
2014-Nov-15 17:10N 31°29' E 121°26'66622625.0
2014-Nov-15 17:08N 22°51' E 113°34'62018300.9
2014-Nov-15 17:06N 29°42' E 122°12'6141120.5
2014-Nov-15 16:33N 23°03' E 113°31'1221036.4
2014-Nov-15 16:33N 22°51' E 113°34'66659917.8
2014-Nov-15 16:33N 31°31' E 121°21'141017.2
2014-Nov-15 16:32N 31°21' E 121°32'105125709.2
2014-Nov-15 16:32N 29°42' E 122°12'13066752.3
2014-Nov-15 16:32N 31°40' E 121°11'35736768.0
2014-Nov-15 16:31N 37°36' E 121°59'986136499.7
2014-Nov-15 16:31N 22°55' E 113°27'99024408.0
2014-Nov-15 16:28N 37°35' E 122°12'98419347.8
2014-Nov-15 16:25N 22°57' E 113°38'61720392.9
2014-Nov-15 16:23N 29°38' E 122°21'1251067.3
2014-Nov-15 16:16N 31°32' E 121°21'768578.7
2014-Nov-15 16:16N 32°01' E 119°58'639904.0
2014-Nov-15 15:34N 23°03' E 113°31'123236.4
2014-Nov-15 15:33N 22°51' E 113°34'64696973.0
2014-Nov-15 15:33N 31°59' E 120°01'35338492.7
2014-Nov-15 15:32N 37°33' E 122°21'982321422.2
2014-Nov-15 15:32N 23°05' E 113°28'659339037.4
2014-Nov-15 15:32N 31°40' E 121°11'7137.3
2014-Nov-15 15:29N 31°36' E 121°17'700140069.2
2014-Nov-15 15:29N 22°11' E 113°33'44425.2
2014-Nov-15 15:23N 22°55' E 113°35'17349.3
2014-Nov-15 15:20N 22°53' E 113°17'67848780.7
2014-Nov-15 15:19N 31°05' E 121°60'662871.4
2014-Nov-15 14:33N 23°03' E 113°31'121619.8
2014-Nov-15 14:33N 22°51' E 113°34'6671201054.2
2014-Nov-15 14:33N 31°39' E 121°13'13916086.5
2014-Nov-15 14:32N 29°34' E 122°23'646122381.4
2014-Nov-15 14:32N 22°12' E 113°40'69658291.2
2014-Nov-15 14:31N 31°40' E 121°11'66315113.0
2014-Nov-15 14:29N 22°55' E 113°35'66415510.5
2014-Nov-15 14:26N 31°40' E 121°12'70410930.8
2014-Nov-15 14:22N 22°06' E 113°33'49281.3
2014-Nov-15 14:12N 22°53' E 113°17'65412267.7
2014-Nov-15 14:08N 31°56' E 120°08'5289.7
2014-Nov-15 13:33N 31°42' E 121°08'32392.3
2014-Nov-15 13:33N 31°40' E 121°11'6591187001.1
2014-Nov-15 13:33N 23°03' E 113°31'50594.1
2014-Nov-15 13:28N 22°15' E 113°48'6725147.7
2014-Nov-15 13:20N 31°56' E 120°09'639815.7
2014-Nov-15 12:33N 23°03' E 113°31'65928602.6
2014-Nov-15 12:32N 31°40' E 121°11'66729663.6
2014-Nov-15 12:31N 22°54' E 113°29'5272.3
2014-Nov-15 12:30N 22°52' E 113°33'6673593.6
2014-Nov-15 12:18N 31°46' E 121°02'6632804.7
2014-Nov-15 12:04N 22°55' E 113°35'916.8
2014-Nov-15 11:31N 23°03' E 113°31'65923979.5
2014-Nov-15 11:30N 31°40' E 121°11'552990.4
2014-Nov-15 11:29N 31°56' E 120°09'64711831.8
2014-Nov-15 11:25N 22°54' E 113°30'6652539.3
2014-Nov-15 11:10N 31°47' E 120°58'722719.2
2014-Nov-15 11:08N 30°50' E 121°49'6451116.3
2014-Nov-15 10:34N 23°03' E 113°31'5615541.8
2014-Nov-15 10:33N 22°19' E 114°08'655147364.3
2014-Nov-15 10:33N 30°50' E 121°45'587237.5
2014-Nov-15 10:33N 31°40' E 121°11'704195012.5
2014-Nov-15 10:32N 22°06' E 113°34'6873116.6
2014-Nov-15 10:19N 31°56' E 120°09'40475.7
2014-Nov-15 10:14N 31°48' E 120°55'66131715.5
2014-Nov-15 10:13N 22°55' E 113°36'645982.3
2014-Nov-15 09:33N 30°50' E 121°45'64392523.7
2014-Nov-15 09:33N 23°03' E 113°31'97550130.9
2014-Nov-15 09:32N 37°34' E 121°58'98071996.7
2014-Nov-15 09:31N 22°56' E 113°33'644110361.9
2014-Nov-15 09:31N 31°56' E 120°09'64731499.7
2014-Nov-15 09:29N 22°52' E 113°33'452705.3
2014-Nov-15 09:28N 22°06' E 113°35'70328444.8
2014-Nov-15 09:27N 31°40' E 121°11'847.1
2014-Nov-15 09:17N 31°45' E 121°03'412572.7
2014-Nov-15 08:33N 25°05' E 119°07'3721338933.6
2014-Nov-15 08:33N 30°50' E 121°45'643144589.1
2014-Nov-15 08:33N 23°03' E 113°30'180.1
2014-Nov-15 08:33N 23°03' E 113°31'97555702.6
2014-Nov-15 08:31N 37°33' E 121°60'35555523.8
2014-Nov-15 08:31N 31°40' E 121°11'7017417.9
2014-Nov-15 08:25N 22°11' E 113°33'35387.7
2014-Nov-15 08:20N 22°19' E 114°10'65923500.1
2014-Nov-15 08:18N 31°58' E 120°03'63812766.1
2014-Nov-15 08:15N 23°06' E 113°26'3245.9
2014-Nov-15 07:33N 23°37' E 113°31'630133391.0
2014-Nov-15 07:33N 31°50' E 120°54'10880.2
2014-Nov-15 07:32N 31°60' E 120°49'269495.3
2014-Nov-15 07:32N 31°40' E 121°11'587457.3
2014-Nov-15 07:32N 30°50' E 121°45'40218089.9
2014-Nov-15 07:30N 37°32' E 122°01'98012248.9
2014-Nov-15 07:26N 22°55' E 113°35'1129.2
2014-Nov-15 07:04N 23°04' E 113°29'2 3.3
2014-Nov-15 06:33N 23°03' E 113°31'10281233767.2
2014-Nov-15 06:33N 38°44' E 121°33'41374294.2
2014-Nov-15 06:33N 31°57' E 120°11'7810432.5
2014-Nov-15 06:33N 30°57' E 121°10'301155.6
2014-Nov-15 06:31N 30°50' E 121°45'581502.2
2014-Nov-15 06:29N 31°40' E 121°11'5519736.9
2014-Nov-15 06:29N 31°56' E 120°09'291275.7
2014-Nov-15 06:27N 32°00' E 120°43'66426861.8
2014-Nov-15 06:26N 22°55' E 113°35'1164.8
2014-Nov-15 06:16N 23°04' E 113°29'6633975.8
2014-Nov-15 06:06N 31°59' E 120°49'6631217.4
2014-Nov-15 05:33N 23°03' E 113°31'6272257178.1
2014-Nov-15 05:33N 30°57' E 121°10'4314069.7
2014-Nov-15 05:33N 31°40' E 121°11'3541834.5
2014-Nov-15 05:33N 31°60' E 120°36'9113599.7
2014-Nov-15 05:32N 30°50' E 121°45'10213533.6
2014-Nov-15 05:32N 31°57' E 120°15'6438832.9
2014-Nov-15 05:28N 23°04' E 113°29'66114074.3
2014-Nov-15 05:25N 32°00' E 120°44'6658117.0
2014-Nov-15 05:20N 22°55' E 113°35'659852.5
2014-Nov-15 04:34N 32°01' E 120°31'655589362.9
2014-Nov-15 04:33N 23°05' E 113°28'64315429.1
2014-Nov-15 04:31N 30°50' E 121°45'58976.7
2014-Nov-15 04:27N 31°40' E 121°11'351203.9
2014-Nov-15 04:26N 31°60' E 120°36'1526800.2
2014-Nov-15 04:26N 31°57' E 120°19'68287630.9
2014-Nov-15 04:25N 22°18' E 113°36'66050543.9
2014-Nov-15 04:24N 30°57' E 121°10'6274615.3
2014-Nov-15 04:16N 23°04' E 113°29'65637512.8
2014-Nov-15 04:15N 32°05' E 120°29'662952.8
2014-Nov-15 03:33N 23°02' E 113°21'657147821.3
2014-Nov-15 03:33N 32°01' E 120°25'65219551.2
2014-Nov-15 03:31N 23°03' E 113°30'643154324.2
2014-Nov-15 03:31N 30°51' E 121°45'9620295.8
2014-Nov-15 03:31N 32°02' E 120°30'7313132.8
2014-Nov-15 03:30N 30°57' E 121°10'432091.4
2014-Nov-15 03:29N 31°40' E 121°11'66014859.3
2014-Nov-15 03:26N 23°01' E 113°31'6465527.8
2014-Nov-15 03:19N 31°57' E 120°19'5 6.9
2014-Nov-15 02:33N 32°00' E 120°24'7310541.4
2014-Nov-15 02:33N 30°58' E 121°09'627564051.6
2014-Nov-15 02:33N 23°04' E 113°29'133903.6
2014-Nov-15 02:33N 23°03' E 113°15'655124150.7
2014-Nov-15 02:32N 31°58' E 120°20'654470745.9
2014-Nov-15 02:32N 23°04' E 113°16'667480150.7
2014-Nov-15 02:32N 31°40' E 121°11'555193.0
2014-Nov-15 02:32N 31°56' E 120°09'105125925.4
2014-Nov-15 02:32N 30°51' E 121°45'9927489.3
2014-Nov-15 02:31N 31°57' E 120°19'66028298.9
2014-Nov-15 02:30N 22°53' E 113°17'6864572.0
2014-Nov-15 02:21N 31°27' E 121°48'677105963.4
2014-Nov-15 02:21N 23°03' E 113°19'673857.9
2014-Nov-15 01:34N 31°23' E 121°47'67697399.3
2014-Nov-15 01:33N 23°03' E 113°15'65173217.9
2014-Nov-15 01:33N 31°56' E 120°15'1018656.8
2014-Nov-15 01:32N 30°51' E 121°45'10529059.7
2014-Nov-15 01:32N 31°56' E 120°09'92258.9
2014-Nov-15 01:31N 31°57' E 120°19'473528.8
2014-Nov-15 01:31N 31°40' E 121°11'69518799.0
2014-Nov-15 01:28N 22°17' E 113°36'479491.2
2014-Nov-15 01:28N 23°03' E 113°25'6304074.1
2014-Nov-15 01:19N 31°02' E 121°05'62746060.7
2014-Nov-15 01:18N 23°04' E 113°29'102734878.8
2014-Nov-15 01:16N 38°44' E 121°31'10331448.2
2014-Nov-15 00:33N 23°03' E 113°15'653783501.6
2014-Nov-15 00:33N 30°51' E 121°45'286698.9
2014-Nov-15 00:33N 31°19' E 121°45'663298277.9
2014-Nov-15 00:33N 23°04' E 113°29'1768249.1
2014-Nov-15 00:32N 23°03' E 116°41'568107616.5
2014-Nov-15 00:31N 31°57' E 120°19'4117627.9
2014-Nov-15 00:28N 38°44' E 121°29'102649934.0
2014-Nov-15 00:27N 23°04' E 113°29'659113032.2
2014-Nov-15 00:27N 31°41' E 121°11'5532772.0
2014-Nov-15 00:26N 31°56' E 120°09'685671.7
2014-Nov-15 00:26N 31°04' E 121°01'6848735.6
2014-Nov-15 00:26N 31°56' E 120°09'16207.0
2014-Nov-15 00:21N 32°07' E 119°55'121152.6
2014-Nov-14 23:33N 30°51' E 121°45'235406.9
2014-Nov-14 23:33N 31°13' E 121°49'671804713.9
2014-Nov-14 23:33N 23°03' E 113°15'648145797.5
2014-Nov-14 23:33N 32°04' E 119°56'7846517.8
2014-Nov-14 23:33N 31°06' E 120°57'527948526.8
2014-Nov-14 23:33N 23°09' E 116°46'55717740.3
2014-Nov-14 23:31N 31°57' E 120°03'63847824.6
2014-Nov-14 23:30N 23°04' E 113°29'0 8.8
2014-Nov-14 23:27N 23°04' E 113°29'6392889.7
2014-Nov-14 23:14N 31°56' E 120°09'639944.5
2014-Nov-14 22:33N 23°04' E 113°29'643128591.7
2014-Nov-14 22:33N 30°51' E 121°45'649779106.5
2014-Nov-14 22:33N 23°03' E 113°21'6441158327.9
2014-Nov-14 22:33N 32°01' E 119°58'55232035.0
2014-Nov-14 22:32N 23°15' E 116°51'545654434.3
2014-Nov-14 22:32N 31°08' E 121°55'1021036.3
2014-Nov-14 22:26N 31°56' E 120°09'6394936.3
2014-Nov-14 22:18N 23°04' E 113°29'381356.3
2014-Nov-14 22:16N 22°29' E 113°46'6785238.4
2014-Nov-14 22:08N 32°01' E 120°36'3 5.3
2014-Nov-14 21:33N 32°03' E 120°33'659103084.1
2014-Nov-14 21:33N 23°04' E 113°26'32633.9
2014-Nov-14 21:33N 23°04' E 113°29'643462997.5
2014-Nov-14 21:33N 30°50' E 121°46'64312933.6
2014-Nov-14 21:30N 23°04' E 113°29'59207.3
2014-Nov-14 21:13N 22°18' E 114°09'6607616.6
2014-Nov-14 21:08N 31°56' E 120°09'6401118.9
2014-Nov-14 20:33N 23°01' E 113°31'645331762.9
2014-Nov-14 20:33N 30°46' E 121°53'644128844.6
2014-Nov-14 20:33N 23°04' E 113°29'6541178042.6
2014-Nov-14 20:33N 32°04' E 120°27'660396068.9
2014-Nov-14 20:33N 23°02' E 113°21'66526610.3
2014-Nov-14 20:31N 31°41' E 121°11'65928258.2
2014-Nov-14 20:30N 23°04' E 113°29'6393560.7
2014-Nov-14 20:19N 31°56' E 120°09'119156.7
2014-Nov-14 19:33N 30°43' E 122°00'654181225.8
2014-Nov-14 19:33N 22°54' E 113°30'1120061.1
2014-Nov-14 19:33N 23°05' E 113°28'1259.9
2014-Nov-14 19:33N 23°04' E 113°29'6481167186.4
2014-Nov-14 19:33N 31°60' E 120°22'65475946.9
2014-Nov-14 19:32N 22°55' E 113°33'6456154.4
2014-Nov-14 19:26N 31°56' E 120°09'551368.7
2014-Nov-14 19:24N 31°41' E 121°11'368039.8
2014-Nov-14 19:23N 31°08' E 121°28'645766.0
2014-Nov-14 18:33N 23°04' E 113°29'175423.0
2014-Nov-14 18:33N 22°49' E 113°36'66841442.5
2014-Nov-14 18:32N 31°41' E 121°11'7136319.1
2014-Nov-14 18:32N 30°48' E 122°06'1213128.9
2014-Nov-14 18:29N 31°56' E 120°09'6714021.6
2014-Nov-14 18:19N 22°16' E 113°48'5 7.1
2014-Nov-14 17:34N 22°14' E 113°43'525857.6
2014-Nov-14 17:33N 23°04' E 113°29'63967641.4
2014-Nov-14 17:32N 31°56' E 120°09'556796.2
2014-Nov-14 17:32N 31°41' E 121°11'670344670.8
2014-Nov-14 17:32N 22°44' E 113°40'23711.4
2014-Nov-14 17:30N 23°04' E 113°29'46150.7
2014-Nov-14 17:11N 22°21' E 113°11'46432.3
2014-Nov-14 17:05N 23°03' E 113°32'2 4.0
2014-Nov-14 16:33N 23°04' E 113°29'188.5
2014-Nov-14 16:33N 23°04' E 113°29'0 8.1
2014-Nov-14 16:30N 23°04' E 113°29'65931650.4
2014-Nov-14 16:29N 31°41' E 121°11'674269606.7
2014-Nov-14 16:29N 22°38' E 113°41'171471.0
2014-Nov-14 16:28N 22°26' E 113°53'66127654.7
2014-Nov-14 16:26N 31°56' E 120°09'68259881.1
2014-Nov-14 16:26N 22°10' E 113°36'41199.1
2014-Nov-14 16:13N 22°51' E 113°34'6477390.2
2014-Nov-14 16:08N 31°60' E 120°00'814.5
2014-Nov-14 15:33N 31°56' E 120°09'72961.0
2014-Nov-14 15:33N 31°59' E 120°02'641769430.3
2014-Nov-14 15:33N 23°03' E 113°25'13246.6
2014-Nov-14 15:30N 22°56' E 113°36'66243359.4
2014-Nov-14 15:29N 31°41' E 121°11'6744183.3
2014-Nov-14 15:20N 22°38' E 113°41'66372340.8
2014-Nov-14 15:19N 32°13' E 119°54'64637508.9
2014-Nov-14 15:18N 23°04' E 113°29'0 3.0
2014-Nov-14 15:09N 23°04' E 113°29'0 0.0
2014-Nov-14 14:33N 23°04' E 113°29'659139617.1
2014-Nov-14 14:33N 31°41' E 121°11'67239784.6
2014-Nov-14 14:33N 32°03' E 119°57'1315112.2
2014-Nov-14 14:33N 31°56' E 120°09'661793352.7
2014-Nov-14 14:33N 22°25' E 113°53'661476039.3
2014-Nov-14 14:33N 31°57' E 120°06'65632775.6
2014-Nov-14 14:32N 22°38' E 113°41'28369.1
2014-Nov-14 14:27N 23°04' E 113°29'2314377.2
2014-Nov-14 14:24N 23°44' E 117°37'5172859.3
2014-Nov-14 14:13N 32°06' E 119°56'2112.4
2014-Nov-14 12:33N 31°58' E 120°18'121899.4
2014-Nov-14 12:33N 31°58' E 120°04'7807.7
2014-Nov-14 12:32N 31°56' E 120°12'64452669.0
2014-Nov-14 12:31N 23°03' E 113°25'64349272.0
2014-Nov-14 12:31N 31°57' E 120°11'64152423.8
2014-Nov-14 12:30N 23°04' E 113°29'65941643.7
2014-Nov-14 12:29N 31°41' E 121°11'27356.9
2014-Nov-14 12:24N 31°60' E 120°49'4471323.3
2014-Nov-14 12:04N 24°42' E 119°05'444867.5
2014-Nov-14 11:34N 32°00' E 120°24'53833.9
2014-Nov-14 11:33N 31°58' E 120°18'481253.2
2014-Nov-14 11:31N 31°41' E 121°11'6665600.5
2014-Nov-14 11:24N 23°03' E 113°19'9164.1
2014-Nov-14 11:21N 23°04' E 113°29'0 7.6
2014-Nov-14 11:18N 23°04' E 113°29'0 0.4
2014-Nov-14 10:34N 23°04' E 113°29'655336719.7
2014-Nov-14 10:33N 32°02' E 120°30'414477.3
2014-Nov-14 10:33N 32°01' E 120°25'17657485.7
2014-Nov-14 10:33N 34°50' E 119°26'77352490.4
2014-Nov-14 10:32N 22°59' E 113°39'65864005.4
2014-Nov-14 10:32N 31°41' E 121°11'27396.0
2014-Nov-14 10:28N 31°60' E 120°49'4963876.9
2014-Nov-14 10:20N 24°06' E 117°59'79536679.1
2014-Nov-14 10:19N 36°49' E 122°20'94473896.7
2014-Nov-14 10:18N 23°04' E 113°29'6382846.1
2014-Nov-14 10:04N 31°60' E 120°00'6381233.1
2014-Nov-14 09:33N 23°04' E 113°30'656472592.2
2014-Nov-14 09:33N 32°01' E 120°35'3233.3
2014-Nov-14 09:33N 32°02' E 120°32'863483.0
2014-Nov-14 09:31N 31°09' E 121°52'46421992.0
2014-Nov-14 09:30N 24°11' E 118°04'47845328.7
2014-Nov-14 09:29N 31°58' E 120°03'1686733.5
2014-Nov-14 09:28N 34°45' E 119°34'176879.6
2014-Nov-14 09:16N 31°60' E 120°49'662937.2
2014-Nov-14 08:33N 23°04' E 113°30'6571183267.6
2014-Nov-14 08:33N 32°00' E 120°39'263005.8
2014-Nov-14 08:33N 31°57' E 120°08'473851934.5
2014-Nov-14 08:33N 24°15' E 118°10'48475794.1
2014-Nov-14 08:32N 32°01' E 120°42'7220029.6
2014-Nov-14 08:32N 31°14' E 121°47'666199669.1
2014-Nov-14 08:32N 23°07' E 113°18'2012075.9
2014-Nov-14 08:32N 22°55' E 113°35'66728928.3
2014-Nov-14 08:30N 31°60' E 120°49'2796295.3
2014-Nov-14 08:30N 31°41' E 121°11'65910984.6
2014-Nov-14 08:27N 23°04' E 113°30'93936340.1
2014-Nov-14 08:25N 36°43' E 122°19'94017819.2
2014-Nov-14 08:22N 22°58' E 113°39'662819.1
2014-Nov-14 07:34N 31°18' E 121°47'663125629.9
2014-Nov-14 07:33N 23°04' E 113°30'6622384817.3
2014-Nov-14 07:33N 32°01' E 120°47'2920911.6
2014-Nov-14 07:33N 31°57' E 120°13'5126388.0
2014-Nov-14 07:33N 31°41' E 121°11'6596227.5
2014-Nov-14 07:27N 23°04' E 113°30'111397.6
2014-Nov-14 07:26N 22°54' E 113°35'66723546.0
2014-Nov-14 07:24N 32°01' E 120°45'319.9
2014-Nov-14 07:15N 31°60' E 120°49'4786063.7
2014-Nov-14 07:11N 24°20' E 118°20'463747.0
2014-Nov-14 06:33N 31°24' E 121°47'8312430.5
2014-Nov-14 06:33N 31°59' E 120°19'6462325439.0
2014-Nov-14 06:33N 23°04' E 113°30'6598504.7
2014-Nov-14 06:28N 31°41' E 121°11'4238194.9
2014-Nov-14 06:25N 38°44' E 121°27'102536539.1
2014-Nov-14 06:24N 23°04' E 113°30'102414130.7
2014-Nov-14 06:19N 38°42' E 121°29'85456955.9
2014-Nov-14 06:18N 24°40' E 118°41'4542244.9
2014-Nov-14 06:06N 31°60' E 120°49'23263.1
2014-Nov-14 06:06N 32°01' E 120°49'6641217.1
2014-Nov-14 05:33N 23°04' E 113°30'1026246170.7
2014-Nov-14 05:33N 38°43' E 121°32'21475.3
2014-Nov-14 05:33N 38°44' E 121°30'407244347.7
2014-Nov-14 05:33N 32°00' E 120°23'46667070.5
2014-Nov-14 05:33N 24°25' E 118°31'47111771.4
2014-Nov-14 05:30N 32°04' E 120°30'413449.1
2014-Nov-14 05:30N 31°41' E 121°10'138.2
2014-Nov-14 05:28N 31°41' E 121°11'65929658.3
2014-Nov-14 05:27N 23°04' E 113°30'6642795.1
2014-Nov-14 05:12N 32°01' E 120°49'2616.0
2014-Nov-14 05:12N 31°60' E 120°49'64315.8
2014-Nov-14 05:12N 31°54' E 120°49'41474.8
2014-Nov-14 05:12N 31°54' E 120°53'2336.2
2014-Nov-14 04:34N 32°02' E 120°28'32288.6
2014-Nov-14 04:33N 32°02' E 120°24'6512343932.5
2014-Nov-14 04:33N 23°04' E 113°30'659103169.3
2014-Nov-14 04:33N 31°41' E 121°11'25724.2
2014-Nov-14 04:31N 31°57' E 120°48'409245407.1
2014-Nov-14 04:31N 38°44' E 121°30'10268532.8
2014-Nov-14 04:24N 23°04' E 113°30'65852643.7
2014-Nov-14 04:23N 31°50' E 120°55'122364.6
2014-Nov-14 04:23N 32°01' E 120°49'281.3
2014-Nov-14 04:21N 31°60' E 120°49'1417.0
2014-Nov-14 03:34N 32°02' E 120°33'656337365.8
2014-Nov-14 03:33N 23°05' E 113°28'656295193.2
2014-Nov-14 03:33N 31°47' E 120°55'174961.0
2014-Nov-14 03:33N 31°60' E 120°44'12931000.7
2014-Nov-14 03:33N 30°25' E 122°27'68564906.1
2014-Nov-14 03:32N 22°13' E 113°35'6989102.5
2014-Nov-14 03:28N 31°41' E 121°11'65943139.7
2014-Nov-14 03:27N 23°04' E 113°30'1366.9
2014-Nov-14 03:15N 23°04' E 113°16'664953.3
2014-Nov-14 02:34N 32°00' E 120°38'205654.1
2014-Nov-14 02:33N 31°47' E 120°56'1410329.0
2014-Nov-14 02:33N 31°60' E 120°49'101409.3
2014-Nov-14 02:33N 31°60' E 120°37'11465.6
2014-Nov-14 02:31N 32°01' E 120°49'28760.7
2014-Nov-14 02:29N 31°41' E 121°11'694113607.1
2014-Nov-14 02:29N 22°17' E 113°35'10672787.3
2014-Nov-14 02:06N 38°44' E 121°27'418772.1
2014-Nov-14 01:33N 31°47' E 120°56'142581.3
2014-Nov-14 01:33N 31°60' E 120°49'54526.7
2014-Nov-14 01:33N 32°01' E 120°43'102080.0
2014-Nov-14 01:33N 32°01' E 120°31'655261915.6
2014-Nov-14 01:33N 23°04' E 113°30'102721997.0
2014-Nov-14 01:30N 38°44' E 121°29'1049145192.2
2014-Nov-14 01:29N 22°35' E 113°44'104842871.0
2014-Nov-14 01:28N 38°44' E 121°29'10315761.8
2014-Nov-14 01:17N 23°03' E 113°17'670921.2
2014-Nov-14 00:34N 32°01' E 120°48'193570.9
2014-Nov-14 00:33N 32°02' E 120°26'1195.4
2014-Nov-14 00:33N 32°01' E 120°25'670219129.8
2014-Nov-14 00:33N 22°32' E 113°49'67556529.3
2014-Nov-14 00:32N 31°41' E 121°11'141113.4
2014-Nov-14 00:31N 31°47' E 120°56'41816184.4
2014-Nov-14 00:30N 38°44' E 121°27'102512345.9
2014-Nov-14 00:25N 23°04' E 113°29'664125728.7
2014-Nov-14 00:24N 32°01' E 120°49'44336252.6
2014-Nov-14 00:24N 24°49' E 118°58'4436452.2
2014-Nov-14 00:19N 32°01' E 120°47'6 7.4
2014-Nov-13 23:33N 31°57' E 120°52'680349957.3
2014-Nov-13 23:33N 22°28' E 113°52'675101250.2
2014-Nov-13 23:33N 32°02' E 120°32'92330.9
2014-Nov-13 23:33N 31°59' E 120°22'2316340.3
2014-Nov-13 23:33N 32°01' E 120°48'15633.5
2014-Nov-13 23:31N 31°47' E 120°55'144299.7
2014-Nov-13 23:31N 31°41' E 121°11'6596245.9
2014-Nov-13 23:25N 23°04' E 113°29'46320.5
2014-Nov-13 23:16N 22°25' E 113°53'676949.2
2014-Nov-13 22:33N 31°47' E 120°55'53374.4
2014-Nov-13 22:33N 31°51' E 120°55'3319622.4
2014-Nov-13 22:33N 31°57' E 120°17'202890.1
2014-Nov-13 22:33N 32°00' E 120°40'678813071.8
2014-Nov-13 22:33N 22°27' E 113°54'6779589.7
2014-Nov-13 22:28N 31°41' E 121°11'3229501.6
2014-Nov-13 22:26N 36°54' E 122°38'9574159.6
2014-Nov-13 22:13N 23°04' E 113°29'9511458.2
2014-Nov-13 21:34N 36°52' E 122°30'316378659.1
2014-Nov-13 21:33N 31°47' E 120°55'41103.0
2014-Nov-13 21:33N 31°47' E 121°00'4377908.5
2014-Nov-13 21:33N 31°56' E 120°10'660297008.4
2014-Nov-13 21:33N 22°27' E 113°54'67720997.8
2014-Nov-13 21:31N 31°41' E 121°11'6594171.3
2014-Nov-13 21:22N 23°04' E 113°29'43519.6
2014-Nov-13 21:17N 22°27' E 113°53'6734506.2
2014-Nov-13 21:08N 32°02' E 120°28'6731177.0
2014-Nov-13 20:33N 22°27' E 113°53'674808670.9
2014-Nov-13 20:33N 31°47' E 120°55'278868.7
2014-Nov-13 20:33N 31°59' E 120°27'372428.1
2014-Nov-13 20:32N 31°44' E 121°07'5666820.2
2014-Nov-13 20:32N 31°57' E 120°03'603640.0
2014-Nov-13 20:31N 31°41' E 121°11'6596148.9
2014-Nov-13 20:25N 23°04' E 113°29'4450.8
2014-Nov-13 19:33N 22°27' E 113°54'677812685.5
2014-Nov-13 19:33N 31°40' E 121°13'162335.1
2014-Nov-13 19:33N 31°47' E 120°56'141384.8
2014-Nov-13 19:32N 31°41' E 121°11'6592053.8
2014-Nov-13 19:13N 23°04' E 113°29'4364.4
2014-Nov-13 18:33N 22°27' E 113°52'67715731.2
2014-Nov-13 18:31N 31°41' E 121°11'8118.4
2014-Nov-13 18:27N 31°35' E 121°18'66019788.7
2014-Nov-13 18:25N 23°04' E 113°29'1076.7
2014-Nov-13 18:17N 22°54' E 113°28'43819.7
2014-Nov-13 18:14N 22°11' E 113°32'2536.7
2014-Nov-13 17:33N 22°27' E 113°52'676173935.8
2014-Nov-13 17:33N 31°32' E 121°22'67118868.9
2014-Nov-13 17:31N 22°54' E 113°22'4615072.0
2014-Nov-13 17:31N 22°10' E 113°37'69749185.5
2014-Nov-13 17:30N 31°47' E 120°56'14388.1
2014-Nov-13 17:28N 31°41' E 121°11'6592605.3
2014-Nov-13 17:13N 23°04' E 113°29'  
Track history (hours):
 
Tides and Currents Weather Stations Pressure Air Temp Water Temp Dewpoint Dewpoint Depression Visibility Wind Speed Wind Dir Waves Ship Positions

Callsign 000000 (name unknown)

Last reported at 2014-Nov-23 16:33 UTC. Time now 2014-Nov-23 17:24 UTC.
Position N 24°24' E 118°06'.

Type: Fishing. MMSI: 200007452.

Date/timePositionNaut miles runAvg speedWind from/ knotsBaromVisibWave heightAir tempDewpointWater temp
2014-Nov-23 16:33N 24°24' E 118°06'4381575373.4
2014-Nov-23 16:33N 31°10' E 121°09'3710161.1
2014-Nov-23 16:33N 30°51' E 121°46'64330870.8
2014-Nov-23 16:32N 23°04' E 113°29'642144342.2
2014-Nov-23 16:31N 31°03' E 121°28'64916563.8
2014-Nov-23 16:29N 22°51' E 113°33'66722434.7
2014-Nov-23 16:27N 31°45' E 121°03'4207910.7
2014-Nov-23 16:24N 38°44' E 121°38'473555.0
2014-Nov-23 15:33N 30°51' E 121°46'650390029.5
2014-Nov-23 15:33N 22°52' E 113°33'26178212.0
2014-Nov-23 15:33N 24°25' E 117°59'43922927.4
2014-Nov-23 15:32N 31°03' E 121°28'642288699.3
2014-Nov-23 15:31N 23°04' E 113°29'658296293.1
2014-Nov-23 15:31N 31°24' E 121°31'231535.0
2014-Nov-23 15:30N 31°10' E 121°09'5176040.5
2014-Nov-23 15:25N 22°37' E 120°06'502576.7
2014-Nov-23 14:33N 30°51' E 121°46'19823.2
2014-Nov-23 14:32N 31°03' E 121°28'642104982.3
2014-Nov-23 14:31N 23°04' E 113°29'65824664.3
2014-Nov-23 14:30N 31°46' E 120°59'55141322.3
2014-Nov-23 14:29N 22°37' E 120°14'37014016.6
2014-Nov-23 14:27N 22°52' E 113°33'64311874.5
2014-Nov-23 14:24N 31°10' E 121°09'23261.6
2014-Nov-23 14:19N 31°24' E 121°31'6647945.8
2014-Nov-23 14:14N 23°02' E 113°22'6644302.3
2014-Nov-23 14:04N 31°30' E 121°23'4483.6
2014-Nov-23 13:33N 30°51' E 121°46'646258577.9
2014-Nov-23 13:33N 23°03' E 113°25'8664.9
2014-Nov-23 13:32N 22°56' E 113°30'64789586.8
2014-Nov-23 13:32N 31°03' E 121°28'28833.1
2014-Nov-23 13:30N 31°30' E 121°23'23376.2
2014-Nov-23 13:26N 31°10' E 121°09'239229.0
2014-Nov-23 13:26N 31°24' E 121°31'6582110.9
2014-Nov-23 13:07N 23°04' E 113°29'1 1.0
2014-Nov-23 12:33N 23°04' E 113°29'12046.8
2014-Nov-23 12:33N 23°03' E 113°30'659215595.4
2014-Nov-23 12:33N 31°24' E 121°31'366481.7
2014-Nov-23 12:33N 30°51' E 121°46'374129.0
2014-Nov-23 12:32N 31°10' E 121°09'181529.8
2014-Nov-23 12:32N 31°03' E 121°28'285833.1
2014-Nov-23 12:31N 31°30' E 121°23'6592577.1
2014-Nov-23 12:16N 23°04' E 113°29'659921.8
2014-Nov-23 11:33N 31°30' E 121°23'447213.2
2014-Nov-23 11:33N 30°50' E 121°45'648291712.1
2014-Nov-23 11:33N 23°02' E 113°22'664199242.6
2014-Nov-23 11:33N 31°27' E 121°27'241899.0
2014-Nov-23 11:32N 31°03' E 121°28'18190.1
2014-Nov-23 11:26N 31°10' E 121°09'69493.2
2014-Nov-23 11:18N 31°57' E 120°09'32321.7
2014-Nov-23 11:12N 32°00' E 120°47'6628633.1
2014-Nov-23 11:07N 23°04' E 113°29'6431139.9
2014-Nov-23 10:33N 31°57' E 120°15'10215263.2
2014-Nov-23 10:33N 30°50' E 121°45'442034.5
2014-Nov-23 10:32N 31°30' E 121°23'467179.4
2014-Nov-23 10:31N 32°00' E 120°42'6915582.0
2014-Nov-23 10:31N 31°03' E 121°28'21287.3
2014-Nov-23 10:26N 31°09' E 121°52'67478216.8
2014-Nov-23 10:26N 22°30' E 113°51'67438489.2
2014-Nov-23 10:25N 31°32' E 121°21'65831596.6
2014-Nov-23 10:24N 23°04' E 113°29'102730314.5
2014-Nov-23 10:22N 38°44' E 121°33'434540.7
2014-Nov-23 09:33N 31°30' E 121°23'2279870.8
2014-Nov-23 09:33N 31°18' E 121°45'7114256.9
2014-Nov-23 09:33N 31°60' E 120°37'9017142.9
2014-Nov-23 09:33N 30°50' E 121°45'9935661.4
2014-Nov-23 09:33N 31°60' E 120°22'672605041.9
2014-Nov-23 09:33N 22°27' E 113°46'66156638.5
2014-Nov-23 09:32N 31°03' E 121°28'4424984.3
2014-Nov-23 09:27N 24°25' E 117°52'4686037.4
2014-Nov-23 09:22N 31°37' E 121°15'6595419.1
2014-Nov-23 09:15N 23°04' E 113°29'63814726.7
2014-Nov-23 09:12N 31°58' E 120°03'95147.5
2014-Nov-23 08:33N 31°23' E 121°47'7343936.7
2014-Nov-23 08:33N 32°01' E 120°33'936233.2
2014-Nov-23 08:32N 30°50' E 121°45'192561.6
2014-Nov-23 08:32N 31°03' E 121°28'761058.8
2014-Nov-23 08:28N 32°02' E 120°32'679610733.4
2014-Nov-23 08:28N 22°27' E 113°47'66472448.8
2014-Nov-23 08:27N 31°57' E 120°10'652702.7
2014-Nov-23 08:26N 31°17' E 121°09'67824656.3
2014-Nov-23 08:24N 22°30' E 113°10'397300.9
2014-Nov-23 08:24N 23°04' E 113°29'2544940.6
2014-Nov-23 08:21N 24°25' E 117°52'477605.9
2014-Nov-23 07:33N 32°01' E 120°31'124160.9
2014-Nov-23 07:33N 31°58' E 120°18'684492127.8
2014-Nov-23 07:33N 22°30' E 113°10'680143988.8
2014-Nov-23 07:33N 30°50' E 121°45'3691327444.9
2014-Nov-23 07:33N 36°56' E 122°38'35828646.0
2014-Nov-23 07:32N 31°03' E 121°28'64214346.0
2014-Nov-23 07:29N 23°04' E 113°29'65710016.7
2014-Nov-23 07:25N 31°22' E 121°30'6779087.9
2014-Nov-23 07:21N 22°27' E 113°47'25439802.3
2014-Nov-23 07:21N 24°25' E 117°52'2511171.5
2014-Nov-23 07:08N 22°55' E 113°36'98322824.4
2014-Nov-23 07:05N 37°38' E 121°55'345655.2
2014-Nov-23 06:34N 32°01' E 120°25'58151.5
2014-Nov-23 06:33N 32°01' E 120°31'30726349.0
2014-Nov-23 06:33N 36°53' E 122°29'3641311753.4
2014-Nov-23 06:33N 30°50' E 121°45'434372.9
2014-Nov-23 06:32N 31°17' E 121°06'2310513.8
2014-Nov-23 06:32N 31°03' E 121°28'647122638.3
2014-Nov-23 06:32N 23°02' E 113°22'151495.9
2014-Nov-23 06:31N 22°55' E 113°36'318818.5
2014-Nov-23 06:08N 24°37' E 119°05'3197665.5
2014-Nov-23 06:05N 22°27' E 113°47'6781269.3
2014-Nov-23 05:33N 32°01' E 120°31'448806846.6
2014-Nov-23 05:33N 24°39' E 119°06'695411.1
2014-Nov-23 05:33N 24°25' E 117°52'437224819.1
2014-Nov-23 05:32N 30°50' E 121°45'193824.6
2014-Nov-23 05:32N 31°03' E 121°28'661158580.1
2014-Nov-23 05:32N 22°27' E 113°47'67950930.8
2014-Nov-23 05:31N 32°01' E 120°34'3068231.3
2014-Nov-23 05:29N 36°53' E 122°26'3443078.1
2014-Nov-23 05:22N 31°17' E 121°02'1041106.9
2014-Nov-23 05:16N 29°55' E 122°17'891750.6
2014-Nov-23 05:13N 31°14' E 121°30'653102284.2
2014-Nov-23 05:13N 22°55' E 113°36'657985.1
2014-Nov-23 04:33N 32°02' E 120°26'47653574.2
2014-Nov-23 04:33N 24°25' E 117°52'44275718.8
2014-Nov-23 04:32N 31°03' E 121°28'3546334.2
2014-Nov-23 04:29N 36°53' E 122°26'31536625.9
2014-Nov-23 04:28N 31°45' E 121°05'657268.2
2014-Nov-23 04:28N 30°50' E 121°45'671297.0
2014-Nov-23 04:25N 29°50' E 122°19'62814964.9
2014-Nov-23 04:22N 22°55' E 113°33'665299310.7
2014-Nov-23 04:22N 32°00' E 120°42'64251.4
2014-Nov-23 04:07N 31°09' E 121°28'6471162.7
2014-Nov-23 03:33N 23°00' E 113°32'64980593.3
2014-Nov-23 03:33N 31°59' E 120°21'47289437.3
2014-Nov-23 03:32N 24°25' E 117°52'446229208.8
2014-Nov-23 03:32N 31°08' E 121°28'51883.5
2014-Nov-23 03:32N 31°03' E 121°28'29961.2
2014-Nov-23 03:30N 31°27' E 121°47'68656154.7
2014-Nov-23 03:30N 22°54' E 113°15'96620704.6
2014-Nov-23 03:27N 36°54' E 122°26'36510431.4
2014-Nov-23 03:25N 30°50' E 121°45'3673690.4
2014-Nov-23 03:19N 36°56' E 122°28'31995816.3
2014-Nov-23 03:19N 31°44' E 121°06'1241344.6
2014-Nov-23 03:13N 29°56' E 122°17'88133.1
2014-Nov-23 02:33N 31°20' E 121°48'33438824.3
2014-Nov-23 02:33N 36°52' E 122°33'318127157.6
2014-Nov-23 02:33N 31°56' E 120°14'16052365.8
2014-Nov-23 02:33N 29°56' E 122°17'7916806.5
2014-Nov-23 02:32N 31°03' E 121°28'484027.4
2014-Nov-23 02:32N 31°46' E 121°03'665304.0
2014-Nov-23 02:31N 30°50' E 121°45'65484110.6
2014-Nov-23 02:30N 22°54' E 113°22'10344.5
2014-Nov-23 02:29N 23°03' E 113°18'45873.2
2014-Nov-23 02:25N 22°28' E 113°48'67311109.4
2014-Nov-23 02:22N 31°17' E 121°34'6957747.2
2014-Nov-23 02:16N 22°19' E 113°20'50336.6
2014-Nov-23 02:08N 23°06' E 113°37'6551149.5
2014-Nov-23 01:33N 31°16' E 121°46'183040.2
2014-Nov-23 01:33N 31°07' E 121°28'141238.8
2014-Nov-23 01:32N 31°20' E 121°33'1821117.3
2014-Nov-23 01:32N 31°03' E 121°28'64919640.9
2014-Nov-23 01:30N 22°54' E 113°30'65053183.7
2014-Nov-23 01:30N 30°50' E 121°45'6432371.5
2014-Nov-23 01:13N 23°02' E 113°31'49408.5
2014-Nov-23 01:06N 22°13' E 113°35'6971282.3
2014-Nov-23 00:33N 31°10' E 121°52'668218763.5
2014-Nov-23 00:33N 22°53' E 113°30'650123199.1
2014-Nov-23 00:33N 30°50' E 121°46'201811.7
2014-Nov-23 00:32N 31°03' E 121°28'67752952.7
2014-Nov-23 00:32N 22°14' E 113°36'67935969.9
2014-Nov-23 00:30N 31°07' E 121°28'6453383.2
2014-Nov-23 00:19N 23°02' E 113°31'911.4
2014-Nov-22 23:33N 22°53' E 113°30'647258779.8
2014-Nov-22 23:33N 32°01' E 119°58'9322428.3
2014-Nov-22 23:33N 31°07' E 121°28'4481.0
2014-Nov-22 23:32N 31°03' E 121°28'263746.8
2014-Nov-22 23:32N 31°06' E 121°59'212138.7
2014-Nov-22 23:31N 30°46' E 121°53'6449830.7
2014-Nov-22 23:27N 23°02' E 113°31'44884.3
2014-Nov-22 23:24N 22°17' E 113°35'678798.8
2014-Nov-22 22:33N 30°44' E 121°60'12675407.5
2014-Nov-22 22:33N 31°58' E 120°02'9023059.7
2014-Nov-22 22:33N 31°07' E 121°28'372.4
2014-Nov-22 22:31N 31°04' E 121°28'6435523.6
2014-Nov-22 22:24N 23°02' E 113°31'6594804.0
2014-Nov-22 22:16N 31°60' E 120°41'103146.1
2014-Nov-22 21:33N 30°46' E 122°05'1068478.7
2014-Nov-22 21:33N 31°60' E 120°36'657181867.5
2014-Nov-22 21:32N 23°02' E 113°31'644193087.3
2014-Nov-22 21:32N 31°06' E 121°28'1113.3
2014-Nov-22 21:31N 31°07' E 121°28'853144.1
2014-Nov-22 21:30N 31°57' E 120°07'3711063.9
2014-Nov-22 21:09N 38°00' E 121°38'413697.6
2014-Nov-22 20:33N 31°07' E 121°28'7215286.5
2014-Nov-22 20:33N 32°01' E 120°31'729316.1
2014-Nov-22 20:33N 31°07' E 121°28'8022219.1
2014-Nov-22 20:32N 31°56' E 120°13'6 6.0
2014-Nov-22 19:33N 31°59' E 120°20'7538717.2
2014-Nov-22 19:33N 31°11' E 121°28'4583.4
2014-Nov-22 19:33N 31°07' E 121°28'7332918.7
2014-Nov-22 19:33N 32°01' E 120°30'4 3.8
2014-Nov-22 18:33N 32°02' E 120°26'76136510.3
2014-Nov-22 18:33N 31°07' E 121°28'72398.8
2014-Nov-22 18:33N 31°14' E 121°29'692946.1
2014-Nov-22 18:32N 32°01' E 120°30'4053585.3
2014-Nov-22 18:25N 38°44' E 121°27'4642007.1
2014-Nov-22 18:11N 31°01' E 122°07'3454.3
2014-Nov-22 17:34N 31°07' E 121°28'457822547.2
2014-Nov-22 17:33N 38°44' E 121°30'4061461288.1
2014-Nov-22 17:33N 32°01' E 120°33'2172.2
2014-Nov-22 17:33N 32°01' E 120°30'693672.2
2014-Nov-22 17:32N 31°18' E 121°34'291031.6
2014-Nov-22 17:30N 31°03' E 122°03'6801757.1
2014-Nov-22 17:07N 22°48' E 113°20'6791222.7
2014-Nov-22 16:33N 31°06' E 121°57'9323925.7
2014-Nov-22 16:33N 32°02' E 120°30'7413946.1
2014-Nov-22 16:33N 31°07' E 121°28'14188.6
2014-Nov-22 16:28N 31°21' E 121°31'4435955.2
2014-Nov-22 16:24N 38°44' E 121°35'10489599.1
2014-Nov-22 16:17N 22°45' E 113°24'662894.8
2014-Nov-22 15:33N 31°07' E 121°28'7614435.2
2014-Nov-22 15:33N 32°00' E 120°24'703439.3
2014-Nov-22 15:32N 31°21' E 121°31'67210744.3
2014-Nov-22 15:28N 22°44' E 113°30'6713232.1
2014-Nov-22 15:15N 30°50' E 122°08'116163.4
2014-Nov-22 14:33N 31°57' E 120°17'786710.2
2014-Nov-22 14:32N 31°07' E 121°28'142519.3
2014-Nov-22 14:32N 31°21' E 121°31'1414.4
2014-Nov-22 13:33N 31°07' E 121°28'14520.2
2014-Nov-22 13:32N 31°21' E 121°31'462.8
2014-Nov-22 13:28N 31°24' E 121°31'66516744.1
2014-Nov-22 13:26N 23°03' E 113°19'18715.2
2014-Nov-22 13:24N 22°57' E 113°37'48242.8
2014-Nov-22 13:13N 22°10' E 113°27'6881040.1
2014-Nov-22 12:33N 31°07' E 121°28'64640103.0
2014-Nov-22 12:32N 23°04' E 113°26'658169210.0
2014-Nov-22 12:32N 31°21' E 121°31'462.2
2014-Nov-22 12:28N 31°24' E 121°31'658717.9
2014-Nov-22 11:33N 23°04' E 113°30'644579560.8
2014-Nov-22 11:33N 31°07' E 121°28'142084.8
2014-Nov-22 11:33N 31°21' E 121°30'44541.8
2014-Nov-22 11:33N 31°25' E 121°30'79826.3
2014-Nov-22 11:27N 31°58' E 120°05'66076592.1
2014-Nov-22 11:26N 22°27' E 113°53'6813001.6
2014-Nov-22 11:13N 31°58' E 120°51'6621003.5
2014-Nov-22 10:33N 23°04' E 113°30'65778850.3
2014-Nov-22 10:33N 31°23' E 121°30'5315796.1
2014-Nov-22 10:33N 32°00' E 120°47'21017.5
2014-Nov-22 10:32N 32°00' E 120°49'423971.7
2014-Nov-22 10:32N 31°30' E 121°23'232183.7
2014-Nov-22 10:31N 31°07' E 121°28'832227.3
2014-Nov-22 10:29N 31°57' E 120°10'4136114.6
2014-Nov-22 10:25N 38°44' E 121°32'106915038.1
2014-Nov-22 10:21N 22°17' E 113°36'45358.3
2014-Nov-22 10:13N 23°02' E 113°31'6601000.2
2014-Nov-22 09:33N 31°24' E 121°32'72260935.1
2014-Nov-22 09:33N 31°57' E 120°16'64345410.4
2014-Nov-22 09:33N 23°04' E 113°30'644178330.0
2014-Nov-22 09:32N 31°07' E 121°28'2952518.9
2014-Nov-22 09:32N 31°35' E 121°18'42938636.4
2014-Nov-22 09:32N 38°44' E 121°29'102890266.3
2014-Nov-22 09:31N 23°02' E 113°31'6649054.3
2014-Nov-22 09:27N 31°58' E 120°51'1237.3
2014-Nov-22 09:06N 31°60' E 120°37'3 5.1
2014-Nov-22 08:33N 32°01' E 120°33'3823086.5
2014-Nov-22 08:33N 31°40' E 121°12'46166568.1
2014-Nov-22 08:33N 31°60' E 120°22'63113482.1
2014-Nov-22 08:33N 31°28' E 121°27'65922155.5
2014-Nov-22 08:32N 23°04' E 113°30'337.1
2014-Nov-22 08:27N 23°02' E 113°31'6456656.1
2014-Nov-22 08:22N 31°07' E 121°28'68633821.6
2014-Nov-22 08:20N 22°10' E 113°31'6848855.3
2014-Nov-22 08:16N 31°58' E 120°02'638900.7
2014-Nov-22 07:33N 23°04' E 113°30'65949416.6
2014-Nov-22 07:32N 31°43' E 121°06'201500.9
2014-Nov-22 07:32N 31°30' E 121°24'66417982.5
2014-Nov-22 07:29N 23°03' E 113°21'650585146.2
2014-Nov-22 07:29N 31°07' E 121°28'645692.2
2014-Nov-22 06:33N 23°02' E 113°31'3186.2
2014-Nov-22 06:33N 23°04' E 113°29'65946485.5
2014-Nov-22 06:32N 31°30' E 121°24'6736440.9
2014-Nov-22 06:25N 22°38' E 113°41'67336169.5
2014-Nov-22 06:24N 31°09' E 121°53'67912041.8
2014-Nov-22 06:21N 22°27' E 113°47'1360.5
2014-Nov-22 06:08N 22°14' E 113°42'65211177.6
2014-Nov-22 06:04N 29°49' E 122°22'6261222.2
2014-Nov-22 05:33N 23°02' E 113°31'662476319.7
2014-Nov-22 05:33N 31°14' E 121°47'66199076.4
2014-Nov-22 05:33N 23°04' E 113°29'289216.0
2014-Nov-22 05:33N 22°38' E 113°41'6732421192.0
2014-Nov-22 05:33N 31°30' E 121°23'48756549.8
2014-Nov-22 05:32N 39°04' E 117°48'1029148232.9
2014-Nov-22 05:32N 22°16' E 113°48'10659213.7
2014-Nov-22 05:25N 38°43' E 121°30'10352953.5
2014-Nov-22 05:04N 22°53' E 113°31'6721318.8
2014-Nov-22 04:33N 31°19' E 121°48'214621.8
2014-Nov-22 04:33N 31°07' E 121°28'235616.6
2014-Nov-22 04:33N 31°30' E 121°23'66732029.5
2014-Nov-22 04:31N 22°55' E 113°27'661158536.0
2014-Nov-22 04:31N 32°01' E 120°25'651123415.2
2014-Nov-22 04:31N 23°04' E 113°29'3141.5
2014-Nov-22 04:30N 23°02' E 113°31'65656188.7
2014-Nov-22 04:29N 31°22' E 121°27'4969308.0
2014-Nov-22 04:26N 39°04' E 117°47'102311612.6
2014-Nov-22 04:21N 22°30' E 113°10'68636857.4
2014-Nov-22 04:19N 31°57' E 120°24'671127132.3
2014-Nov-22 04:19N 22°27' E 113°47'669873.4
2014-Nov-22 03:33N 31°57' E 120°18'445800582.7
2014-Nov-22 03:33N 39°05' E 117°46'985197071.1
2014-Nov-22 03:33N 23°04' E 113°29'658263351.8
2014-Nov-22 03:33N 31°30' E 121°23'2238943.7
2014-Nov-22 03:33N 31°25' E 121°48'783991.7
2014-Nov-22 03:32N 31°57' E 120°24'64921045.9
2014-Nov-22 03:30N 23°02' E 113°31'65621070.3
2014-Nov-22 03:28N 31°21' E 121°27'69222451.5
2014-Nov-22 03:26N 22°30' E 113°10'692791.1
2014-Nov-22 02:33N 31°21' E 121°27'654147258.7
2014-Nov-22 02:33N 23°04' E 113°29'65884648.8
2014-Nov-22 02:33N 31°30' E 121°23'22666.4
2014-Nov-22 02:31N 31°45' E 121°03'697228099.7
2014-Nov-22 02:31N 22°30' E 113°10'686102909.1
2014-Nov-22 02:30N 31°57' E 120°24'67711835.0
2014-Nov-22 02:27N 22°19' E 113°48'464985.7
2014-Nov-22 02:26N 23°02' E 113°31'3 3.0
2014-Nov-22 01:33N 23°04' E 113°29'65494245.6
2014-Nov-22 01:32N 31°21' E 121°27'93358.5
2014-Nov-22 01:32N 31°30' E 121°23'6793314.7
2014-Nov-22 01:20N 22°27' E 113°47'12331.2
2014-Nov-22 01:18N 22°16' E 113°43'33574.1
2014-Nov-22 01:14N 22°30' E 113°10'701100936.1
2014-Nov-22 01:14N 32°01' E 120°47'353.2
2014-Nov-22 01:11N 31°59' E 120°50'6199.0
2014-Nov-22 00:33N 31°07' E 121°28'141781.6
2014-Nov-22 00:33N 31°21' E 121°27'916802.7
2014-Nov-22 00:33N 31°30' E 121°23'67826812.5
2014-Nov-22 00:31N 22°28' E 113°47'391576.3
2014-Nov-22 00:30N 23°04' E 113°29'645386900.8
2014-Nov-22 00:30N 31°58' E 120°17'684615634.6
2014-Nov-22 00:30N 22°12' E 113°40'32797.1
2014-Nov-22 00:27N 22°30' E 113°10'696776.8
2014-Nov-21 23:33N 31°32' E 121°21'658148148.0
2014-Nov-21 23:33N 23°04' E 113°29'66329453.6
2014-Nov-21 23:32N 32°01' E 120°47'7018671.5
2014-Nov-21 23:27N 22°30' E 113°10'6928307.0
2014-Nov-21 23:22N 31°21' E 121°27'1417.6
2014-Nov-21 22:33N 31°07' E 121°28'64474812.0
2014-Nov-21 22:32N 23°04' E 113°29'65965920.5
2014-Nov-21 22:32N 31°35' E 121°18'16259.4
2014-Nov-21 22:28N 31°22' E 121°28'66992.6
2014-Nov-21 22:24N 32°02' E 120°26'653774.1
2014-Nov-21 21:33N 23°04' E 113°29'659197844.2
2014-Nov-21 21:33N 31°39' E 121°14'373509.6
2014-Nov-21 21:33N 31°60' E 120°38'682707.0
2014-Nov-21 21:31N 31°07' E 121°28'644667.6
2014-Nov-21 20:33N 23°04' E 113°29'644289894.4
2014-Nov-21 20:33N 31°07' E 121°28'387635.4
2014-Nov-21 20:33N 31°42' E 121°09'373712.9
2014-Nov-21 20:32N 32°01' E 120°32'66943018.2
2014-Nov-21 20:31N 22°45' E 113°33'28106.0
2014-Nov-21 20:15N 22°24' E 113°54'680977.1
2014-Nov-21 19:33N 31°44' E 121°05'6591187009.8
2014-Nov-21 19:33N 23°04' E 113°29'65423558.3
2014-Nov-21 19:32N 32°01' E 120°31'735709.9
2014-Nov-21 19:31N 31°07' E 121°28'4573303.4
2014-Nov-21 19:23N 38°44' E 121°30'10271241.5
2014-Nov-21 18:33N 23°04' E 113°29'659790840.7
2014-Nov-21 18:33N 31°45' E 121°03'321501.1
2014-Nov-21 18:32N 32°01' E 120°31'1603916.8
2014-Nov-21 18:29N 29°50' E 122°18'63078172.6
2014-Nov-21 18:29N 22°47' E 113°38'1494.6
2014-Nov-21 18:20N 22°35' E 113°46'6745931.3
2014-Nov-21 18:13N 31°40' E 121°12'3 4.9
2014-Nov-21 17:33N 31°42' E 121°09'659197739.0
2014-Nov-21 17:33N 23°04' E 113°29'659124868.7
2014-Nov-21 17:33N 31°45' E 121°03'66537383.2
2014-Nov-21 17:32N 22°54' E 113°35'660132085.3
2014-Nov-21 17:32N 32°01' E 120°31'40669645.6
2014-Nov-21 17:31N 38°44' E 121°35'10281064.6
2014-Nov-21 16:33N 23°04' E 113°29'659169473.1
2014-Nov-21 16:33N 31°45' E 121°03'419188699.5
2014-Nov-21 16:33N 38°44' E 121°34'42028018.7
2014-Nov-21 16:32N 31°44' E 121°05'344895.5
2014-Nov-21 16:32N 32°01' E 120°31'1603916.6
2014-Nov-21 16:29N 29°50' E 122°18'624670.1
2014-Nov-21 15:33N 23°04' E 113°29'659215686.6
2014-Nov-21 15:33N 31°45' E 121°03'67517992.3
2014-Nov-21 15:31N 22°44' E 113°30'67117621.8
2014-Nov-21 15:29N 32°01' E 120°31'654710.2
2014-Nov-21 14:33N 23°04' E 113°29'659395425.4
2014-Nov-21 14:33N 31°45' E 121°04'419100652.5
2014-Nov-21 14:33N 38°44' E 121°31'40617813.8
2014-Nov-21 14:32N 32°01' E 120°31'73661.5
2014-Nov-21 14:25N 31°07' E 121°28'6443118.5
2014-Nov-21 14:13N 23°03' E 113°30'1 1.6
2014-Nov-21 13:33N 23°04' E 113°29'65938273.1
2014-Nov-21 13:32N 31°46' E 121°03'322801.2
2014-Nov-21 13:32N 32°01' E 120°31'674606379.9
2014-Nov-21 13:31N 22°47' E 113°19'38844.8
2014-Nov-21 13:29N 22°26' E 113°53'66010293.3
2014-Nov-21 13:25N 31°07' E 121°28'4571283.7
2014-Nov-21 13:04N 38°44' E 121°28'10302042.2
2014-Nov-21 12:33N 23°02' E 113°24'1030195121.9
2014-Nov-21 12:33N 38°44' E 121°29'418188191.3
2014-Nov-21 12:33N 31°47' E 120°57'473162.2
2014-Nov-21 12:32N 31°07' E 121°28'652138145.7
2014-Nov-21 12:32N 22°54' E 113°28'100035636.6
2014-Nov-21 12:30N 37°55' E 121°50'36015075.1
2014-Nov-21 12:29N 32°01' E 120°31'6514462.6
2014-Nov-21 12:20N 23°04' E 113°36'651842.4
2014-Nov-21 11:33N 32°01' E 120°30'2240124.8
2014-Nov-21 11:33N 31°51' E 120°54'66022013.0
2014-Nov-21 11:32N 22°58' E 113°34'64662849.8
2014-Nov-21 11:31N 31°07' E 121°28'7014867.2
2014-Nov-21 11:31N 31°52' E 120°25'1562653.6
2014-Nov-21 11:27N 29°50' E 122°18'6549976.8
2014-Nov-21 11:23N 22°14' E 113°36'107250761.1
2014-Nov-21 11:22N 38°44' E 121°33'408504.3
2014-Nov-21 10:34N 32°00' E 120°24'5480.1
2014-Nov-21 10:33N 32°02' E 120°29'203128.2
2014-Nov-21 10:33N 31°56' E 120°52'698125572.8
2014-Nov-21 10:32N 22°16' E 113°36'12737.5
2014-Nov-21 10:31N 22°16' E 113°49'1067174602.7
2014-Nov-21 10:31N 38°45' E 121°36'10306968.0
2014-Nov-21 10:22N 23°03' E 113°30'99131026.5
2014-Nov-21 10:20N 37°58' E 121°45'3692320.9
2014-Nov-21 10:11N 31°58' E 120°01'6761090.4
2014-Nov-21 09:33N 22°13' E 113°42'687824140.8
2014-Nov-21 09:33N 31°59' E 120°22'42814.1
2014-Nov-21 09:33N 31°57' E 120°18'263499.2
2014-Nov-21 09:33N 31°60' E 120°49'18308.8
2014-Nov-21 09:29N 32°04' E 120°28'65517734.8
2014-Nov-21 09:27N 23°04' E 113°30'102617925.3
2014-Nov-21 09:24N 38°43' E 121°30'4055656.4
2014-Nov-21 09:19N 32°00' E 120°33'307216.6
2014-Nov-21 09:19N 32°01' E 119°58'67528949.1
2014-Nov-21 09:18N 22°18' E 113°35'681925.2
2014-Nov-21 08:33N 31°57' E 120°17'12980.3
2014-Nov-21 08:33N 32°04' E 120°28'635658.0
2014-Nov-21 08:32N 31°06' E 120°56'581043.9
2014-Nov-21 08:29N 32°00' E 120°33'65522452.8
2014-Nov-21 08:27N 23°04' E 113°30'12303.3
2014-Nov-21 08:25N 23°03' E 113°16'556581.2
2014-Nov-21 08:24N 22°11' E 113°33'10755180.5
2014-Nov-21 08:12N 38°43' E 121°33'45614275.7
2014-Nov-21 08:10N 31°07' E 121°28'80133.4
2014-Nov-21 07:34N 31°56' E 120°13'8012562.3
2014-Nov-21 07:33N 31°07' E 121°28'6512343117.4
2014-Nov-21 07:33N 23°03' E 113°19'263105109.4
2014-Nov-21 07:33N 24°25' E 117°52'47714803.9
2014-Nov-21 07:31N 32°00' E 120°33'69320294.6
2014-Nov-21 07:29N 22°30' E 113°10'391149.2
2014-Nov-21 07:27N 23°04' E 113°30'62623240.5
2014-Nov-21 07:25N 31°04' E 121°01'83353.8
2014-Nov-21 07:11N 32°06' E 119°56'27471.1
2014-Nov-21 07:08N 32°04' E 120°28'0 0.7
2014-Nov-21 06:33N 32°04' E 120°28'287746.0
2014-Nov-21 06:33N 32°03' E 119°55'33916.7
2014-Nov-21 06:31N 32°00' E 120°33'3644020.3
2014-Nov-21 06:26N 38°01' E 121°37'9905739.9
2014-Nov-21 06:15N 23°04' E 113°30'6444673.8
2014-Nov-21 06:07N 31°07' E 121°28'64716071.3
2014-Nov-21 06:04N 22°55' E 113°36'6471195.7
2014-Nov-21 05:32N 31°07' E 121°28'784507.3
2014-Nov-21 05:31N 32°02' E 120°24'690155326.6
2014-Nov-21 05:31N 22°30' E 113°10'69317579.1
2014-Nov-21 05:28N 32°00' E 120°33'65529106.9
2014-Nov-21 05:27N 23°04' E 113°30'66210643.8
2014-Nov-21 05:23N 31°60' E 120°49'661319.3
2014-Nov-21 05:20N 30°58' E 121°15'953672.0
2014-Nov-21 05:19N 32°03' E 119°55'6603085.2
2014-Nov-21 05:06N 22°27' E 113°53'6441193.3
2014-Nov-21 04:33N 30°57' E 121°13'6291.9
2014-Nov-21 04:32N 30°59' E 121°20'11594.5
2014-Nov-21 04:31N 31°07' E 121°28'719794.7
2014-Nov-21 04:31N 32°00' E 120°33'13554.7
2014-Nov-21 04:29N 31°60' E 120°49'70121021.0
2014-Nov-21 04:27N 22°30' E 113°10'102922316.3
2014-Nov-21 04:25N 37°58' E 121°44'36215879.7
2014-Nov-21 04:23N 32°02' E 120°24'47712707.9
2014-Nov-21 04:21N 24°25' E 117°52'2531727.6
2014-Nov-21 04:12N 23°04' E 113°30'631978.1
2014-Nov-21 03:33N 30°58' E 121°18'71241.1
2014-Nov-21 03:33N 31°00' E 121°26'685947.2
2014-Nov-21 03:32N 31°60' E 120°49'638049.5
2014-Nov-21 03:32N 31°07' E 121°28'713441.2
2014-Nov-21 03:31N 32°00' E 120°33'6555850.3
2014-Nov-21 03:24N 23°04' E 113°30'3915450.3
2014-Nov-21 03:24N 22°30' E 113°10'3415284.1
2014-Nov-21 03:24N 23°02' E 113°21'668343775.3
2014-Nov-21 03:24N 32°01' E 120°47'6678635.3
2014-Nov-21 03:19N 22°55' E 113°36'64334566.9
2014-Nov-21 03:18N 32°03' E 119°55'25114.3
2014-Nov-21 03:05N 32°02' E 120°24'66341143.3
2014-Nov-21 03:04N 22°48' E 113°35'631151320.6
2014-Nov-21 03:04N 29°51' E 122°17'535962156.0
2014-Nov-21 03:04N 38°44' E 121°33'406810.2
2014-Nov-21 02:34N 32°00' E 120°33'7489090.1
2014-Nov-21 02:33N 30°59' E 121°23'8057559.0
2014-Nov-21 02:33N 32°01' E 120°23'204896.0
2014-Nov-21 02:33N 32°01' E 120°47'63226751.2
2014-Nov-21 02:33N 31°25' E 121°48'66989244.3
2014-Nov-21 02:33N 23°05' E 113°27'64552754.3
2014-Nov-21 02:32N 31°07' E 121°28'650390223.5
2014-Nov-21 02:32N 23°03' E 113°20'3216.2
2014-Nov-21 02:31N 23°02' E 113°24'431881.4
2014-Nov-21 02:30N 22°29' E 113°53'68076506.8
2014-Nov-21 02:29N 31°60' E 120°48'4065575.4
2014-Nov-21 02:25N 38°44' E 121°32'1066255729.2
2014-Nov-21 02:24N 22°30' E 113°10'261069.6
2014-Nov-21 02:23N 22°17' E 113°35'103210987.1
2014-Nov-21 02:17N 37°56' E 121°50'361493.6
2014-Nov-21 01:33N 32°00' E 120°33'7466795.2
2014-Nov-21 01:33N 30°59' E 121°23'916323.5
2014-Nov-21 01:33N 31°07' E 121°28'207057.9
2014-Nov-21 01:33N 31°19' E 121°47'664477780.9
2014-Nov-21 01:33N 23°04' E 113°29'64555251.4
2014-Nov-21 01:32N 31°57' E 120°18'256093.8
2014-Nov-21 01:32N 32°01' E 120°47'1824.9
2014-Nov-21 01:32N 31°60' E 120°48'67024346.0
2014-Nov-21 01:30N 23°04' E 113°16'20957.9
2014-Nov-21 01:29N 22°54' E 113°35'103446524.1
2014-Nov-21 01:28N 38°44' E 121°29'106521536.3
2014-Nov-21 01:25N 22°30' E 113°10'3869257.0
2014-Nov-21 01:25N 23°04' E 113°29'47412.5
2014-Nov-21 01:18N 22°17' E 113°35'47936.0
2014-Nov-21 01:15N 23°04' E 113°30'11203.2
2014-Nov-21 01:12N 22°55' E 113°36'2515052.8
2014-Nov-21 01:09N 24°25' E 117°52'477808.5
2014-Nov-21 00:33N 32°00' E 120°33'7426718.1
2014-Nov-21 00:33N 30°59' E 121°23'2623717.7
2014-Nov-21 00:33N 31°13' E 121°49'45971777.4
2014-Nov-21 00:33N 24°25' E 117°52'25130142.7
2014-Nov-21 00:32N 22°55' E 113°36'666199911.2
2014-Nov-21 00:32N 31°60' E 120°48'684273441.5
2014-Nov-21 00:32N 22°24' E 113°54'68474637.4
2014-Nov-21 00:31N 32°01' E 120°47'64851.6
2014-Nov-21 00:27N 31°07' E 121°28'822899.2
2014-Nov-21 00:25N 31°56' E 120°10'19275.3
2014-Nov-21 00:21N 32°00' E 120°32'69295877.7
2014-Nov-21 00:21N 22°30' E 113°10'26404.2
2014-Nov-21 00:17N 22°17' E 113°35'47721.1
2014-Nov-21 00:13N 23°04' E 113°29'157.9
2014-Nov-21 00:12N 23°03' E 113°30'6368450.9
2014-Nov-21 00:07N 30°60' E 121°24'6361145360.4
2014-Nov-21 00:07N 23°04' E 113°29'6351133.9
2014-Nov-20 23:33N 30°59' E 121°23'6935434.5
2014-Nov-20 23:33N 32°00' E 120°46'105311.7
2014-Nov-20 23:33N 32°00' E 120°33'124706.9
2014-Nov-20 23:33N 32°01' E 120°47'66746169.0
2014-Nov-20 23:32N 22°55' E 113°36'665478573.7
2014-Nov-20 23:32N 31°07' E 121°57'257458.6
2014-Nov-20 23:32N 31°07' E 121°28'64445470.9
2014-Nov-20 23:31N 23°04' E 113°29'65419296.3
2014-Nov-20 23:29N 32°02' E 120°29'65430977.0
2014-Nov-20 23:28N 23°04' E 113°29'41264.7
2014-Nov-20 23:18N 22°26' E 113°47'403390.1
2014-Nov-20 23:18N 23°03' E 113°30'635862.2
2014-Nov-20 22:33N 30°59' E 121°23'7121176.4
2014-Nov-20 22:33N 31°60' E 120°40'73733.5
2014-Nov-20 22:33N 32°01' E 120°31'98118068.8
2014-Nov-20 22:33N 31°03' E 122°05'66620147.7
2014-Nov-20 22:31N 22°55' E 113°36'667400131.1
2014-Nov-20 22:31N 32°01' E 120°47'643722.0
2014-Nov-20 22:30N 31°07' E 121°28'678221788.6
2014-Nov-20 22:30N 22°17' E 113°35'471643.9
2014-Nov-20 22:28N 23°04' E 113°29'9819629.9
2014-Nov-20 22:28N 23°04' E 115°16'60015880.7
2014-Nov-20 22:26N 31°59' E 120°22'791460.5
2014-Nov-20 22:22N 31°05' E 121°28'6137.6
2014-Nov-20 22:20N 30°59' E 121°24'65629882.2
2014-Nov-20 22:18N 22°26' E 113°47'655877.1
2014-Nov-20 21:34N 30°59' E 121°23'69247557.3
2014-Nov-20 21:34N 32°01' E 120°47'138028.9
2014-Nov-20 21:33N 32°01' E 120°31'3920.0
2014-Nov-20 21:33N 32°01' E 120°35'65720032.2
2014-Nov-20 21:31N 23°04' E 113°29'471820.5
2014-Nov-20 21:30N 22°17' E 113°35'67610354.5
2014-Nov-20 21:26N 31°05' E 121°28'64658110.7
2014-Nov-20 21:25N 22°55' E 113°36'1170.4
2014-Nov-20 21:16N 23°04' E 113°29'635899.8
2014-Nov-20 20:33N 30°59' E 121°23'692720.2
2014-Nov-20 20:32N 32°01' E 120°47'645244.2
2014-Nov-20 20:31N 31°07' E 121°28'644772957.9
2014-Nov-20 20:31N 23°04' E 113°29'64216882.1
2014-Nov-20 20:29N 31°05' E 121°28'676162220.3
2014-Nov-20 20:29N 22°17' E 113°35'4821761.3
2014-Nov-20 20:28N 23°03' E 113°18'66133051.2
2014-Nov-20 20:27N 32°01' E 120°31'341.4
2014-Nov-20 20:23N 32°04' E 120°31'676152019.2
2014-Nov-20 20:22N 22°48' E 113°19'65715670.8
2014-Nov-20 20:20N 32°03' E 119°55'6392375.0
2014-Nov-20 20:04N 23°04' E 113°29'6351259.4
2014-Nov-20 19:33N 30°59' E 121°23'8460203.0
2014-Nov-20 19:33N 29°51' E 122°18'152109386.3
2014-Nov-20 19:33N 32°01' E 120°47'6411541.8
2014-Nov-20 19:33N 31°07' E 121°28'64419487.3
2014-Nov-20 19:31N 23°04' E 113°29'65435695.4
2014-Nov-20 19:30N 32°01' E 120°31'65421222.4
2014-Nov-20 19:28N 23°04' E 113°29'65624605.6
2014-Nov-20 19:26N 32°04' E 120°30'783633.9
2014-Nov-20 19:25N 31°05' E 121°28'6422775.6
2014-Nov-20 19:11N 23°04' E 113°30'463695.0
2014-Nov-20 19:11N 22°17' E 113°35'291203.7
2014-Nov-20 19:09N 22°45' E 113°24'6811147.6
2014-Nov-20 18:33N 32°01' E 120°47'6935390.7
2014-Nov-20 18:33N 30°59' E 121°23'7627187.8
2014-Nov-20 18:33N 32°01' E 120°31'4930.9
2014-Nov-20 18:33N 32°04' E 120°30'65621475.6
2014-Nov-20 18:31N 23°04' E 113°29'471793.6
2014-Nov-20 18:30N 22°17' E 113°35'27240.7
2014-Nov-20 18:23N 22°44' E 113°28'1393.0
2014-Nov-20 18:14N 22°55' E 113°36'646154952.3
2014-Nov-20 18:14N 31°05' E 121°28'443113880.3
2014-Nov-20 18:14N 24°25' E 117°52'2532198.5
2014-Nov-20 18:07N 23°03' E 113°30'131.5
2014-Nov-20 18:04N 23°04' E 113°29'6351244.3
2014-Nov-20 17:33N 30°59' E 121°23'767552.2
2014-Nov-20 17:33N 32°01' E 120°31'4567.5
2014-Nov-20 17:32N 32°04' E 120°30'152184.7
2014-Nov-20 17:32N 32°01' E 120°47'48291240.9
2014-Nov-20 17:32N 24°24' E 117°56'2714976.6
2014-Nov-20 17:28N 22°17' E 113°35'476244.2
2014-Nov-20 17:28N 23°04' E 113°29'194647.6
2014-Nov-20 17:28N 22°45' E 113°33'65745489.9
2014-Nov-20 17:27N 31°07' E 121°28'6497537.8
2014-Nov-20 17:22N 22°54' E 113°35'1046.4
2014-Nov-20 17:08N 23°03' E 113°30'6361096.9
2014-Nov-20 16:33N 30°59' E 121°23'8015068.3
2014-Nov-20 16:33N 32°04' E 120°29'42882.9
2014-Nov-20 16:33N 32°01' E 120°31'131605.8
2014-Nov-20 16:33N 32°01' E 120°47'47935173.0
2014-Nov-20 16:32N 24°25' E 118°02'26221945.7
2014-Nov-20 16:31N 23°04' E 113°29'471738.3
2014-Nov-20 16:29N 22°17' E 113°35'46864.1
2014-Nov-20 16:26N 23°03' E 113°30'1 5.6
2014-Nov-20 16:11N 23°04' E 113°29'1 0.9
2014-Nov-20 15:33N 23°04' E 113°30'6352286248.5
2014-Nov-20 15:33N 30°59' E 121°23'8012013.5
2014-Nov-20 15:33N 32°02' E 120°25'64227.9
2014-Nov-20 15:33N 32°01' E 120°31'47590066.6
2014-Nov-20 15:33N 24°23' E 118°08'443132787.3
2014-Nov-20 15:32N 31°09' E 121°27'647232816.8
2014-Nov-20 15:32N 23°00' E 113°31'31109.1
2014-Nov-20 15:32N 23°03' E 113°30'236.0
2014-Nov-20 15:29N 23°03' E 113°32'63614953.4
2014-Nov-20 15:27N 30°59' E 121°24'6709030.9
2014-Nov-20 15:22N 22°17' E 113°35'69915631.7
2014-Nov-20 15:20N 32°01' E 120°47'2329.3
2014-Nov-20 14:33N 31°59' E 120°21'8057353.0
2014-Nov-20 14:33N 30°59' E 121°23'1554212.1
2014-Nov-20 14:33N 31°13' E 121°30'698326.2
2014-Nov-20 14:33N 32°01' E 120°31'480144120.5
2014-Nov-20 14:33N 24°17' E 118°10'446133821.1
2014-Nov-20 14:32N 31°07' E 121°28'64924073.6
2014-Nov-20 14:31N 22°55' E 113°33'3179.8
2014-Nov-20 14:30N 22°53' E 113°31'6718358.7
2014-Nov-20 14:25N 32°01' E 120°47'66291729.8
2014-Nov-20 14:25N 23°04' E 113°30'471257.1
2014-Nov-20 14:22N 22°17' E 113°35'46335.7
2014-Nov-20 14:14N 23°03' E 113°30'663979.9
2014-Nov-20 13:33N 32°01' E 120°47'6911790.3
2014-Nov-20 13:33N 30°59' E 121°23'7513585.9
2014-Nov-20 13:33N 32°01' E 120°31'141967.9
2014-Nov-20 13:32N 31°56' E 120°16'794371.0
2014-Nov-20 13:31N 31°07' E 121°28'65212829.4
2014-Nov-20 13:28N 23°03' E 113°17'12192.0
2014-Nov-20 13:24N 23°04' E 113°30'262235827.8
2014-Nov-20 13:24N 24°13' E 118°06'2622657.1
2014-Nov-20 13:18N 23°03' E 113°30'461260.7
2014-Nov-20 13:16N 22°17' E 113°35'38221.2
2014-Nov-20 13:06N 22°54' E 113°22'6471199.5
2014-Nov-20 12:34N 30°59' E 121°23'8425193.1
2014-Nov-20 12:33N 31°56' E 120°10'64372333.0
2014-Nov-20 12:33N 23°03' E 113°25'658592087.5
2014-Nov-20 12:33N 32°01' E 120°31'722403.1
2014-Nov-20 12:31N 31°07' E 121°28'644110476.1
2014-Nov-20 12:31N 23°03' E 113°30'4319478.6
2014-Nov-20 12:30N 22°26' E 113°53'19524.0
2014-Nov-20 12:28N 22°17' E 113°35'6997649.4
2014-Nov-20 12:23N 32°01' E 120°47'68417704.3
2014-Nov-20 12:20N 22°25' E 113°53'6748986.7
2014-Nov-20 12:16N 31°21' E 121°32'4722779.2
2014-Nov-20 12:06N 24°08' E 118°00'449833.0
2014-Nov-20 11:33N 30°59' E 121°23'8928976.4
2014-Nov-20 11:33N 31°57' E 120°04'63885048.1
2014-Nov-20 11:33N 23°04' E 113°29'644231898.3
2014-Nov-20 11:33N 31°07' E 121°28'72129773.2
2014-Nov-20 11:33N 32°01' E 120°31'639421.1
2014-Nov-20 11:32N 31°22' E 121°30'6779442.7
2014-Nov-20 11:28N 22°26' E 113°47'40707.7
2014-Nov-20 11:24N 23°03' E 113°30'40236.6
2014-Nov-20 11:14N 22°29' E 113°52'3169184.8
2014-Nov-20 11:12N 24°44' E 119°04'3359509.2
2014-Nov-20 11:10N 22°17' E 113°35'6691092.8
2014-Nov-20 10:34N 30°59' E 121°23'9315968.2
2014-Nov-20 10:33N 31°59' E 119°59'637104295.3
2014-Nov-20 10:33N 23°04' E 113°29'65473616.9
2014-Nov-20 10:32N 32°01' E 120°31'7219965.1
2014-Nov-20 10:32N 31°07' E 121°28'660237456.0
2014-Nov-20 10:32N 22°27' E 113°53'20417.0
2014-Nov-20 10:29N 22°17' E 113°35'9507.5
2014-Nov-20 10:28N 22°17' E 113°44'6888546.9
2014-Nov-20 10:23N 31°27' E 121°28'6586303.3
2014-Nov-20 10:17N 23°04' E 113°30'1 5.6
2014-Nov-20 10:06N 23°03' E 113°30'6361160.3
2014-Nov-20 09:34N 30°59' E 121°23'63595265.8
2014-Nov-20 09:33N 23°04' E 113°30'39139644.8
2014-Nov-20 09:33N 22°29' E 113°47'67552862.7
2014-Nov-20 09:32N 32°01' E 120°31'696357800.3
2014-Nov-20 09:32N 22°11' E 113°38'68119312.1
2014-Nov-20 09:30N 32°03' E 119°56'5015477.4
2014-Nov-20 09:25N 23°55' E 117°48'2432002.6
2014-Nov-20 09:17N 23°03' E 113°30'46374.2
2014-Nov-20 09:10N 22°17' E 113°35'133711406.6
2014-Nov-20 09:03N 00°01' E 114°12'19043881.4
2014-Nov-20 08:34N 30°59' E 121°23'677348119.7
2014-Nov-20 08:33N 22°10' E 113°31'5410830.1
2014-Nov-20 08:33N 23°04' E 113°30'65439919.3
2014-Nov-20 08:32N 32°01' E 120°31'727421.4
2014-Nov-20 08:32N 31°07' E 121°28'9911084.8
2014-Nov-20 08:31N 32°06' E 119°55'6417231.4
2014-Nov-20 08:26N 23°03' E 113°30'46733.5
2014-Nov-20 08:22N 22°17' E 113°35'69917355.8
2014-Nov-20 08:20N 32°01' E 120°47'6623097.3
2014-Nov-20 08:07N 23°04' E 113°30'6351146.0
2014-Nov-20 07:33N 30°59' E 121°23'728690.9
2014-Nov-20 07:33N 31°52' E 120°25'7015802.3
2014-Nov-20 07:33N 31°07' E 121°28'644144888.5
2014-Nov-20 07:32N 23°04' E 113°30'654117762.7
2014-Nov-20 07:32N 32°01' E 120°31'516168988.9
2014-Nov-20 07:32N 23°47' E 117°39'23341913.4
2014-Nov-20 07:32N 23°03' E 113°30'13466.6
2014-Nov-20 07:30N 23°04' E 113°16'13746.9
2014-Nov-20 07:29N 23°04' E 113°30'39543.4
2014-Nov-20 07:25N 22°30' E 113°10'26551.9
2014-Nov-20 07:22N 22°17' E 113°35'69946605.9
2014-Nov-20 07:21N 32°01' E 120°47'86566.7
2014-Nov-20 07:12N 31°03' E 122°03'3554.1
2014-Nov-20 06:33N 30°59' E 121°23'91166.6
2014-Nov-20 06:33N 31°07' E 121°28'644231816.9
2014-Nov-20 06:33N 23°04' E 113°30'65444438.4
2014-Nov-20 06:32N 32°01' E 120°31'522187952.6
2014-Nov-20 06:32N 23°42' E 117°36'2294764.7
2014-Nov-20 06:29N 23°04' E 113°30'4712030.9
2014-Nov-20 06:29N 22°17' E 113°35'46891.7
2014-Nov-20 06:26N 23°03' E 113°30'38176.2
2014-Nov-20 06:13N 22°30' E 113°10'69826435.5
2014-Nov-20 06:11N 31°09' E 121°52'531152.3
2014-Nov-20 06:08N 31°44' E 121°06'4781.4
2014-Nov-20 05:33N 30°60' E 121°25'637114571.2
2014-Nov-20 05:33N 23°04' E 113°30'95159030.1
2014-Nov-20 05:32N 36°54' E 122°26'30858329.0
2014-Nov-20 05:32N 32°01' E 120°31'801242.5
2014-Nov-20 05:28N 31°14' E 121°47'66116070.4
2014-Nov-20 05:25N 23°03' E 113°30'111.6
2014-Nov-20 05:19N 23°04' E 113°29'64417702.1
2014-Nov-20 05:17N 31°07' E 121°28'6825301.4
2014-Nov-20 05:09N 22°30' E 113°10'70112369.3
2014-Nov-20 05:06N 32°01' E 120°47'69127.7
2014-Nov-20 04:33N 31°02' E 121°29'2340542.6
2014-Nov-20 04:33N 31°18' E 121°47'772812.2
2014-Nov-20 04:32N 32°01' E 120°31'65457462.7
2014-Nov-20 04:31N 23°04' E 113°29'129.7
2014-Nov-20 04:30N 23°04' E 113°30'38684.8
2014-Nov-20 04:27N 22°31' E 113°10'37921.7
2014-Nov-20 04:24N 23°03' E 113°30'6442691.5
2014-Nov-20 04:10N 31°07' E 121°28'651167437.7
2014-Nov-20 04:10N 22°51' E 113°34'41441.7
2014-Nov-20 04:04N 22°10' E 113°31'7091384.2
2014-Nov-20 03:33N 31°24' E 121°47'233210.5
2014-Nov-20 03:33N 31°08' E 121°27'648333233.0
2014-Nov-20 03:33N 22°55' E 113°36'64739498.2
2014-Nov-20 03:32N 31°07' E 121°28'644331167.0
2014-Nov-20 03:32N 23°04' E 113°30'654785079.1
2014-Nov-20 03:32N 32°01' E 120°31'30858304.2
2014-Nov-20 03:31N 36°54' E 122°26'9606778.2
2014-Nov-20 03:23N 22°54' E 113°28'9118.6
2014-Nov-20 03:18N 23°03' E 113°30'6633469.8
2014-Nov-20 03:07N 32°01' E 120°47'66314547.6
2014-Nov-20 03:04N 23°04' E 113°29'6471268.4
2014-Nov-20 02:34N 31°11' E 121°28'24868.4
2014-Nov-20 02:32N 31°28' E 121°47'7218506.8
2014-Nov-20 02:32N 32°01' E 120°31'654181179.2
2014-Nov-20 02:31N 23°04' E 113°30'644144892.5
2014-Nov-20 02:31N 31°07' E 121°28'644210829.6
2014-Nov-20 02:31N 23°04' E 113°29'951263369.0
2014-Nov-20 02:31N 36°54' E 122°26'952131756.0
2014-Nov-20 02:30N 23°03' E 113°30'38343.4
2014-Nov-20 02:24N 22°30' E 113°10'27438.4
2014-Nov-20 02:20N 22°09' E 113°28'1078129372.8
2014-Nov-20 02:20N 38°44' E 121°30'40414850.0
2014-Nov-20 02:18N 32°01' E 120°47'66818366.9
2014-Nov-20 02:16N 23°02' E 113°21'660935.9
2014-Nov-20 01:33N 32°01' E 120°31'6817455.7
2014-Nov-20 01:33N 31°15' E 121°30'68975124.9
2014-Nov-20 01:33N 22°30' E 113°10'385730.9
2014-Nov-20 01:32N 23°05' E 113°27'102690069.8
2014-Nov-20 01:32N 38°44' E 121°29'405486570.5
2014-Nov-20 01:31N 32°01' E 120°31'691177760.8
2014-Nov-20 01:31N 22°17' E 113°35'4114769.2
2014-Nov-20 01:31N 22°58' E 113°30'63039.9
2014-Nov-20 01:31N 23°04' E 113°29'951244559.7
2014-Nov-20 01:31N 36°54' E 122°26'35074095.7
2014-Nov-20 01:30N 31°07' E 121°28'641877.5
2014-Nov-20 01:28N 32°01' E 120°47'706158841.0
2014-Nov-20 01:28N 22°11' E 113°32'706774.9
2014-Nov-20 00:33N 32°01' E 120°47'672604394.7
2014-Nov-20 00:33N 22°55' E 113°27'667141230.2
2014-Nov-20 00:33N 31°46' E 121°00'295762.4
2014-Nov-20 00:33N 32°01' E 120°31'724825.9
2014-Nov-20 00:32N 31°07' E 121°28'727639.7
2014-Nov-20 00:31N 32°01' E 120°31'30828405.3
2014-Nov-20 00:31N 36°54' E 122°26'30626225.1
2014-Nov-20 00:30N 32°04' E 120°27'65526784.3
2014-Nov-20 00:29N 23°04' E 113°29'3877.2
2014-Nov-20 00:28N 23°01' E 113°31'3607.3
2014-Nov-20 00:28N 23°04' E 113°29'501001.3
2014-Nov-20 00:25N 22°14' E 113°36'973.3
2014-Nov-20 00:18N 22°09' E 113°29'271016.2
2014-Nov-20 00:16N 22°30' E 113°10'27451.3
2014-Nov-20 00:13N 22°11' E 113°32'7061083.8
2014-Nov-19 23:34N 32°01' E 120°47'30564492.6
2014-Nov-19 23:33N 36°54' E 122°27'961123575.0
2014-Nov-19 23:33N 22°54' E 113°28'665342200.8
2014-Nov-19 23:33N 31°59' E 120°38'141273.8
2014-Nov-19 23:32N 31°60' E 120°22'7014881.2
2014-Nov-19 23:32N 31°21' E 121°31'141084.6
2014-Nov-19 23:31N 31°07' E 121°28'724340.5
2014-Nov-19 23:30N 32°01' E 120°31'65528051.3
2014-Nov-19 23:29N 23°04' E 113°29'024.5
2014-Nov-19 23:28N 23°04' E 113°29'657157755.1
2014-Nov-19 23:28N 31°50' E 120°54'69516152.7
2014-Nov-19 23:25N 22°30' E 113°10'282046.2
2014-Nov-19 23:24N 22°10' E 113°32'157.4
2014-Nov-19 23:24N 22°11' E 113°32'699838.0
2014-Nov-19 22:33N 31°24' E 121°31'5321041.9
2014-Nov-19 22:33N 32°01' E 120°47'7764.5
2014-Nov-19 22:33N 31°55' E 120°52'1762484.0
2014-Nov-19 22:33N 32°01' E 120°33'65522038.4
2014-Nov-19 22:31N 23°04' E 113°29'546058.7
2014-Nov-19 22:30N 22°10' E 113°32'69937552.7
2014-Nov-19 22:29N 32°01' E 120°31'7228966.1
2014-Nov-19 22:29N 31°07' E 121°28'64461024.1
2014-Nov-19 22:29N 23°04' E 113°29'1881256.7
2014-Nov-19 22:20N 23°18' E 116°53'550494927.0
2014-Nov-19 22:20N 31°57' E 120°17'68217178.0
2014-Nov-19 22:17N 22°30' E 113°10'67911375.2
2014-Nov-19 22:14N 31°56' E 120°13'553825.4
2014-Nov-19 21:33N 23°13' E 116°50'562144557.7
2014-Nov-19 21:33N 32°02' E 120°26'62112435.1
2014-Nov-19 21:33N 31°27' E 121°28'4843435.8
2014-Nov-19 21:33N 32°01' E 120°47'64230718.0
2014-Nov-19 21:33N 31°07' E 121°28'64418853.4
2014-Nov-19 21:31N 23°04' E 113°29'0 8.1
2014-Nov-19 21:29N 23°04' E 113°29'62425249.1
2014-Nov-19 21:27N 29°50' E 122°19'66149538.2
2014-Nov-19 21:26N 22°30' E 113°10'110248365.0
2014-Nov-19 21:25N 39°57' E 119°50'4815412.6
2014-Nov-19 21:20N 31°56' E 120°07'68432389.0
2014-Nov-19 21:18N 22°10' E 113°32'51218.9
2014-Nov-19 21:04N 23°01' E 113°31'6591284.6
2014-Nov-19 20:34N 31°31' E 121°22'249664.0
2014-Nov-19 20:33N 31°07' E 121°28'6413571.6
2014-Nov-19 20:33N 32°01' E 120°47'47416897.9
2014-Nov-19 20:31N 39°53' E 119°48'1059146662.9
2014-Nov-19 20:31N 23°04' E 113°29'64858360.8
2014-Nov-19 20:30N 31°59' E 120°22'64822232.9
2014-Nov-19 20:29N 23°04' E 113°29'6385438.9
2014-Nov-19 20:22N 31°58' E 120°03'67613297.2
2014-Nov-19 20:18N 22°30' E 113°10'289116.5
2014-Nov-19 20:18N 22°10' E 113°32'51335.7
2014-Nov-19 20:09N 23°01' E 113°31'6641117.8
2014-Nov-19 19:34N 32°01' E 120°47'70126284.5
2014-Nov-19 19:32N 22°30' E 113°10'382825.5
2014-Nov-19 19:31N 23°04' E 113°29'645122203.9
2014-Nov-19 19:31N 31°57' E 120°18'782295.1
2014-Nov-19 19:29N 31°07' E 121°28'644193237.7
2014-Nov-19 19:29N 23°04' E 113°29'6595468.0
2014-Nov-19 19:21N 31°36' E 121°17'5 5.8
2014-Nov-19 18:33N 31°39' E 121°13'3113744.6
2014-Nov-19 18:33N 32°01' E 120°47'2184.5
2014-Nov-19 18:33N 32°02' E 120°49'66423675.5
2014-Nov-19 18:31N 23°04' E 113°29'64216279.5
2014-Nov-19 18:29N 31°56' E 120°15'7947531.8
2014-Nov-19 18:28N 31°07' E 121°28'682490902.5
2014-Nov-19 18:28N 22°30' E 113°10'388043.3
2014-Nov-19 18:28N 22°16' E 113°49'511184.6
2014-Nov-19 18:26N 23°04' E 113°29'542508.4
2014-Nov-19 18:24N 22°10' E 113°32'68422189.1
2014-Nov-19 18:22N 32°03' E 119°55'677826.4
2014-Nov-19 17:33N 22°30' E 113°10'381003.1
2014-Nov-19 17:31N 23°04' E 113°29'531931.2
2014-Nov-19 17:29N 22°13' E 113°42'69915070.6
2014-Nov-19 17:27N 32°01' E 120°47'6423091.7
2014-Nov-19 17:26N 31°07' E 121°28'64446376.7
2014-Nov-19 17:26N 23°04' E 113°29'542508.9
2014-Nov-19 17:24N 22°10' E 113°32'6857851.9
2014-Nov-19 17:19N 31°56' E 120°11'661866.8
2014-Nov-19 16:33N 22°26' E 113°53'63929501.2
2014-Nov-19 16:32N 29°46' E 122°29'62946201.7
2014-Nov-19 16:31N 23°04' E 113°29'543728.8
2014-Nov-19 16:30N 22°10' E 113°32'541875.1
2014-Nov-19 16:29N 23°04' E 113°29'66310746.9
2014-Nov-19 16:25N 32°01' E 120°47'70111845.9
2014-Nov-19 16:21N 22°30' E 113°10'3845.8
2014-Nov-19 15:31N 23°04' E 113°29'383737.4
2014-Nov-19 15:30N 22°30' E 113°10'38476.5
2014-Nov-19 15:26N 23°04' E 113°29'94710895.7
2014-Nov-19 15:20N 36°50' E 122°25'346437.9
2014-Nov-19 14:33N 31°07' E 121°28'18935.8
2014-Nov-19 14:32N 31°25' E 121°31'65912228.9
2014-Nov-19 14:29N 23°04' E 113°29'6639899.7
2014-Nov-19 14:25N 32°01' E 120°47'70131151.1
2014-Nov-19 14:23N 22°30' E 113°10'38591.0
2014-Nov-19 14:19N 23°04' E 113°29'6536889.2
2014-Nov-19 14:14N 32°02' E 120°26'6977274.4
2014-Nov-19 14:08N 22°10' E 113°32'7111243.8
2014-Nov-19 13:34N 31°28' E 121°47'7831362.5
2014-Nov-19 13:33N 31°59' E 120°22'21773.6
2014-Nov-19 13:32N 32°01' E 120°47'66317672.5
2014-Nov-19 13:29N 23°04' E 113°29'0 1.6
2014-Nov-19 13:19N 23°04' E 113°29'64412335.1
2014-Nov-19 13:16N 31°07' E 121°28'6855043.3
2014-Nov-19 13:08N 22°10' E 113°32'7071209.9
2014-Nov-19 12:33N 31°21' E 121°48'70794291.1
2014-Nov-19 12:32N 22°09' E 113°32'68579599.4
2014-Nov-19 12:32N 31°07' E 121°28'64412466.8
2014-Nov-19 12:29N 23°04' E 113°29'10881.8
2014-Nov-19 12:28N 22°57' E 113°37'6654776.6
2014-Nov-19 12:20N 32°01' E 120°47'6634385.5
2014-Nov-19 12:11N 23°04' E 113°29'6621062.7
2014-Nov-19 11:33N 31°17' E 121°46'70142065.4
2014-Nov-19 11:32N 22°11' E 113°32'535930.0
2014-Nov-19 11:32N 23°04' E 113°29'66319085.8
2014-Nov-19 11:30N 32°01' E 120°47'643250.7
2014-Nov-19 11:28N 31°07' E 121°28'64457955.1
2014-Nov-19 11:28N 23°04' E 113°30'654720.1
2014-Nov-19 10:33N 32°01' E 120°31'85153105.9
2014-Nov-19 10:33N 31°10' E 121°52'66124274.5
2014-Nov-19 10:32N 23°04' E 113°29'644231902.1
2014-Nov-19 10:31N 31°07' E 121°28'6534629.1
2014-Nov-19 10:23N 22°47' E 113°36'36146.3
2014-Nov-19 10:08N 22°11' E 113°32'7011199.1
2014-Nov-19 09:33N 31°07' E 121°58'66224319.5
2014-Nov-19 09:32N 23°04' E 113°29'64438651.9
2014-Nov-19 09:31N 31°07' E 121°28'7210391.9
2014-Nov-19 09:30N 32°01' E 120°31'65414814.0
2014-Nov-19 09:28N 23°04' E 113°30'54227.1
2014-Nov-19 09:13N 22°11' E 113°34'7051058.4
2014-Nov-19 08:33N 32°01' E 120°47'5613348.8
2014-Nov-19 08:33N 31°21' E 121°32'14914.4
2014-Nov-19 08:32N 31°07' E 121°28'7237168.9
2014-Nov-19 08:32N 32°01' E 120°31'65471380.8
2014-Nov-19 08:32N 23°04' E 113°29'5416259.8
2014-Nov-19 08:31N 22°10' E 113°31'371114.8
2014-Nov-19 08:29N 22°18' E 114°09'35672.4
2014-Nov-19 08:26N 22°11' E 113°32'53293.8
2014-Nov-19 08:16N 23°04' E 113°30'652929.7
2014-Nov-19 07:34N 31°15' E 121°31'6701206009.9
2014-Nov-19 07:33N 22°28' E 113°47'221042.8
2014-Nov-19 07:32N 22°11' E 113°32'535124.9
2014-Nov-19 07:32N 23°04' E 113°29'64334036.7
2014-Nov-19 07:30N 30°51' E 121°46'65131239.6
2014-Nov-19 07:29N 23°04' E 113°17'65254568.6
2014-Nov-19 07:29N 31°07' E 121°28'66592113.9
2014-Nov-19 07:28N 22°26' E 113°45'404695.3
2014-Nov-19 07:28N 23°04' E 113°30'638208945.1
2014-Nov-19 07:27N 32°03' E 119°55'6403601.1
2014-Nov-19 07:17N 23°01' E 113°31'645893.7
2014-Nov-19 06:33N 30°50' E 121°49'284313.7
2014-Nov-19 06:33N 31°11' E 121°28'64727711.0
2014-Nov-19 06:32N 23°04' E 113°29'64455214.0
2014-Nov-19 06:31N 31°07' E 121°28'724565.0
2014-Nov-19 06:30N 31°55' E 120°25'4115685.7
2014-Nov-19 06:26N 38°43' E 121°30'106218930.0
2014-Nov-19 06:22N 22°20' E 113°41'9317.6
2014-Nov-19 06:21N 22°28' E 113°47'6628963.8
2014-Nov-19 06:16N 32°03' E 119°55'63871824.3
2014-Nov-19 06:16N 23°04' E 113°30'315.6
2014-Nov-19 06:05N 23°01' E 113°31'4688.5
2014-Nov-19 05:33N 22°16' E 113°39'675221060.8
2014-Nov-19 05:33N 30°48' E 121°51'125149880.5
2014-Nov-19 05:33N 32°03' E 119°55'407209130.2
2014-Nov-19 05:33N 38°42' E 121°31'409735471.1
2014-Nov-19 05:33N 31°58' E 120°23'6487064.6
2014-Nov-19 05:28N 23°04' E 113°30'6399199.6
2014-Nov-19 05:23N 31°57' E 120°06'663149178.1
2014-Nov-19 05:23N 22°27' E 113°47'414751.4
2014-Nov-19 05:23N 23°04' E 113°29'331.0
2014-Nov-19 05:17N 23°01' E 113°31'10278697.0
2014-Nov-19 05:09N 38°42' E 121°29'478791.6
2014-Nov-19 04:33N 30°45' E 121°54'11313529.2
2014-Nov-19 04:33N 31°57' E 120°12'433103829.5
2014-Nov-19 04:33N 38°55' E 117°55'43316576.2
2014-Nov-19 04:31N 32°01' E 120°31'696131918.0
2014-Nov-19 04:31N 22°10' E 113°37'1072428898.6
2014-Nov-19 04:30N 38°42' E 121°30'10541897187.4
2014-Nov-19 04:30N 22°27' E 113°47'68527414.2
2014-Nov-19 04:29N 32°01' E 120°47'6634252.4
2014-Nov-19 04:20N 23°04' E 113°29'43399.4
2014-Nov-19 04:13N 22°27' E 113°53'434685.8
2014-Nov-19 04:13N 23°04' E 113°30'331.0
2014-Nov-19 04:07N 23°01' E 113°31'6641185.9
2014-Nov-19 03:33N 32°01' E 120°47'708364164.7
2014-Nov-19 03:33N 22°09' E 113°30'5549597.3
2014-Nov-19 03:33N 23°05' E 113°28'636381307.6
2014-Nov-19 03:33N 30°59' E 121°22'37134043.0
2014-Nov-19 03:33N 30°57' E 122°06'153266.8
2014-Nov-19 03:33N 30°44' E 121°58'1072918.6
2014-Nov-19 03:31N 32°01' E 120°31'678174257.2
2014-Nov-19 03:30N 22°27' E 113°47'36448.6
2014-Nov-19 03:26N 23°00' E 113°32'15621.8
2014-Nov-19 03:24N 23°04' E 113°16'1255.0
2014-Nov-19 03:11N 23°04' E 113°29'6631068.9
2014-Nov-19 02:33N 32°01' E 120°47'10045030.9
2014-Nov-19 02:33N 30°45' E 122°03'7159.4
2014-Nov-19 02:31N 30°51' E 122°08'1091076.1
2014-Nov-19 02:25N 32°01' E 120°32'661139875.8
2014-Nov-19 02:24N 23°03' E 113°19'9337.2
2014-Nov-19 02:23N 23°04' E 113°29'6658340.1
2014-Nov-19 02:18N 32°02' E 120°50'61934.4
2014-Nov-19 02:14N 31°10' E 121°28'4059.3
2014-Nov-19 01:33N 30°49' E 122°08'109393063.6
2014-Nov-19 01:33N 32°01' E 120°32'65522023.0
2014-Nov-19 01:32N 23°04' E 113°29'66528160.2
2014-Nov-19 01:30N 32°02' E 120°50'68663360.3
2014-Nov-19 01:30N 22°24' E 113°54'6684781.4
2014-Nov-19 01:21N 31°13' E 121°30'4486044.9
2014-Nov-19 01:17N 38°42' E 121°29'107635856.9
2014-Nov-19 01:15N 22°09' E 113°28'68915023.4
2014-Nov-19 01:12N 31°08' E 121°27'4544788.4
2014-Nov-19 01:06N 38°42' E 121°30'40612933.2
2014-Nov-19 01:05N 32°03' E 119°55'4485.6
2014-Nov-19 00:33N 32°01' E 120°47'9738754.2
2014-Nov-19 00:33N 30°55' E 122°10'698167573.8
2014-Nov-19 00:33N 22°11' E 113°34'532235.8
2014-Nov-19 00:32N 23°04' E 113°29'66541993.0
2014-Nov-19 00:31N 32°02' E 120°50'3 2.7
2014-Nov-18 23:33N 32°01' E 120°47'93335330.7
2014-Nov-18 23:33N 30°59' E 122°09'9282781.0
2014-Nov-18 23:33N 32°02' E 120°50'70666895.9
2014-Nov-18 23:33N 22°12' E 113°34'43560.3
2014-Nov-18 23:28N 22°54' E 113°22'12127.5
2014-Nov-18 23:23N 23°04' E 113°29'6576495.4
2014-Nov-18 23:17N 31°21' E 121°33'2433.1
2014-Nov-18 22:33N 31°17' E 121°05'4733549.7
2014-Nov-18 22:33N 32°01' E 120°47'672241993.3
2014-Nov-18 22:33N 22°55' E 113°26'432679.3
2014-Nov-18 22:32N 22°12' E 113°34'700503835.1
2014-Nov-18 22:32N 31°02' E 122°05'66388389.7
2014-Nov-18 22:32N 23°04' E 113°29'65630280.7
2014-Nov-18 22:30N 31°22' E 121°30'102603.8
2014-Nov-18 22:20N 29°49' E 122°20'163208.7
2014-Nov-18 21:33N 31°58' E 120°23'690207014.4
2014-Nov-18 21:33N 22°12' E 113°34'4225265.8
2014-Nov-18 21:33N 22°54' E 113°30'304495.9
2014-Nov-18 21:33N 22°29' E 113°49'67597158.4
2014-Nov-18 21:32N 31°24' E 121°31'535747.8
2014-Nov-18 21:32N 32°01' E 120°47'239.5
2014-Nov-18 21:29N 31°60' E 120°49'821041.2
2014-Nov-18 21:24N 31°05' E 122°00'6766071.8
2014-Nov-18 21:18N 22°27' E 113°53'2330.8
2014-Nov-18 20:33N 22°12' E 113°34'686617847.2
2014-Nov-18 20:33N 31°57' E 120°17'653130500.5
2014-Nov-18 20:33N 22°52' E 113°33'66657096.0
2014-Nov-18 20:32N 31°27' E 121°28'659148240.0
2014-Nov-18 20:32N 23°04' E 113°29'6165328.7
2014-Nov-18 20:25N 29°41' E 122°15'1875253.0
2014-Nov-18 20:23N 32°03' E 119°55'4454.2
2014-Nov-18 19:33N 32°01' E 120°47'70497498.5
2014-Nov-18 19:33N 22°12' E 113°34'68216146.2
2014-Nov-18 19:30N 32°03' E 119°55'827785.5
2014-Nov-18 19:30N 31°30' E 121°23'6736732.1
2014-Nov-18 19:24N 22°33' E 113°48'6246929.9
2014-Nov-18 19:18N 29°42' E 122°12'6154767.9
2014-Nov-18 19:11N 23°04' E 113°29'12155.3
2014-Nov-18 19:06N 22°54' E 113°22'4461.6
2014-Nov-18 18:23N 22°12' E 113°34'534508.7
2014-Nov-18 18:23N 23°04' E 113°29'61813652.0
2014-Nov-18 18:20N 29°36' E 122°22'1400.7
2014-Nov-18 18:20N 29°36' E 122°22'54815300.0
2014-Nov-18 18:18N 38°43' E 121°35'4044187.9
2014-Nov-18 18:12N 32°01' E 120°47'67911204.8
2014-Nov-18 18:08N 22°54' E 113°15'463080.6
2014-Nov-18 18:07N 22°11' E 113°32'4 6.1
2014-Nov-18 17:32N 22°10' E 113°36'237.1
2014-Nov-18 17:29N 22°12' E 113°34'69818468.6
2014-Nov-18 17:27N 31°30' E 121°23'1162731.6
2014-Nov-18 17:24N 29°42' E 122°12'61522123.0
2014-Nov-18 17:23N 23°04' E 113°29'6632796.9
2014-Nov-18 17:08N 32°01' E 120°47'6981169.6
2014-Nov-18 16:33N 22°13' E 113°44'69218046.6
2014-Nov-18 16:30N 31°28' E 121°27'43526975.1
2014-Nov-18 16:29N 38°42' E 121°38'40886296.4
2014-Nov-18 16:29N 32°03' E 119°55'823047.3
2014-Nov-18 16:27N 31°30' E 121°23'69822031.4
2014-Nov-18 16:26N 22°12' E 113°34'427122.9
2014-Nov-18 16:25N 22°53' E 113°34'61845433.1
2014-Nov-18 16:24N 29°42' E 122°12'61522348.1
2014-Nov-18 16:23N 23°04' E 113°29'10273192.7
2014-Nov-18 16:03N 38°43' E 121°34'408810.9
2014-Nov-18 15:33N 32°03' E 119°55'63923221.6
2014-Nov-18 15:32N 23°04' E 113°29'525724.9
2014-Nov-18 15:31N 22°12' E 113°34'69835880.9
2014-Nov-18 15:30N 31°30' E 121°23'1161278.8
2014-Nov-18 15:24N 29°42' E 122°12'1571520.5
2014-Nov-18 15:18N 32°01' E 120°47'6722974.5
2014-Nov-18 15:05N 22°55' E 113°27'6671228.0
2014-Nov-18 14:32N 31°30' E 121°23'822080.9
2014-Nov-18 14:30N 32°03' E 119°55'6498949.0
2014-Nov-18 14:25N 22°55' E 113°25'6732057.8
2014-Nov-18 14:06N 32°01' E 120°47'6701159.3
2014-Nov-18 13:31N 22°54' E 113°31'773.0
2014-Nov-18 13:25N 22°57' E 113°38'6598790.7
2014-Nov-18 13:21N 31°30' E 121°23'43766.9
2014-Nov-18 13:17N 32°01' E 120°47'66834337.4
2014-Nov-18 13:16N 22°58' E 113°30'3 4.0
2014-Nov-18 12:32N 23°00' E 113°31'4842.1
2014-Nov-18 12:32N 23°04' E 113°29'65820976.4
2014-Nov-18 12:30N 31°30' E 121°23'6594634.6
2014-Nov-18 12:21N 23°02' E 113°31'8262.3
2014-Nov-18 12:19N 22°57' E 113°38'659834.9
2014-Nov-18 11:32N 31°30' E 121°23'6582370279.2
2014-Nov-18 11:32N 23°04' E 113°29'0 3.7
2014-Nov-18 11:27N 23°04' E 113°30'0 6.7
2014-Nov-18 11:23N 23°04' E 113°29'6632723.7
2014-Nov-18 11:08N 32°01' E 120°47'0 0.0
2014-Nov-18 10:33N 32°01' E 120°47'66349691.6
2014-Nov-18 10:33N 23°04' E 113°30'6582907.5
2014-Nov-18 10:19N 31°30' E 121°23'111143.2
2014-Nov-18 09:32N 29°51' E 122°22'62732221.0
2014-Nov-18 09:31N 23°04' E 113°30'66034937.5
2014-Nov-18 09:30N 31°08' E 121°54'77826.8
2014-Nov-18 09:24N 32°01' E 120°47'441095.2
2014-Nov-18 09:22N 31°30' E 121°23'69519535.8
2014-Nov-18 09:20N 22°14' E 113°36'5064.2
2014-Nov-18 08:33N 23°04' E 113°30'660198103.9
2014-Nov-18 08:33N 31°14' E 121°47'69430825.4
2014-Nov-18 08:32N 22°17' E 113°35'69336139.3
2014-Nov-18 08:31N 31°30' E 121°23'65811176.6
2014-Nov-18 08:27N 23°04' E 113°30'0 5.9
2014-Nov-18 08:23N 23°04' E 113°29'663298228.3
2014-Nov-18 08:22N 32°01' E 120°47'6695624.3
2014-Nov-18 08:15N 23°03' E 113°19'10285789.9
2014-Nov-18 08:05N 38°40' E 121°30'440835.2
2014-Nov-18 07:33N 31°21' E 121°48'665217789.1
2014-Nov-18 07:33N 23°04' E 113°30'0 0.5
2014-Nov-18 07:27N 23°04' E 113°30'39318.3
2014-Nov-18 07:20N 22°29' E 113°47'3911685.0
2014-Nov-18 07:20N 23°04' E 113°29'66358187.3
2014-Nov-18 07:19N 32°01' E 120°47'441044.9
2014-Nov-18 07:16N 31°30' E 121°23'658894.5
2014-Nov-18 06:32N 23°04' E 113°30'040.5
2014-Nov-18 06:32N 23°04' E 113°29'49740.8
2014-Nov-18 06:28N 22°18' E 113°46'49825.2
2014-Nov-18 06:24N 23°04' E 113°30'6634228.7
2014-Nov-18 06:15N 32°01' E 120°47'44790.9
2014-Nov-18 06:11N 31°30' E 121°23'6581025.3
2014-Nov-18 05:33N 23°04' E 113°30'6586527.8
2014-Nov-18 05:27N 31°30' E 121°23'69085674.7
2014-Nov-18 05:26N 22°15' E 113°43'51161.9
2014-Nov-18 05:08N 23°04' E 113°29'1 0.9
2014-Nov-18 04:33N 23°04' E 113°30'5261998.0
2014-Nov-18 04:33N 22°13' E 113°40'522010.9
2014-Nov-18 04:32N 23°04' E 113°29'66328742.4
2014-Nov-18 04:30N 32°01' E 120°47'1575777.5
2014-Nov-18 04:29N 29°42' E 122°12'1195154.9
2014-Nov-18 04:27N 31°32' E 121°20'658296126.7
2014-Nov-18 04:27N 23°04' E 113°30'659736.9
2014-Nov-18 03:33N 31°35' E 121°18'659169426.9
2014-Nov-18 03:33N 23°04' E 113°29'0 0.5
2014-Nov-18 03:27N 23°04' E 113°29'541019.3
2014-Nov-18 03:23N 22°11' E 113°38'70411109.7
2014-Nov-18 03:20N 32°01' E 120°47'6783182.2
2014-Nov-18 03:07N 22°45' E 113°31'2035.4
2014-Nov-18 02:34N 23°04' E 113°29'65960872.3
2014-Nov-18 02:33N 31°38' E 121°15'6596347.4
2014-Nov-18 02:27N 23°04' E 113°29'12618.8
2014-Nov-18 02:25N 23°04' E 113°16'123194.1
2014-Nov-18 02:25N 23°04' E 113°29'66379528.4
2014-Nov-18 02:25N 32°01' E 120°47'70612158.7
2014-Nov-18 02:21N 22°11' E 113°33'6843338.5
2014-Nov-18 02:09N 32°04' E 119°56'6401064.4
2014-Nov-18 01:33N 23°04' E 113°29'66350758.8
2014-Nov-18 01:32N 32°01' E 120°47'66477099.8
2014-Nov-18 01:32N 23°05' E 113°26'380.3
2014-Nov-18 01:30N 23°04' E 113°29'7317.2
2014-Nov-18 01:28N 22°57' E 113°30'66582529.8
2014-Nov-18 01:28N 31°40' E 121°12'4203067.5
2014-Nov-18 01:20N 38°40' E 121°31'106511271.6
2014-Nov-18 01:14N 22°17' E 113°35'106415634.2
2014-Nov-18 01:10N 38°39' E 121°31'10221665.2
2014-Nov-18 00:33N 23°04' E 113°29'640460447.5
2014-Nov-18 00:33N 32°04' E 119°56'64220288.9
2014-Nov-18 00:31N 22°59' E 113°33'66516632.1
2014-Nov-18 00:29N 32°01' E 120°47'700104974.0
2014-Nov-18 00:28N 22°16' E 113°36'695125117.4
2014-Nov-18 00:28N 31°42' E 121°08'41019698.5
2014-Nov-18 00:27N 25°06' E 119°07'33815028.1
2014-Nov-18 00:25N 22°55' E 113°26'10170.5
2014-Nov-18 00:22N 23°04' E 113°29'501197.7
2014-Nov-18 00:19N 22°14' E 113°36'6796775.4
2014-Nov-18 00:13N 32°03' E 119°56'4037283.4
2014-Nov-18 00:10N 38°39' E 121°29'404666.1
2014-Nov-17 23:33N 32°02' E 119°58'638164143.7
2014-Nov-17 23:33N 23°04' E 113°29'659263760.2
2014-Nov-17 23:33N 31°44' E 121°06'41152899.6
2014-Nov-17 23:33N 25°06' E 119°09'33212077.9
2014-Nov-17 23:31N 22°59' E 113°33'64212109.6
2014-Nov-17 23:28N 32°04' E 119°56'64012513.1
2014-Nov-17 23:25N 23°04' E 113°29'9736244.4
2014-Nov-17 23:15N 37°33' E 121°57'3382625.3
2014-Nov-17 23:08N 32°00' E 120°45'6611152.5
2014-Nov-17 22:33N 23°04' E 113°29'63811537.3
2014-Nov-17 22:30N 31°59' E 120°01'6739.0
2014-Nov-17 22:29N 32°04' E 119°56'644193295.0
2014-Nov-17 22:29N 23°02' E 113°23'66356805.0
2014-Nov-17 22:28N 31°60' E 120°40'6808742.3
2014-Nov-17 22:24N 22°28' E 113°46'100110625.9
2014-Nov-17 22:18N 37°34' E 121°57'3511694.0
2014-Nov-17 22:06N 31°47' E 120°58'6571215.2
2014-Nov-17 21:33N 23°04' E 113°29'65532305.2
2014-Nov-17 21:32N 32°01' E 120°33'67518411.9
2014-Nov-17 21:30N 22°18' E 114°09'100322417.2
2014-Nov-17 21:27N 37°34' E 121°60'34915336.3
2014-Nov-17 21:26N 31°57' E 120°09'4413.3
2014-Nov-17 21:25N 31°58' E 120°05'926.8
2014-Nov-17 21:04N 32°04' E 119°56'6391244.4
2014-Nov-17 20:33N 23°04' E 113°29'65469292.0
2014-Nov-17 20:33N 32°01' E 120°31'147387.7
2014-Nov-17 20:33N 31°57' E 120°15'5720.1
2014-Nov-17 20:32N 31°57' E 120°09'121233.6
2014-Nov-17 20:32N 32°04' E 119°56'34515125.0
2014-Nov-17 20:30N 37°34' E 121°58'72496.0
2014-Nov-17 20:22N 38°42' E 121°29'4086563.3
2014-Nov-17 20:18N 31°54' E 120°53'408552.0
2014-Nov-17 19:33N 38°42' E 121°30'406730991.9
2014-Nov-17 19:33N 31°60' E 120°20'648466364.0
2014-Nov-17 19:33N 23°04' E 113°29'654168280.6
2014-Nov-17 19:33N 32°01' E 120°31'294985.2
2014-Nov-17 19:33N 32°04' E 119°56'16365.2
2014-Nov-17 19:30N 31°57' E 120°13'6596246.7
2014-Nov-17 19:24N 22°33' E 113°47'6792126.1
2014-Nov-17 19:05N 31°60' E 120°49'2752.4
2014-Nov-17 18:34N 31°58' E 120°17'195209.1
2014-Nov-17 18:33N 32°04' E 119°56'639121167.9
2014-Nov-17 18:33N 23°04' E 113°29'65434646.0
2014-Nov-17 18:32N 32°01' E 120°31'68714731.4
2014-Nov-17 18:29N 22°15' E 113°47'69347105.6
2014-Nov-17 18:28N 32°00' E 120°45'3395472.8
2014-Nov-17 18:24N 37°35' E 121°55'343403.6
2014-Nov-17 17:33N 32°00' E 120°22'649333719.9
2014-Nov-17 17:33N 23°04' E 113°29'65727193.6
2014-Nov-17 17:32N 31°60' E 120°39'5938.3
2014-Nov-17 17:32N 32°01' E 120°33'694138715.6
2014-Nov-17 17:31N 22°13' E 113°41'67990502.6
2014-Nov-17 17:31N 32°04' E 119°56'34615976.7
2014-Nov-17 17:29N 37°35' E 121°59'3 3.3
2014-Nov-17 16:34N 37°35' E 122°03'3421232595.5
2014-Nov-17 16:34N 32°01' E 120°33'655235828.5
2014-Nov-17 16:33N 23°04' E 113°29'654784433.5
2014-Nov-17 16:33N 32°03' E 120°26'65898741.1
2014-Nov-17 16:33N 22°57' E 113°33'659790708.0
2014-Nov-17 16:33N 32°01' E 120°31'291801.9
2014-Nov-17 16:32N 32°04' E 119°56'68327953.4
2014-Nov-17 16:30N 22°10' E 113°36'44505.7
2014-Nov-17 16:25N 22°54' E 113°35'421887.3
2014-Nov-17 16:24N 22°12' E 113°34'5362.7
2014-Nov-17 15:33N 23°04' E 113°29'654785309.2
2014-Nov-17 15:33N 32°01' E 120°31'341204736.4
2014-Nov-17 15:33N 37°35' E 121°59'339407133.7
2014-Nov-17 15:33N 32°01' E 120°49'663341122.0
2014-Nov-17 15:33N 23°03' E 113°31'654214000.7
2014-Nov-17 15:33N 32°02' E 120°28'27476.0
2014-Nov-17 15:29N 32°04' E 119°56'68313431.4
2014-Nov-17 15:26N 22°12' E 113°34'69919663.2
2014-Nov-17 15:24N 32°04' E 120°32'4011727.7
2014-Nov-17 15:10N 38°42' E 121°30'107321569.8
2014-Nov-17 15:07N 22°11' E 113°32'5190.3
2014-Nov-17 14:33N 23°03' E 113°31'655168385.2
2014-Nov-17 14:33N 32°01' E 120°31'654112185.3
2014-Nov-17 14:33N 23°04' E 113°29'650180029.8
2014-Nov-17 14:33N 31°59' E 120°27'9540.0
2014-Nov-17 14:32N 32°01' E 120°36'700157474.4
2014-Nov-17 14:31N 22°11' E 113°32'227.5
2014-Nov-17 14:26N 22°12' E 113°34'68325604.3
2014-Nov-17 14:25N 32°04' E 119°56'65110708.5
2014-Nov-17 14:21N 22°54' E 113°22'1214.9
2014-Nov-17 13:33N 23°04' E 113°29'3262.4
2014-Nov-17 13:33N 23°03' E 113°31'517074.4
2014-Nov-17 13:32N 22°12' E 113°34'683204824.8
2014-Nov-17 13:32N 32°04' E 119°56'229977.2
2014-Nov-17 13:32N 31°58' E 120°22'82289.1
2014-Nov-17 13:32N 32°01' E 120°31'66323627.9
2014-Nov-17 13:30N 22°54' E 113°30'66837581.3
2014-Nov-17 13:29N 32°00' E 120°43'2324.5
2014-Nov-17 12:33N 31°57' E 120°16'645464341.5
2014-Nov-17 12:33N 23°01' E 113°32'4434.3
2014-Nov-17 12:33N 23°04' E 113°29'654112188.0
2014-Nov-17 12:32N 32°01' E 120°31'66379585.4
2014-Nov-17 12:32N 22°51' E 113°34'12751.0
2014-Nov-17 12:31N 23°03' E 113°31'511414.7
2014-Nov-17 12:29N 22°12' E 113°34'2 8.9
2014-Nov-17 12:13N 22°11' E 113°32'5176.4
2014-Nov-17 11:33N 23°03' E 113°31'655589371.4
2014-Nov-17 11:33N 32°01' E 120°31'65622292.6
2014-Nov-17 11:31N 23°04' E 113°25'97718129.7
2014-Nov-17 11:28N 37°34' E 122°00'979587470.3
2014-Nov-17 11:28N 22°57' E 113°37'6415075.4
2014-Nov-17 11:20N 31°56' E 120°09'1378.7
2014-Nov-17 11:11N 32°04' E 119°56'68315173.1
2014-Nov-17 11:08N 22°12' E 113°35'5392.1
2014-Nov-17 10:33N 23°04' E 113°29'24470.9
2014-Nov-17 10:33N 23°03' E 113°31'112729.7
2014-Nov-17 10:33N 23°03' E 113°19'5599131.9
2014-Nov-17 10:33N 22°10' E 113°37'69669638.6
2014-Nov-17 10:32N 32°01' E 120°31'34131477.3
2014-Nov-17 10:32N 37°35' E 121°58'3492542.5
2014-Nov-17 10:24N 31°57' E 120°14'10143.5
2014-Nov-17 10:19N 31°58' E 120°02'637830.2
2014-Nov-17 09:33N 23°04' E 113°29'1129.8
2014-Nov-17 09:33N 23°04' E 113°29'653167907.9
2014-Nov-17 09:33N 32°02' E 120°27'7674.8
2014-Nov-17 09:32N 31°59' E 120°19'69147816.4
2014-Nov-17 09:31N 22°10' E 113°32'2669.1
2014-Nov-17 09:09N 22°28' E 113°53'292067.2
2014-Nov-17 09:08N 22°51' E 113°33'6581150.3
2014-Nov-17 08:33N 31°59' E 120°22'30926512.8
2014-Nov-17 08:33N 36°50' E 122°29'949683292.3
2014-Nov-17 08:33N 23°06' E 113°26'651585506.7
2014-Nov-17 08:33N 32°00' E 120°24'65066895.9
2014-Nov-17 08:32N 23°04' E 113°29'973389339.9
2014-Nov-17 08:32N 37°36' E 121°51'10217955.9
2014-Nov-17 08:24N 22°11' E 113°32'698825.2
2014-Nov-17 07:33N 32°02' E 120°30'655785723.3
2014-Nov-17 07:33N 23°06' E 113°26'31976.7
2014-Nov-17 07:33N 23°04' E 113°29'97551615.3
2014-Nov-17 07:32N 37°36' E 121°55'349251483.9
2014-Nov-17 07:32N 31°56' E 120°16'6873840.3
2014-Nov-17 07:21N 22°11' E 113°32'477.6
2014-Nov-17 07:18N 22°13' E 113°35'69418363.3
2014-Nov-17 07:16N 31°23' E 121°30'6643400.4
2014-Nov-17 07:04N 23°03' E 113°18'815.6
2014-Nov-17 06:33N 23°06' E 113°26'3161.8
2014-Nov-17 06:32N 23°04' E 113°29'63913538.1
2014-Nov-17 06:30N 31°56' E 120°09'68313578.8
2014-Nov-17 06:26N 22°11' E 113°35'70039975.8
2014-Nov-17 06:25N 32°01' E 120°36'6773866.6
2014-Nov-17 06:15N 22°19' E 114°09'655935.7
2014-Nov-17 05:33N 30°50' E 121°47'643165437.8
2014-Nov-17 05:33N 23°04' E 113°29'3589.7
2014-Nov-17 05:32N 23°06' E 113°26'554373.8
2014-Nov-17 05:32N 22°12' E 113°35'67457762.4
2014-Nov-17 05:31N 30°59' E 121°23'22761.1
2014-Nov-17 05:29N 31°21' E 121°27'4426094.3
2014-Nov-17 05:25N 38°43' E 121°30'1052378677.1
2014-Nov-17 05:25N 22°28' E 113°53'65812874.6
2014-Nov-17 05:22N 31°57' E 120°03'3473913.8
2014-Nov-17 05:16N 37°31' E 121°57'33611096.5
2014-Nov-17 05:14N 32°01' E 120°44'661965.6
2014-Nov-17 04:33N 23°06' E 113°26'63765550.8
2014-Nov-17 04:33N 31°59' E 119°60'637254873.6
2014-Nov-17 04:33N 23°04' E 113°29'64522750.3
2014-Nov-17 04:31N 30°48' E 121°51'39865.1
2014-Nov-17 04:28N 31°21' E 121°27'69528741.0
2014-Nov-17 04:27N 22°21' E 113°18'18897.3
2014-Nov-17 04:26N 22°11' E 113°35'7043254.7
2014-Nov-17 04:13N 31°59' E 120°51'6631012.4
2014-Nov-17 03:33N 23°04' E 113°29'64492788.6
2014-Nov-17 03:33N 30°45' E 121°54'64577401.2
2014-Nov-17 03:32N 23°06' E 113°26'552321.3
2014-Nov-17 03:31N 22°11' E 113°35'332136.4
2014-Nov-17 03:30N 22°19' E 114°09'66925621.2
2014-Nov-17 03:29N 31°21' E 121°27'43199.2
2014-Nov-17 03:16N 31°54' E 120°54'70543747.2
2014-Nov-17 03:15N 22°14' E 113°23'50679.1
2014-Nov-17 03:10N 23°04' E 113°16'1016.1
2014-Nov-17 02:33N 23°06' E 113°26'977125630.9
2014-Nov-17 02:33N 37°32' E 122°11'987710527.5
2014-Nov-17 02:33N 22°53' E 113°30'653587827.7
2014-Nov-17 02:33N 30°44' E 121°58'646332135.6
2014-Nov-17 02:33N 23°04' E 113°29'8283.4
2014-Nov-17 02:31N 23°03' E 113°21'533172.1
2014-Nov-17 02:30N 22°11' E 113°35'69313940.2
2014-Nov-17 02:27N 31°21' E 121°27'852578.7
2014-Nov-17 02:25N 32°00' E 119°59'638741.3
2014-Nov-17 01:33N 23°06' E 113°26'64636.2
2014-Nov-17 01:33N 23°03' E 113°20'829994.5
2014-Nov-17 01:33N 23°04' E 113°29'65481235.0
2014-Nov-17 01:33N 31°21' E 121°27'66334575.0
2014-Nov-17 01:32N 22°51' E 113°33'98621385.1
2014-Nov-17 01:29N 37°30' E 122°10'102123873.2
2014-Nov-17 01:26N 22°11' E 113°35'68127556.5
2014-Nov-17 01:25N 31°58' E 120°04'532061.5
2014-Nov-17 01:23N 31°46' E 121°04'660793.8
2014-Nov-17 00:33N 23°06' E 113°26'660182796.7
2014-Nov-17 00:33N 31°42' E 121°10'66048470.7
2014-Nov-17 00:32N 23°04' E 113°29'1412723.9
2014-Nov-17 00:32N 22°51' E 113°33'98617401.7
2014-Nov-17 00:29N 37°30' E 122°10'3474843.6
2014-Nov-17 00:25N 31°57' E 120°10'3201603.5
2014-Nov-17 00:13N 36°56' E 122°28'4206073.4
2014-Nov-17 00:09N 29°56' E 122°17'6271073.1
2014-Nov-16 23:33N 23°06' E 113°26'31456.8
2014-Nov-16 23:33N 23°04' E 113°29'1450863.1
2014-Nov-16 23:33N 22°51' E 113°33'982294550.2
2014-Nov-16 23:33N 37°31' E 121°57'446102.5
2014-Nov-16 23:33N 36°54' E 122°28'31830083.9
2014-Nov-16 23:32N 31°57' E 120°15'3462295.8
2014-Nov-16 23:23N 37°30' E 122°10'9751180.9
2014-Nov-16 22:33N 23°06' E 113°26'52641.6
2014-Nov-16 22:33N 23°02' E 113°22'65286952.8
2014-Nov-16 22:33N 31°59' E 120°19'65645446.0
2014-Nov-16 22:32N 22°51' E 113°33'66821085.2
2014-Nov-16 22:30N 31°33' E 121°21'3599796.5
2014-Nov-16 22:28N 37°30' E 122°10'1273.9
2014-Nov-16 22:18N 37°35' E 121°57'3742496.3
2014-Nov-16 22:09N 31°21' E 121°27'67111.6
2014-Nov-16 21:33N 32°01' E 120°24'651111599.6
2014-Nov-16 21:33N 23°06' E 113°26'656112395.0
2014-Nov-16 21:33N 31°22' E 121°28'66353079.6
2014-Nov-16 21:32N 22°51' E 113°33'98614489.6
2014-Nov-16 21:28N 37°30' E 122°10'34312116.2
2014-Nov-16 21:26N 32°05' E 119°55'6493419.1
2014-Nov-16 21:15N 22°53' E 113°30'6674031.1
2014-Nov-16 21:05N 31°27' E 121°29'6681268.7
2014-Nov-16 20:33N 22°51' E 113°33'664217310.9
2014-Nov-16 20:33N 32°02' E 120°29'6551178646.8
2014-Nov-16 20:33N 23°06' E 113°26'97511361.7
2014-Nov-16 20:28N 37°30' E 122°10'9751074.0
2014-Nov-16 19:33N 23°06' E 113°26'656262508.3
2014-Nov-16 19:33N 32°01' E 120°34'66539924.0
2014-Nov-16 19:32N 22°51' E 113°33'98613447.0
2014-Nov-16 19:28N 37°30' E 122°10'9861084.0
2014-Nov-16 18:33N 22°51' E 113°33'648777094.5
2014-Nov-16 18:33N 32°00' E 119°59'638229657.5
2014-Nov-16 18:33N 23°06' E 113°26'65840839.7
2014-Nov-16 18:32N 32°00' E 120°39'274.7
2014-Nov-16 18:30N 32°00' E 120°37'3385771.3
2014-Nov-16 18:27N 37°30' E 122°10'11124.1
2014-Nov-16 18:21N 37°34' E 121°57'2 3.0
2014-Nov-16 17:33N 37°34' E 122°00'3491257858.5
2014-Nov-16 17:33N 31°58' E 120°03'648111031.8
2014-Nov-16 17:33N 22°51' E 113°33'165843.0
2014-Nov-16 17:33N 23°06' E 113°26'66127685.7
2014-Nov-16 17:31N 32°01' E 120°44'66718769.0
2014-Nov-16 17:29N 22°53' E 113°34'98325278.4
2014-Nov-16 17:27N 37°30' E 122°10'3801966.2
2014-Nov-16 17:15N 31°12' E 121°29'6563152.5
2014-Nov-16 17:03N 22°53' E 113°30'6521318.2
2014-Nov-16 16:33N 31°08' E 121°28'6452322732.7
2014-Nov-16 16:33N 23°06' E 113°26'975319168.0
2014-Nov-16 16:33N 37°30' E 122°10'352140677.7
2014-Nov-16 16:33N 31°42' E 121°09'541801.1
2014-Nov-16 16:31N 31°57' E 120°09'35118885.2
2014-Nov-16 16:30N 37°35' E 122°04'34118312.4
2014-Nov-16 16:29N 31°60' E 120°50'67236111.1
2014-Nov-16 16:28N 22°51' E 113°33'316.2
2014-Nov-16 16:15N 22°53' E 113°30'0 0.0
2014-Nov-16 15:33N 22°53' E 113°30'31242.4
2014-Nov-16 15:33N 22°51' E 113°33'65180867.6
2014-Nov-16 15:33N 31°56' E 120°14'3473184.9
2014-Nov-16 15:26N 37°30' E 122°10'3417217.3
2014-Nov-16 15:23N 31°55' E 120°53'3452884.6
2014-Nov-16 15:16N 37°35' E 122°05'99316243.5
2014-Nov-16 15:12N 22°53' E 113°17'1523.0
2014-Nov-16 14:33N 23°06' E 113°26'647465736.1
2014-Nov-16 14:33N 31°59' E 120°20'819062.3
2014-Nov-16 14:33N 30°59' E 121°24'64452710.0
2014-Nov-16 14:32N 22°51' E 113°33'66716907.7
2014-Nov-16 14:30N 31°50' E 120°55'34948355.7
2014-Nov-16 14:29N 37°35' E 122°01'3741390.5
2014-Nov-16 14:13N 31°21' E 121°27'6647092.9
2014-Nov-16 14:07N 22°55' E 113°25'5244.9
2014-Nov-16 14:06N 22°53' E 113°30'1 1.3
2014-Nov-16 13:33N 22°54' E 113°30'660297173.2
2014-Nov-16 13:33N 32°02' E 120°24'65280934.9
2014-Nov-16 13:33N 23°06' E 113°26'161244.0
2014-Nov-16 13:32N 22°51' E 113°33'6638903.1
2014-Nov-16 13:27N 31°21' E 121°27'32210.7
2014-Nov-16 13:18N 31°46' E 121°03'20498.6
2014-Nov-16 13:16N 31°33' E 121°21'659932.8
2014-Nov-16 12:33N 23°06' E 113°26'656236252.9
2014-Nov-16 12:33N 32°04' E 120°29'5834606.0
2014-Nov-16 12:33N 31°31' E 121°24'668267224.5
2014-Nov-16 12:33N 22°51' E 113°33'41515.1
2014-Nov-16 12:28N 22°09' E 113°32'69630197.2
2014-Nov-16 12:27N 31°22' E 121°27'3283128.2
2014-Nov-16 12:20N 36°46' E 122°28'3112753.4
2014-Nov-16 12:14N 31°42' E 121°10'6618980.9
2014-Nov-16 12:09N 22°57' E 113°37'6611112.5
2014-Nov-16 11:34N 31°39' E 121°15'660139787.0
2014-Nov-16 11:33N 23°06' E 113°27'1611397.5
2014-Nov-16 11:33N 22°51' E 113°33'666342769.0
2014-Nov-16 11:33N 32°03' E 120°34'3056692.2
2014-Nov-16 11:30N 36°53' E 122°27'33510583.2
2014-Nov-16 11:28N 31°21' E 121°27'3731273.1
2014-Nov-16 11:11N 37°34' E 121°58'17469.2
2014-Nov-16 11:09N 37°31' E 122°19'361615.7
2014-Nov-16 10:33N 31°33' E 121°20'659338945.2
2014-Nov-16 10:33N 23°06' E 113°27'66282232.4
2014-Nov-16 10:33N 31°60' E 120°49'3401223188.9
2014-Nov-16 10:33N 37°35' E 121°59'37451791.7
2014-Nov-16 10:32N 31°21' E 121°27'335172220.0
2014-Nov-16 10:32N 36°53' E 122°26'9604979.1
2014-Nov-16 10:21N 22°51' E 113°33'18409.7
2014-Nov-16 10:18N 23°03' E 113°19'66813212.3
2014-Nov-16 10:15N 31°31' E 121°28'6656002.0
2014-Nov-16 10:08N 22°55' E 113°35'66341167.5
2014-Nov-16 10:07N 31°40' E 121°11'6591155.8
2014-Nov-16 09:33N 23°06' E 113°27'660792012.5
2014-Nov-16 09:33N 31°32' E 121°24'66547915.2
2014-Nov-16 09:32N 22°54' E 113°35'6601187527.3
2014-Nov-16 09:32N 31°22' E 121°27'660107982.1
2014-Nov-16 09:32N 23°02' E 113°22'66566451.3
2014-Nov-16 09:31N 31°40' E 121°11'67656594.5
2014-Nov-16 09:31N 22°19' E 114°09'1007906581.7
2014-Nov-16 09:31N 37°31' E 122°21'171324.4
2014-Nov-16 09:30N 37°37' E 122°01'36912781.2
2014-Nov-16 09:28N 31°29' E 121°27'6635103.1
2014-Nov-16 09:20N 22°55' E 113°35'18329.3
2014-Nov-16 09:17N 23°03' E 113°18'591045.6
2014-Nov-16 09:14N 22°06' E 113°33'5988.4
2014-Nov-16 08:33N 23°05' E 113°29'950342161.5
2014-Nov-16 08:33N 36°54' E 122°27'953857555.6
2014-Nov-16 08:33N 23°04' E 113°25'661216206.4
2014-Nov-16 08:33N 31°24' E 121°31'676347420.5
2014-Nov-16 08:33N 22°26' E 113°53'3339976.1
2014-Nov-16 08:33N 22°55' E 113°35'133901.4
2014-Nov-16 08:33N 23°02' E 113°24'98652175.4
2014-Nov-16 08:32N 37°32' E 122°19'3649106.0
2014-Nov-16 08:29N 31°31' E 121°19'121887.0
2014-Nov-16 08:29N 31°40' E 121°11'242079.9
2014-Nov-16 08:28N 31°22' E 121°27'72590.5
2014-Nov-16 08:21N 31°57' E 120°14'17301.5
2014-Nov-16 08:17N 32°00' E 120°34'6758351.6
2014-Nov-16 08:13N 22°19' E 114°09'5889.7
2014-Nov-16 07:33N 23°04' E 113°29'65494212.7
2014-Nov-16 07:33N 32°02' E 120°29'10476.8
2014-Nov-16 07:32N 31°58' E 120°18'645154781.1
2014-Nov-16 07:32N 23°05' E 113°29'2167.0
2014-Nov-16 07:31N 23°04' E 113°30'65578551.3
2014-Nov-16 07:30N 31°21' E 121°27'24389.6
2014-Nov-16 07:27N 31°40' E 121°11'121092.0
2014-Nov-16 07:26N 31°31' E 121°19'3668967.4
2014-Nov-16 07:24N 37°36' E 122°02'343440.8
2014-Nov-16 07:23N 37°39' E 121°19'3784901.1
2014-Nov-16 07:18N 31°21' E 121°27'6973406.2
2014-Nov-16 07:06N 22°06' E 113°33'107842646.0
2014-Nov-16 07:05N 38°44' E 121°28'67127.6
2014-Nov-16 06:33N 37°37' E 121°25'356213827.6
2014-Nov-16 06:33N 31°40' E 121°11'65984675.1
2014-Nov-16 06:33N 23°05' E 113°29'97443289.3
2014-Nov-16 06:31N 37°33' E 122°00'979207406.1
2014-Nov-16 06:31N 22°58' E 113°33'660132044.8
2014-Nov-16 06:31N 31°31' E 121°19'66562966.8
2014-Nov-16 06:30N 22°51' E 113°34'64561132.4
2014-Nov-16 06:29N 31°08' E 121°16'6841053.2
2014-Nov-16 06:29N 31°59' E 120°22'673189.0
2014-Nov-16 06:28N 31°21' E 121°27'1104098.9
2014-Nov-16 06:26N 29°38' E 122°12'61817643.1
2014-Nov-16 06:24N 22°19' E 114°09'66828991.8
2014-Nov-16 06:23N 31°21' E 121°27'4437735.0
2014-Nov-16 06:19N 38°44' E 121°30'410534.1
2014-Nov-16 05:33N 31°58' E 120°21'67240584.7
2014-Nov-16 05:33N 31°21' E 121°27'7014084.3
2014-Nov-16 05:33N 31°56' E 120°15'6011277.5
2014-Nov-16 05:33N 31°31' E 121°19'656472588.4
2014-Nov-16 05:33N 23°05' E 113°29'97363716.0
2014-Nov-16 05:32N 37°32' E 122°01'35498123.9
2014-Nov-16 05:32N 31°40' E 121°11'66829683.7
2014-Nov-16 05:30N 22°55' E 113°27'6702.7
2014-Nov-16 05:30N 22°51' E 113°34'64319130.1
2014-Nov-16 05:28N 31°08' E 121°12'4567780.0
2014-Nov-16 05:24N 38°44' E 121°30'1771249.0
2014-Nov-16 05:16N 39°05' E 117°44'1791311.8
2014-Nov-16 05:07N 38°44' E 121°33'456801.7
2014-Nov-16 04:33N 31°08' E 121°10'633759990.4
2014-Nov-16 04:33N 23°05' E 113°29'950310965.4
2014-Nov-16 04:33N 36°53' E 122°27'32765307.0
2014-Nov-16 04:33N 31°31' E 121°19'433778722.0
2014-Nov-16 04:33N 38°44' E 121°29'173124776.9
2014-Nov-16 04:33N 39°04' E 117°48'99762961.1
2014-Nov-16 04:32N 22°51' E 113°34'66216327.4
2014-Nov-16 04:29N 31°22' E 121°28'374149611.1
2014-Nov-16 04:29N 37°36' E 121°25'274473.0
2014-Nov-16 04:29N 37°33' E 121°60'373149378.5
2014-Nov-16 04:29N 31°21' E 121°27'2428398.2
2014-Nov-16 04:29N 31°40' E 121°11'4245733.0
2014-Nov-16 04:24N 38°44' E 121°34'5295291.1
2014-Nov-16 04:18N 29°56' E 122°17'108144.1
2014-Nov-16 03:33N 31°31' E 121°19'2814350.2
2014-Nov-16 03:33N 31°05' E 121°10'632151715.8
2014-Nov-16 03:33N 23°03' E 113°31'987355146.8
2014-Nov-16 03:33N 39°05' E 117°46'9841181175.7
2014-Nov-16 03:33N 23°05' E 113°29'1026527788.5
2014-Nov-16 03:32N 38°44' E 121°33'1037533531.6
2014-Nov-16 03:32N 22°51' E 113°34'66763196.4
2014-Nov-16 03:32N 31°40' E 121°11'3556527.8
2014-Nov-16 03:28N 37°36' E 121°25'37435434.2
2014-Nov-16 03:28N 31°22' E 121°28'66324098.8
2014-Nov-16 03:26N 23°04' E 113°16'9762637.1
2014-Nov-16 03:04N 38°53' E 117°44'9741918.8
2014-Nov-16 02:33N 23°04' E 113°25'9741752848.7
2014-Nov-16 02:33N 38°52' E 117°47'972291635.2
2014-Nov-16 02:33N 23°05' E 113°29'654107037.1
2014-Nov-16 02:33N 31°22' E 121°28'124004.1
2014-Nov-16 02:33N 31°31' E 121°19'121990.4
2014-Nov-16 02:32N 31°22' E 121°27'2442654.5
2014-Nov-16 02:32N 31°40' E 121°11'667141262.6
2014-Nov-16 02:32N 22°51' E 113°34'637208569.1
2014-Nov-16 02:32N 31°01' E 121°11'67347540.6
2014-Nov-16 02:31N 22°06' E 113°33'595619.6
2014-Nov-16 02:30N 23°03' E 113°16'96930600.0
2014-Nov-16 02:28N 37°36' E 121°25'99251760.2
2014-Nov-16 02:27N 22°19' E 114°08'99814966.6
2014-Nov-16 02:23N 37°30' E 121°57'776790.0
2014-Nov-16 02:23N 38°44' E 121°30'4679129.6
2014-Nov-16 02:20N 30°58' E 121°16'630817.2
2014-Nov-16 01:33N 23°03' E 113°30'633189983.5
2014-Nov-16 01:33N 30°59' E 121°19'247115.7
2014-Nov-16 01:33N 31°22' E 121°28'66245842.5
2014-Nov-16 01:32N 22°51' E 113°34'665113940.8
2014-Nov-16 01:32N 31°31' E 121°19'128761.2
2014-Nov-16 01:32N 31°22' E 121°27'24507.8
2014-Nov-16 01:29N 31°40' E 121°11'665140875.8
2014-Nov-16 01:28N 23°02' E 113°21'9681742828.2
2014-Nov-16 01:28N 37°36' E 121°25'69705.9
2014-Nov-16 01:23N 38°44' E 121°33'73860.1
2014-Nov-16 01:18N 37°33' E 121°56'97915389.4
2014-Nov-16 01:14N 22°55' E 113°35'1298.8
2014-Nov-16 01:07N 23°06' E 113°37'6481165.2
2014-Nov-16 00:33N 31°22' E 121°27'1036713.8
2014-Nov-16 00:33N 31°31' E 121°22'434390205.4
2014-Nov-16 00:33N 38°44' E 121°31'465418089.3
2014-Nov-16 00:33N 30°60' E 121°24'673134661.7
2014-Nov-16 00:33N 22°27' E 113°15'3817206.5
2014-Nov-16 00:33N 23°03' E 113°31'63745856.5
2014-Nov-16 00:32N 30°60' E 121°25'431320.6
2014-Nov-16 00:30N 31°40' E 121°11'2442787.7
2014-Nov-16 00:30N 31°22' E 121°28'662216708.5
2014-Nov-16 00:30N 22°51' E 113°34'97448679.8
2014-Nov-16 00:28N 37°36' E 121°25'97010944.4
2014-Nov-16 00:23N 22°55' E 113°35'481775.9
2014-Nov-16 00:22N 22°19' E 114°10'4860.6
2014-Nov-15 23:34N 22°22' E 113°17'4312843.4
2014-Nov-15 23:33N 23°03' E 113°31'10271848516.8
2014-Nov-15 23:33N 38°44' E 121°29'6930852.3
2014-Nov-15 23:33N 37°36' E 121°25'355116313.0
2014-Nov-15 23:33N 31°40' E 121°11'667126391.9
2014-Nov-15 23:33N 22°51' E 113°34'648388625.5
2014-Nov-15 23:33N 31°01' E 121°29'658591771.3
2014-Nov-15 23:33N 22°25' E 113°53'67797557.5
2014-Nov-15 23:32N 31°27' E 121°28'67712125.9
2014-Nov-15 23:29N 22°29' E 113°48'67234571.3
2014-Nov-15 23:28N 31°22' E 121°28'6583768.3
2014-Nov-15 23:17N 22°55' E 113°35'658906.4
2014-Nov-15 22:34N 31°22' E 121°28'655261939.9
2014-Nov-15 22:33N 23°03' E 113°31'964315535.6
2014-Nov-15 22:33N 37°36' E 121°25'390200707.2
2014-Nov-15 22:33N 31°05' E 121°28'68537937.7
2014-Nov-15 22:32N 22°16' E 113°21'701168179.6
2014-Nov-15 22:32N 31°24' E 121°31'66214709.9
2014-Nov-15 22:29N 22°55' E 113°35'66325135.3
2014-Nov-15 22:27N 31°40' E 121°11'7042328.1
2014-Nov-15 22:09N 22°06' E 113°33'915.0
2014-Nov-15 21:33N 22°11' E 113°25'5223417.4
2014-Nov-15 21:33N 23°03' E 113°31'977390782.5
2014-Nov-15 21:33N 37°36' E 121°58'37496060.0
2014-Nov-15 21:33N 31°23' E 121°30'1381.1
2014-Nov-15 21:33N 31°24' E 121°31'373191638.4
2014-Nov-15 21:33N 37°37' E 121°27'35710354.0
2014-Nov-15 21:31N 31°40' E 121°11'3441158.7
2014-Nov-15 21:31N 31°09' E 121°27'66213382.8
2014-Nov-15 21:28N 22°27' E 113°53'727.3
2014-Nov-15 21:11N 22°33' E 113°48'3454.6
2014-Nov-15 20:33N 23°03' E 113°31'649129725.3
2014-Nov-15 20:33N 31°12' E 121°30'69070966.0
2014-Nov-15 20:32N 22°10' E 113°31'70214870.6
2014-Nov-15 20:30N 31°40' E 121°11'66351909.9
2014-Nov-15 20:29N 22°55' E 113°35'442116.7
2014-Nov-15 20:28N 22°11' E 113°32'102510629.9
2014-Nov-15 20:22N 37°37' E 121°59'376270883.4
2014-Nov-15 20:22N 31°22' E 121°28'3359142.2
2014-Nov-15 20:20N 36°53' E 122°25'9961290.3
2014-Nov-15 19:33N 22°10' E 113°36'5314711.8
2014-Nov-15 19:33N 23°03' E 113°31'953131997.2
2014-Nov-15 19:33N 36°52' E 122°33'342615085.5
2014-Nov-15 19:33N 31°15' E 121°30'306805.5
2014-Nov-15 19:32N 31°40' E 121°11'35946131.6
2014-Nov-15 19:32N 37°37' E 121°58'9925249.3
2014-Nov-15 19:21N 22°44' E 113°40'38516.6
2014-Nov-15 19:16N 22°06' E 113°33'1115.2
2014-Nov-15 18:33N 22°12' E 113°44'5347330.7
2014-Nov-15 18:33N 23°03' E 113°31'659158083.7
2014-Nov-15 18:33N 31°24' E 121°31'8389.2
2014-Nov-15 18:32N 31°16' E 121°33'311204.1
2014-Nov-15 18:30N 31°40' E 121°11'1243363.7
2014-Nov-15 18:28N 29°52' E 122°22'6383338.6
2014-Nov-15 18:17N 22°27' E 113°52'67510126.9
2014-Nov-15 18:13N 31°24' E 121°31'6665067.2
2014-Nov-15 18:05N 22°51' E 113°34'6671279.6
2014-Nov-15 17:34N 31°40' E 121°11'659593496.8
2014-Nov-15 17:33N 23°03' E 113°31'61418904.5
2014-Nov-15 17:31N 29°42' E 122°12'1131459.1
2014-Nov-15 17:27N 31°28' E 121°26'11786.6
2014-Nov-15 17:26N 31°19' E 121°33'660395715.7
2014-Nov-15 17:26N 22°55' E 113°35'98390713.0
2014-Nov-15 17:25N 37°36' E 121°59'102434127.1
2014-Nov-15 17:23N 22°11' E 113°32'68527392.0
2014-Nov-15 17:22N 32°05' E 119°56'4485398.0
2014-Nov-15 17:17N 24°39' E 119°06'31988218.3
2014-Nov-15 17:17N 22°56' E 113°37'6616067.4
2014-Nov-15 17:10N 31°29' E 121°26'66622625.0
2014-Nov-15 17:08N 22°51' E 113°34'62018300.9
2014-Nov-15 17:06N 29°42' E 122°12'6141120.5
2014-Nov-15 16:33N 23°03' E 113°31'1221036.4
2014-Nov-15 16:33N 22°51' E 113°34'66659917.8
2014-Nov-15 16:33N 31°31' E 121°21'141017.2
2014-Nov-15 16:32N 31°21' E 121°32'105125709.2
2014-Nov-15 16:32N 29°42' E 122°12'13066752.3
2014-Nov-15 16:32N 31°40' E 121°11'35736768.0
2014-Nov-15 16:31N 37°36' E 121°59'986136499.7
2014-Nov-15 16:31N 22°55' E 113°27'99024408.0
2014-Nov-15 16:28N 37°35' E 122°12'98419347.8
2014-Nov-15 16:25N 22°57' E 113°38'61720392.9
2014-Nov-15 16:23N 29°38' E 122°21'1251067.3
2014-Nov-15 16:16N 31°32' E 121°21'768578.7
2014-Nov-15 16:16N 32°01' E 119°58'639904.0
2014-Nov-15 15:34N 23°03' E 113°31'123236.4
2014-Nov-15 15:33N 22°51' E 113°34'64696973.0
2014-Nov-15 15:33N 31°59' E 120°01'35338492.7
2014-Nov-15 15:32N 37°33' E 122°21'982321422.2
2014-Nov-15 15:32N 23°05' E 113°28'659339037.4
2014-Nov-15 15:32N 31°40' E 121°11'7137.3
2014-Nov-15 15:29N 31°36' E 121°17'700140069.2
2014-Nov-15 15:29N 22°11' E 113°33'44425.2
2014-Nov-15 15:23N 22°55' E 113°35'17349.3
2014-Nov-15 15:20N 22°53' E 113°17'67848780.7
2014-Nov-15 15:19N 31°05' E 121°60'662871.4
2014-Nov-15 14:33N 23°03' E 113°31'121619.8
2014-Nov-15 14:33N 22°51' E 113°34'6671201054.2
2014-Nov-15 14:33N 31°39' E 121°13'13916086.5
2014-Nov-15 14:32N 29°34' E 122°23'646122381.4
2014-Nov-15 14:32N 22°12' E 113°40'69658291.2
2014-Nov-15 14:31N 31°40' E 121°11'66315113.0
2014-Nov-15 14:29N 22°55' E 113°35'66415510.5
2014-Nov-15 14:26N 31°40' E 121°12'70410930.8
2014-Nov-15 14:22N 22°06' E 113°33'49281.3
2014-Nov-15 14:12N 22°53' E 113°17'65412267.7
2014-Nov-15 14:08N 31°56' E 120°08'5289.7
2014-Nov-15 13:33N 31°42' E 121°08'32392.3
2014-Nov-15 13:33N 31°40' E 121°11'6591187001.1
2014-Nov-15 13:33N 23°03' E 113°31'50594.1
2014-Nov-15 13:28N 22°15' E 113°48'6725147.7
2014-Nov-15 13:20N 31°56' E 120°09'639815.7
2014-Nov-15 12:33N 23°03' E 113°31'65928602.6
2014-Nov-15 12:32N 31°40' E 121°11'66729663.6
2014-Nov-15 12:31N 22°54' E 113°29'5272.3
2014-Nov-15 12:30N 22°52' E 113°33'6673593.6
2014-Nov-15 12:18N 31°46' E 121°02'6632804.7
2014-Nov-15 12:04N 22°55' E 113°35'916.8
2014-Nov-15 11:31N 23°03' E 113°31'65923979.5
2014-Nov-15 11:30N 31°40' E 121°11'552990.4
2014-Nov-15 11:29N 31°56' E 120°09'64711831.8
2014-Nov-15 11:25N 22°54' E 113°30'6652539.3
2014-Nov-15 11:10N 31°47' E 120°58'722719.2
2014-Nov-15 11:08N 30°50' E 121°49'6451116.3
2014-Nov-15 10:34N 23°03' E 113°31'5615541.8
2014-Nov-15 10:33N 22°19' E 114°08'655147364.3
2014-Nov-15 10:33N 30°50' E 121°45'587237.5
2014-Nov-15 10:33N 31°40' E 121°11'704195012.5
2014-Nov-15 10:32N 22°06' E 113°34'6873116.6
2014-Nov-15 10:19N 31°56' E 120°09'40475.7
2014-Nov-15 10:14N 31°48' E 120°55'66131715.5
2014-Nov-15 10:13N 22°55' E 113°36'645982.3
2014-Nov-15 09:33N 30°50' E 121°45'64392523.7
2014-Nov-15 09:33N 23°03' E 113°31'97550130.9
2014-Nov-15 09:32N 37°34' E 121°58'98071996.7
2014-Nov-15 09:31N 22°56' E 113°33'644110361.9
2014-Nov-15 09:31N 31°56' E 120°09'64731499.7
2014-Nov-15 09:29N 22°52' E 113°33'452705.3
2014-Nov-15 09:28N 22°06' E 113°35'70328444.8
2014-Nov-15 09:27N 31°40' E 121°11'847.1
2014-Nov-15 09:17N 31°45' E 121°03'412572.7
2014-Nov-15 08:33N 25°05' E 119°07'3721338933.6
2014-Nov-15 08:33N 30°50' E 121°45'643144589.1
2014-Nov-15 08:33N 23°03' E 113°30'180.1
2014-Nov-15 08:33N 23°03' E 113°31'97555702.6
2014-Nov-15 08:31N 37°33' E 121°60'35555523.8
2014-Nov-15 08:31N 31°40' E 121°11'7017417.9
2014-Nov-15 08:25N 22°11' E 113°33'35387.7
2014-Nov-15 08:20N 22°19' E 114°10'65923500.1
2014-Nov-15 08:18N 31°58' E 120°03'63812766.1
2014-Nov-15 08:15N 23°06' E 113°26'3245.9
2014-Nov-15 07:33N 23°37' E 113°31'630133391.0
2014-Nov-15 07:33N 31°50' E 120°54'10880.2
2014-Nov-15 07:32N 31°60' E 120°49'269495.3
2014-Nov-15 07:32N 31°40' E 121°11'587457.3
2014-Nov-15 07:32N 30°50' E 121°45'40218089.9
2014-Nov-15 07:30N 37°32' E 122°01'98012248.9
2014-Nov-15 07:26N 22°55' E 113°35'1129.2
2014-Nov-15 07:04N 23°04' E 113°29'2 3.3
2014-Nov-15 06:33N 23°03' E 113°31'10281233767.2
2014-Nov-15 06:33N 38°44' E 121°33'41374294.2
2014-Nov-15 06:33N 31°57' E 120°11'7810432.5
2014-Nov-15 06:33N 30°57' E 121°10'301155.6
2014-Nov-15 06:31N 30°50' E 121°45'581502.2
2014-Nov-15 06:29N 31°40' E 121°11'5519736.9
2014-Nov-15 06:29N 31°56' E 120°09'291275.7
2014-Nov-15 06:27N 32°00' E 120°43'66426861.8
2014-Nov-15 06:26N 22°55' E 113°35'1164.8
2014-Nov-15 06:16N 23°04' E 113°29'6633975.8
2014-Nov-15 06:06N 31°59' E 120°49'6631217.4
2014-Nov-15 05:33N 23°03' E 113°31'6272257178.1
2014-Nov-15 05:33N 30°57' E 121°10'4314069.7
2014-Nov-15 05:33N 31°40' E 121°11'3541834.5
2014-Nov-15 05:33N 31°60' E 120°36'9113599.7
2014-Nov-15 05:32N 30°50' E 121°45'10213533.6
2014-Nov-15 05:32N 31°57' E 120°15'6438832.9
2014-Nov-15 05:28N 23°04' E 113°29'66114074.3
2014-Nov-15 05:25N 32°00' E 120°44'6658117.0
2014-Nov-15 05:20N 22°55' E 113°35'659852.5
2014-Nov-15 04:34N 32°01' E 120°31'655589362.9
2014-Nov-15 04:33N 23°05' E 113°28'64315429.1
2014-Nov-15 04:31N 30°50' E 121°45'58976.7
2014-Nov-15 04:27N 31°40' E 121°11'351203.9
2014-Nov-15 04:26N 31°60' E 120°36'1526800.2
2014-Nov-15 04:26N 31°57' E 120°19'68287630.9
2014-Nov-15 04:25N 22°18' E 113°36'66050543.9
2014-Nov-15 04:24N 30°57' E 121°10'6274615.3
2014-Nov-15 04:16N 23°04' E 113°29'65637512.8
2014-Nov-15 04:15N 32°05' E 120°29'662952.8
2014-Nov-15 03:33N 23°02' E 113°21'657147821.3
2014-Nov-15 03:33N 32°01' E 120°25'65219551.2
2014-Nov-15 03:31N 23°03' E 113°30'643154324.2
2014-Nov-15 03:31N 30°51' E 121°45'9620295.8
2014-Nov-15 03:31N 32°02' E 120°30'7313132.8
2014-Nov-15 03:30N 30°57' E 121°10'432091.4
2014-Nov-15 03:29N 31°40' E 121°11'66014859.3
2014-Nov-15 03:26N 23°01' E 113°31'6465527.8
2014-Nov-15 03:19N 31°57' E 120°19'5 6.9
2014-Nov-15 02:33N 32°00' E 120°24'7310541.4
2014-Nov-15 02:33N 30°58' E 121°09'627564051.6
2014-Nov-15 02:33N 23°04' E 113°29'133903.6
2014-Nov-15 02:33N 23°03' E 113°15'655124150.7
2014-Nov-15 02:32N 31°58' E 120°20'654470745.9
2014-Nov-15 02:32N 23°04' E 113°16'667480150.7
2014-Nov-15 02:32N 31°40' E 121°11'555193.0
2014-Nov-15 02:32N 31°56' E 120°09'105125925.4
2014-Nov-15 02:32N 30°51' E 121°45'9927489.3
2014-Nov-15 02:31N 31°57' E 120°19'66028298.9
2014-Nov-15 02:30N 22°53' E 113°17'6864572.0
2014-Nov-15 02:21N 31°27' E 121°48'677105963.4
2014-Nov-15 02:21N 23°03' E 113°19'673857.9
2014-Nov-15 01:34N 31°23' E 121°47'67697399.3
2014-Nov-15 01:33N 23°03' E 113°15'65173217.9
2014-Nov-15 01:33N 31°56' E 120°15'1018656.8
2014-Nov-15 01:32N 30°51' E 121°45'10529059.7
2014-Nov-15 01:32N 31°56' E 120°09'92258.9
2014-Nov-15 01:31N 31°57' E 120°19'473528.8
2014-Nov-15 01:31N 31°40' E 121°11'69518799.0
2014-Nov-15 01:28N 22°17' E 113°36'479491.2
2014-Nov-15 01:28N 23°03' E 113°25'6304074.1
2014-Nov-15 01:19N 31°02' E 121°05'62746060.7
2014-Nov-15 01:18N 23°04' E 113°29'102734878.8
2014-Nov-15 01:16N 38°44' E 121°31'10331448.2
2014-Nov-15 00:33N 23°03' E 113°15'653783501.6
2014-Nov-15 00:33N 30°51' E 121°45'286698.9
2014-Nov-15 00:33N 31°19' E 121°45'663298277.9
2014-Nov-15 00:33N 23°04' E 113°29'1768249.1
2014-Nov-15 00:32N 23°03' E 116°41'568107616.5
2014-Nov-15 00:31N 31°57' E 120°19'4117627.9
2014-Nov-15 00:28N 38°44' E 121°29'102649934.0
2014-Nov-15 00:27N 23°04' E 113°29'659113032.2
2014-Nov-15 00:27N 31°41' E 121°11'5532772.0
2014-Nov-15 00:26N 31°56' E 120°09'685671.7
2014-Nov-15 00:26N 31°04' E 121°01'6848735.6
2014-Nov-15 00:26N 31°56' E 120°09'16207.0
2014-Nov-15 00:21N 32°07' E 119°55'121152.6
2014-Nov-14 23:33N 30°51' E 121°45'235406.9
2014-Nov-14 23:33N 31°13' E 121°49'671804713.9
2014-Nov-14 23:33N 23°03' E 113°15'648145797.5
2014-Nov-14 23:33N 32°04' E 119°56'7846517.8
2014-Nov-14 23:33N 31°06' E 120°57'527948526.8
2014-Nov-14 23:33N 23°09' E 116°46'55717740.3
2014-Nov-14 23:31N 31°57' E 120°03'63847824.6
2014-Nov-14 23:30N 23°04' E 113°29'0 8.8
2014-Nov-14 23:27N 23°04' E 113°29'6392889.7
2014-Nov-14 23:14N 31°56' E 120°09'639944.5
2014-Nov-14 22:33N 23°04' E 113°29'643128591.7
2014-Nov-14 22:33N 30°51' E 121°45'649779106.5
2014-Nov-14 22:33N 23°03' E 113°21'6441158327.9
2014-Nov-14 22:33N 32°01' E 119°58'55232035.0
2014-Nov-14 22:32N 23°15' E 116°51'545654434.3
2014-Nov-14 22:32N 31°08' E 121°55'1021036.3
2014-Nov-14 22:26N 31°56' E 120°09'6394936.3
2014-Nov-14 22:18N 23°04' E 113°29'381356.3
2014-Nov-14 22:16N 22°29' E 113°46'6785238.4
2014-Nov-14 22:08N 32°01' E 120°36'3 5.3
2014-Nov-14 21:33N 32°03' E 120°33'659103084.1
2014-Nov-14 21:33N 23°04' E 113°26'32633.9
2014-Nov-14 21:33N 23°04' E 113°29'643462997.5
2014-Nov-14 21:33N 30°50' E 121°46'64312933.6
2014-Nov-14 21:30N 23°04' E 113°29'59207.3
2014-Nov-14 21:13N 22°18' E 114°09'6607616.6
2014-Nov-14 21:08N 31°56' E 120°09'6401118.9
2014-Nov-14 20:33N 23°01' E 113°31'645331762.9
2014-Nov-14 20:33N 30°46' E 121°53'644128844.6
2014-Nov-14 20:33N 23°04' E 113°29'6541178042.6
2014-Nov-14 20:33N 32°04' E 120°27'660396068.9
2014-Nov-14 20:33N 23°02' E 113°21'66526610.3
2014-Nov-14 20:31N 31°41' E 121°11'65928258.2
2014-Nov-14 20:30N 23°04' E 113°29'6393560.7
2014-Nov-14 20:19N 31°56' E 120°09'119156.7
2014-Nov-14 19:33N 30°43' E 122°00'654181225.8
2014-Nov-14 19:33N 22°54' E 113°30'1120061.1
2014-Nov-14 19:33N 23°05' E 113°28'1259.9
2014-Nov-14 19:33N 23°04' E 113°29'6481167186.4
2014-Nov-14 19:33N 31°60' E 120°22'65475946.9
2014-Nov-14 19:32N 22°55' E 113°33'6456154.4
2014-Nov-14 19:26N 31°56' E 120°09'551368.7
2014-Nov-14 19:24N 31°41' E 121°11'368039.8
2014-Nov-14 19:23N 31°08' E 121°28'645766.0
2014-Nov-14 18:33N 23°04' E 113°29'175423.0
2014-Nov-14 18:33N 22°49' E 113°36'66841442.5
2014-Nov-14 18:32N 31°41' E 121°11'7136319.1
2014-Nov-14 18:32N 30°48' E 122°06'1213128.9
2014-Nov-14 18:29N 31°56' E 120°09'6714021.6
2014-Nov-14 18:19N 22°16' E 113°48'5 7.1
2014-Nov-14 17:34N 22°14' E 113°43'525857.6
2014-Nov-14 17:33N 23°04' E 113°29'63967641.4
2014-Nov-14 17:32N 31°56' E 120°09'556796.2
2014-Nov-14 17:32N 31°41' E 121°11'670344670.8
2014-Nov-14 17:32N 22°44' E 113°40'23711.4
2014-Nov-14 17:30N 23°04' E 113°29'46150.7
2014-Nov-14 17:11N 22°21' E 113°11'46432.3
2014-Nov-14 17:05N 23°03' E 113°32'2 4.0
2014-Nov-14 16:33N 23°04' E 113°29'188.5
2014-Nov-14 16:33N 23°04' E 113°29'0 8.1
2014-Nov-14 16:30N 23°04' E 113°29'65931650.4
2014-Nov-14 16:29N 31°41' E 121°11'674269606.7
2014-Nov-14 16:29N 22°38' E 113°41'171471.0
2014-Nov-14 16:28N 22°26' E 113°53'66127654.7
2014-Nov-14 16:26N 31°56' E 120°09'68259881.1
2014-Nov-14 16:26N 22°10' E 113°36'41199.1
2014-Nov-14 16:13N 22°51' E 113°34'6477390.2
2014-Nov-14 16:08N 31°60' E 120°00'814.5
2014-Nov-14 15:33N 31°56' E 120°09'72961.0
2014-Nov-14 15:33N 31°59' E 120°02'641769430.3
2014-Nov-14 15:33N 23°03' E 113°25'13246.6
2014-Nov-14 15:30N 22°56' E 113°36'66243359.4
2014-Nov-14 15:29N 31°41' E 121°11'6744183.3
2014-Nov-14 15:20N 22°38' E 113°41'66372340.8
2014-Nov-14 15:19N 32°13' E 119°54'64637508.9
2014-Nov-14 15:18N 23°04' E 113°29'0 3.0
2014-Nov-14 15:09N 23°04' E 113°29'0 0.0
2014-Nov-14 14:33N 23°04' E 113°29'659139617.1
2014-Nov-14 14:33N 31°41' E 121°11'67239784.6
2014-Nov-14 14:33N 32°03' E 119°57'1315112.2
2014-Nov-14 14:33N 31°56' E 120°09'661793352.7
2014-Nov-14 14:33N 22°25' E 113°53'661476039.3
2014-Nov-14 14:33N 31°57' E 120°06'65632775.6
2014-Nov-14 14:32N 22°38' E 113°41'28369.1
2014-Nov-14 14:27N 23°04' E 113°29'2314377.2
2014-Nov-14 14:24N 23°44' E 117°37'5172859.3
2014-Nov-14 14:13N 32°06' E 119°56'2112.4
2014-Nov-14 12:33N 31°58' E 120°18'121899.4
2014-Nov-14 12:33N 31°58' E 120°04'7807.7
2014-Nov-14 12:32N 31°56' E 120°12'64452669.0
2014-Nov-14 12:31N 23°03' E 113°25'64349272.0
2014-Nov-14 12:31N 31°57' E 120°11'64152423.8
2014-Nov-14 12:30N 23°04' E 113°29'65941643.7
2014-Nov-14 12:29N 31°41' E 121°11'27356.9
2014-Nov-14 12:24N 31°60' E 120°49'4471323.3
2014-Nov-14 12:04N 24°42' E 119°05'444867.5
2014-Nov-14 11:34N 32°00' E 120°24'53833.9
2014-Nov-14 11:33N 31°58' E 120°18'481253.2
2014-Nov-14 11:31N 31°41' E 121°11'6665600.5
2014-Nov-14 11:24N 23°03' E 113°19'9164.1
2014-Nov-14 11:21N 23°04' E 113°29'0 7.6
2014-Nov-14 11:18N 23°04' E 113°29'0 0.4
2014-Nov-14 10:34N 23°04' E 113°29'655336719.7
2014-Nov-14 10:33N 32°02' E 120°30'414477.3
2014-Nov-14 10:33N 32°01' E 120°25'17657485.7
2014-Nov-14 10:33N 34°50' E 119°26'77352490.4
2014-Nov-14 10:32N 22°59' E 113°39'65864005.4
2014-Nov-14 10:32N 31°41' E 121°11'27396.0
2014-Nov-14 10:28N 31°60' E 120°49'4963876.9
2014-Nov-14 10:20N 24°06' E 117°59'79536679.1
2014-Nov-14 10:19N 36°49' E 122°20'94473896.7
2014-Nov-14 10:18N 23°04' E 113°29'6382846.1
2014-Nov-14 10:04N 31°60' E 120°00'6381233.1
2014-Nov-14 09:33N 23°04' E 113°30'656472592.2
2014-Nov-14 09:33N 32°01' E 120°35'3233.3
2014-Nov-14 09:33N 32°02' E 120°32'863483.0
2014-Nov-14 09:31N 31°09' E 121°52'46421992.0
2014-Nov-14 09:30N 24°11' E 118°04'47845328.7
2014-Nov-14 09:29N 31°58' E 120°03'1686733.5
2014-Nov-14 09:28N 34°45' E 119°34'176879.6
2014-Nov-14 09:16N 31°60' E 120°49'662937.2
2014-Nov-14 08:33N 23°04' E 113°30'6571183267.6
2014-Nov-14 08:33N 32°00' E 120°39'263005.8
2014-Nov-14 08:33N 31°57' E 120°08'473851934.5
2014-Nov-14 08:33N 24°15' E 118°10'48475794.1
2014-Nov-14 08:32N 32°01' E 120°42'7220029.6
2014-Nov-14 08:32N 31°14' E 121°47'666199669.1
2014-Nov-14 08:32N 23°07' E 113°18'2012075.9
2014-Nov-14 08:32N 22°55' E 113°35'66728928.3
2014-Nov-14 08:30N 31°60' E 120°49'2796295.3
2014-Nov-14 08:30N 31°41' E 121°11'65910984.6
2014-Nov-14 08:27N 23°04' E 113°30'93936340.1
2014-Nov-14 08:25N 36°43' E 122°19'94017819.2
2014-Nov-14 08:22N 22°58' E 113°39'662819.1
2014-Nov-14 07:34N 31°18' E 121°47'663125629.9
2014-Nov-14 07:33N 23°04' E 113°30'6622384817.3
2014-Nov-14 07:33N 32°01' E 120°47'2920911.6
2014-Nov-14 07:33N 31°57' E 120°13'5126388.0
2014-Nov-14 07:33N 31°41' E 121°11'6596227.5
2014-Nov-14 07:27N 23°04' E 113°30'111397.6
2014-Nov-14 07:26N 22°54' E 113°35'66723546.0
2014-Nov-14 07:24N 32°01' E 120°45'319.9
2014-Nov-14 07:15N 31°60' E 120°49'4786063.7
2014-Nov-14 07:11N 24°20' E 118°20'463747.0
2014-Nov-14 06:33N 31°24' E 121°47'8312430.5
2014-Nov-14 06:33N 31°59' E 120°19'6462325439.0
2014-Nov-14 06:33N 23°04' E 113°30'6598504.7
2014-Nov-14 06:28N 31°41' E 121°11'4238194.9
2014-Nov-14 06:25N 38°44' E 121°27'102536539.1
2014-Nov-14 06:24N 23°04' E 113°30'102414130.7
2014-Nov-14 06:19N 38°42' E 121°29'85456955.9
2014-Nov-14 06:18N 24°40' E 118°41'4542244.9
2014-Nov-14 06:06N 31°60' E 120°49'23263.1
2014-Nov-14 06:06N 32°01' E 120°49'6641217.1
2014-Nov-14 05:33N 23°04' E 113°30'1026246170.7
2014-Nov-14 05:33N 38°43' E 121°32'21475.3
2014-Nov-14 05:33N 38°44' E 121°30'407244347.7
2014-Nov-14 05:33N 32°00' E 120°23'46667070.5
2014-Nov-14 05:33N 24°25' E 118°31'47111771.4
2014-Nov-14 05:30N 32°04' E 120°30'413449.1
2014-Nov-14 05:30N 31°41' E 121°10'138.2
2014-Nov-14 05:28N 31°41' E 121°11'65929658.3
2014-Nov-14 05:27N 23°04' E 113°30'6642795.1
2014-Nov-14 05:12N 32°01' E 120°49'2616.0
2014-Nov-14 05:12N 31°60' E 120°49'64315.8
2014-Nov-14 05:12N 31°54' E 120°49'41474.8
2014-Nov-14 05:12N 31°54' E 120°53'2336.2
2014-Nov-14 04:34N 32°02' E 120°28'32288.6
2014-Nov-14 04:33N 32°02' E 120°24'6512343932.5
2014-Nov-14 04:33N 23°04' E 113°30'659103169.3
2014-Nov-14 04:33N 31°41' E 121°11'25724.2
2014-Nov-14 04:31N 31°57' E 120°48'409245407.1
2014-Nov-14 04:31N 38°44' E 121°30'10268532.8
2014-Nov-14 04:24N 23°04' E 113°30'65852643.7
2014-Nov-14 04:23N 31°50' E 120°55'122364.6
2014-Nov-14 04:23N 32°01' E 120°49'281.3
2014-Nov-14 04:21N 31°60' E 120°49'1417.0
2014-Nov-14 03:34N 32°02' E 120°33'656337365.8
2014-Nov-14 03:33N 23°05' E 113°28'656295193.2
2014-Nov-14 03:33N 31°47' E 120°55'174961.0
2014-Nov-14 03:33N 31°60' E 120°44'12931000.7
2014-Nov-14 03:33N 30°25' E 122°27'68564906.1
2014-Nov-14 03:32N 22°13' E 113°35'6989102.5
2014-Nov-14 03:28N 31°41' E 121°11'65943139.7
2014-Nov-14 03:27N 23°04' E 113°30'1366.9
2014-Nov-14 03:15N 23°04' E 113°16'664953.3
2014-Nov-14 02:34N 32°00' E 120°38'205654.1
2014-Nov-14 02:33N 31°47' E 120°56'1410329.0
2014-Nov-14 02:33N 31°60' E 120°49'101409.3
2014-Nov-14 02:33N 31°60' E 120°37'11465.6
2014-Nov-14 02:31N 32°01' E 120°49'28760.7
2014-Nov-14 02:29N 31°41' E 121°11'694113607.1
2014-Nov-14 02:29N 22°17' E 113°35'10672787.3
2014-Nov-14 02:06N 38°44' E 121°27'418772.1
2014-Nov-14 01:33N 31°47' E 120°56'142581.3
2014-Nov-14 01:33N 31°60' E 120°49'54526.7
2014-Nov-14 01:33N 32°01' E 120°43'102080.0
2014-Nov-14 01:33N 32°01' E 120°31'655261915.6
2014-Nov-14 01:33N 23°04' E 113°30'102721997.0
2014-Nov-14 01:30N 38°44' E 121°29'1049145192.2
2014-Nov-14 01:29N 22°35' E 113°44'104842871.0
2014-Nov-14 01:28N 38°44' E 121°29'10315761.8
2014-Nov-14 01:17N 23°03' E 113°17'670921.2
2014-Nov-14 00:34N 32°01' E 120°48'193570.9
2014-Nov-14 00:33N 32°02' E 120°26'1195.4
2014-Nov-14 00:33N 32°01' E 120°25'670219129.8
2014-Nov-14 00:33N 22°32' E 113°49'67556529.3
2014-Nov-14 00:32N 31°41' E 121°11'141113.4
2014-Nov-14 00:31N 31°47' E 120°56'41816184.4
2014-Nov-14 00:30N 38°44' E 121°27'102512345.9
2014-Nov-14 00:25N 23°04' E 113°29'664125728.7
2014-Nov-14 00:24N 32°01' E 120°49'44336252.6
2014-Nov-14 00:24N 24°49' E 118°58'4436452.2
2014-Nov-14 00:19N 32°01' E 120°47'6 7.4
2014-Nov-13 23:33N 31°57' E 120°52'680349957.3
2014-Nov-13 23:33N 22°28' E 113°52'675101250.2
2014-Nov-13 23:33N 32°02' E 120°32'92330.9
2014-Nov-13 23:33N 31°59' E 120°22'2316340.3
2014-Nov-13 23:33N 32°01' E 120°48'15633.5
2014-Nov-13 23:31N 31°47' E 120°55'144299.7
2014-Nov-13 23:31N 31°41' E 121°11'6596245.9
2014-Nov-13 23:25N 23°04' E 113°29'46320.5
2014-Nov-13 23:16N 22°25' E 113°53'676949.2
2014-Nov-13 22:33N 31°47' E 120°55'53374.4
2014-Nov-13 22:33N 31°51' E 120°55'3319622.4
2014-Nov-13 22:33N 31°57' E 120°17'202890.1
2014-Nov-13 22:33N 32°00' E 120°40'678813071.8
2014-Nov-13 22:33N 22°27' E 113°54'6779589.7
2014-Nov-13 22:28N 31°41' E 121°11'3229501.6
2014-Nov-13 22:26N 36°54' E 122°38'9574159.6
2014-Nov-13 22:13N 23°04' E 113°29'9511458.2
2014-Nov-13 21:34N 36°52' E 122°30'316378659.1
2014-Nov-13 21:33N 31°47' E 120°55'41103.0
2014-Nov-13 21:33N 31°47' E 121°00'4377908.5
2014-Nov-13 21:33N 31°56' E 120°10'660297008.4
2014-Nov-13 21:33N 22°27' E 113°54'67720997.8
2014-Nov-13 21:31N 31°41' E 121°11'6594171.3
2014-Nov-13 21:22N 23°04' E 113°29'43519.6
2014-Nov-13 21:17N 22°27' E 113°53'6734506.2
2014-Nov-13 21:08N 32°02' E 120°28'6731177.0
2014-Nov-13 20:33N 22°27' E 113°53'674808670.9
2014-Nov-13 20:33N 31°47' E 120°55'278868.7
2014-Nov-13 20:33N 31°59' E 120°27'372428.1
2014-Nov-13 20:32N 31°44' E 121°07'5666820.2
2014-Nov-13 20:32N 31°57' E 120°03'603640.0
2014-Nov-13 20:31N 31°41' E 121°11'6596148.9
2014-Nov-13 20:25N 23°04' E 113°29'4450.8
2014-Nov-13 19:33N 22°27' E 113°54'677812685.5
2014-Nov-13 19:33N 31°40' E 121°13'162335.1
2014-Nov-13 19:33N 31°47' E 120°56'141384.8
2014-Nov-13 19:32N 31°41' E 121°11'6592053.8
2014-Nov-13 19:13N 23°04' E 113°29'4364.4
2014-Nov-13 18:33N 22°27' E 113°52'67715731.2
2014-Nov-13 18:31N 31°41' E 121°11'8118.4
2014-Nov-13 18:27N 31°35' E 121°18'66019788.7
2014-Nov-13 18:25N 23°04' E 113°29'1076.7
2014-Nov-13 18:17N 22°54' E 113°28'43819.7
2014-Nov-13 18:14N 22°11' E 113°32'2536.7
2014-Nov-13 17:33N 22°27' E 113°52'676173935.8
2014-Nov-13 17:33N 31°32' E 121°22'67118868.9
2014-Nov-13 17:31N 22°54' E 113°22'4615072.0
2014-Nov-13 17:31N 22°10' E 113°37'69749185.5
2014-Nov-13 17:30N 31°47' E 120°56'14388.1
2014-Nov-13 17:28N 31°41' E 121°11'6592605.3
2014-Nov-13 17:13N 23°04' E 113°29'  

Dump ship's entire track history